<?xml version="1.0" encoding="UTF-8" standalone="no" ?><gpx xmlns="http://www.topografix.com/GPX/1/1" xmlns:gpxx="http://www.garmin.com/xmlschemas/GpxExtensions/v3" xmlns:wptx1="http://www.garmin.com/xmlschemas/WaypointExtension/v1" xmlns:gpxtpx="http://www.garmin.com/xmlschemas/TrackPointExtension/v1" creator="GuideVTT.com" version="1.1" xmlns:xsi="http://www.w3.org/2001/XMLSchema-instance" xsi:schemaLocation="http://www.topografix.com/GPX/1/1 http://www.topografix.com/GPX/1/1/gpx.xsd http://www.garmin.com/xmlschemas/GpxExtensions/v3 http://www8.garmin.com/xmlschemas/GpxExtensionsv3.xsd http://www.garmin.com/xmlschemas/WaypointExtension/v1 http://www8.garmin.com/xmlschemas/WaypointExtensionv1.xsd http://www.garmin.com/xmlschemas/TrackPointExtension/v1 http://www.garmin.com/xmlschemas/TrackPointExtensionv1.xsd">
<metadata><link href="http://www.garmin.com"><text>Garmin International</text></link><time>2013-06-22T15:13:50Z</time></metadata>
<trk><name>piste_2014-06-01_224502.gpx</name><extensions><gpxx:TrackExtension><gpxx:DisplayColor>Cyan</gpxx:DisplayColor></gpxx:TrackExtension></extensions><trkseg>
<trkpt lat="46.6528121475" lon="6.5087689273"><ele></ele><time>2014-6-9T2:1:48Z</time></trkpt>
<trkpt lat="46.6528117284" lon="6.5087268502"><ele></ele><time>2014-6-9T2:1:51Z</time></trkpt>
<trkpt lat="46.6528142430" lon="6.5087162051"><ele></ele><time>2014-6-9T2:1:54Z</time></trkpt>
<trkpt lat="46.6526785400" lon="6.5087467991"><ele></ele><time>2014-6-9T2:1:57Z</time></trkpt>
<trkpt lat="46.6526652966" lon="6.5087099187"><ele></ele><time>2014-6-9T2:2:0Z</time></trkpt>
<trkpt lat="46.6527950484" lon="6.5087542590"><ele></ele><time>2014-6-9T2:2:3Z</time></trkpt>
<trkpt lat="46.6527888458" lon="6.5087057278"><ele></ele><time>2014-6-9T2:2:6Z</time></trkpt>
<trkpt lat="46.6528196912" lon="6.5086934902"><ele></ele><time>2014-6-9T2:2:9Z</time></trkpt>
<trkpt lat="46.6528597567" lon="6.5086793248"><ele></ele><time>2014-6-9T2:2:12Z</time></trkpt>
<trkpt lat="46.6529122274" lon="6.5086795762"><ele></ele><time>2014-6-9T2:2:15Z</time></trkpt>
<trkpt lat="46.6528418195" lon="6.5086650755"><ele></ele><time>2014-6-9T2:2:18Z</time></trkpt>
<trkpt lat="46.6528024245" lon="6.5086929034"><ele></ele><time>2014-6-9T2:2:21Z</time></trkpt>
<trkpt lat="46.6528151650" lon="6.5087017044"><ele></ele><time>2014-6-9T2:2:24Z</time></trkpt>
<trkpt lat="46.6527940426" lon="6.5087183006"><ele></ele><time>2014-6-9T2:2:27Z</time></trkpt>
<trkpt lat="46.6527999938" lon="6.5087169595"><ele></ele><time>2014-6-9T2:2:30Z</time></trkpt>
<trkpt lat="46.6528006643" lon="6.5087092482"><ele></ele><time>2014-6-9T2:2:33Z</time></trkpt>
<trkpt lat="46.6528294981" lon="6.5087233298"><ele></ele><time>2014-6-9T2:2:36Z</time></trkpt>
<trkpt lat="46.6528668813" lon="6.5087072365"><ele></ele><time>2014-6-9T2:2:39Z</time></trkpt>
<trkpt lat="46.6529517900" lon="6.5085600503"><ele></ele><time>2014-6-9T2:2:42Z</time></trkpt>
<trkpt lat="46.6531893332" lon="6.5083595552"><ele></ele><time>2014-6-9T2:2:45Z</time></trkpt>
<trkpt lat="46.6533502657" lon="6.5082754847"><ele></ele><time>2014-6-9T2:2:48Z</time></trkpt>
<trkpt lat="46.6534120403" lon="6.5080326609"><ele></ele><time>2014-6-9T2:2:51Z</time></trkpt>
<trkpt lat="46.6534224339" lon="6.5078982152"><ele></ele><time>2014-6-9T2:2:54Z</time></trkpt>
<trkpt lat="46.6535018105" lon="6.5067782253"><ele></ele><time>2014-6-9T2:2:57Z</time></trkpt>
<trkpt lat="46.6537978593" lon="6.5058019012"><ele></ele><time>2014-6-9T2:3:0Z</time></trkpt>
<trkpt lat="46.6538177244" lon="6.5057128854"><ele></ele><time>2014-6-9T2:3:3Z</time></trkpt>
<trkpt lat="46.6535446420" lon="6.5054433234"><ele></ele><time>2014-6-9T2:3:6Z</time></trkpt>
<trkpt lat="46.6533187497" lon="6.5050538164"><ele></ele><time>2014-6-9T2:3:9Z</time></trkpt>
<trkpt lat="46.6533388663" lon="6.5048008505"><ele></ele><time>2014-6-9T2:3:12Z</time></trkpt>
<trkpt lat="46.6534875613" lon="6.5043167118"><ele></ele><time>2014-6-9T2:3:15Z</time></trkpt>
<trkpt lat="46.6536307242" lon="6.5039241873"><ele></ele><time>2014-6-9T2:3:18Z</time></trkpt>
<trkpt lat="46.6538171377" lon="6.5034387913"><ele></ele><time>2014-6-9T2:3:21Z</time></trkpt>
<trkpt lat="46.6539214086" lon="6.5032542218"><ele></ele><time>2014-6-9T2:3:24Z</time></trkpt>
<trkpt lat="46.6541391704" lon="6.5030882601"><ele></ele><time>2014-6-9T2:3:27Z</time></trkpt>
<trkpt lat="46.6542917211" lon="6.5029290039"><ele></ele><time>2014-6-9T2:3:30Z</time></trkpt>
<trkpt lat="46.6545099858" lon="6.5025991760"><ele></ele><time>2014-6-9T2:3:33Z</time></trkpt>
<trkpt lat="46.6545835789" lon="6.5021963418"><ele></ele><time>2014-6-9T2:3:36Z</time></trkpt>
<trkpt lat="46.6546317749" lon="6.5017729718"><ele></ele><time>2014-6-9T2:3:39Z</time></trkpt>
<trkpt lat="46.6546332836" lon="6.5017272066"><ele></ele><time>2014-6-9T2:3:42Z</time></trkpt>
<trkpt lat="46.6547804698" lon="6.5012540482"><ele></ele><time>2014-6-9T2:3:45Z</time></trkpt>
<trkpt lat="46.6548807174" lon="6.5011795331"><ele></ele><time>2014-6-9T2:3:48Z</time></trkpt>
<trkpt lat="46.6550989822" lon="6.5010320116"><ele></ele><time>2014-6-9T2:3:51Z</time></trkpt>
<trkpt lat="46.6551569849" lon="6.5009651240"><ele></ele><time>2014-6-9T2:3:54Z</time></trkpt>
<trkpt lat="46.6553232819" lon="6.5007911995"><ele></ele><time>2014-6-9T2:3:57Z</time></trkpt>
<trkpt lat="46.6553501040" lon="6.5004612040"><ele></ele><time>2014-6-9T2:4:0Z</time></trkpt>
<trkpt lat="46.6552004870" lon="6.5001249220"><ele></ele><time>2014-6-9T2:4:3Z</time></trkpt>
<trkpt lat="46.6551653668" lon="6.4996414538"><ele></ele><time>2014-6-9T2:4:6Z</time></trkpt>
<trkpt lat="46.6552360263" lon="6.4991054311"><ele></ele><time>2014-6-9T2:4:9Z</time></trkpt>
<trkpt lat="46.6552827973" lon="6.4987038542"><ele></ele><time>2014-6-9T2:4:12Z</time></trkpt>
<trkpt lat="46.6552905925" lon="6.4986519702"><ele></ele><time>2014-6-9T2:4:15Z</time></trkpt>
<trkpt lat="46.6552914307" lon="6.4986137487"><ele></ele><time>2014-6-9T2:4:18Z</time></trkpt>
<trkpt lat="46.6553177498" lon="6.4981550910"><ele></ele><time>2014-6-9T2:4:21Z</time></trkpt>
<trkpt lat="46.6553092841" lon="6.4981098287"><ele></ele><time>2014-6-9T2:4:24Z</time></trkpt>
<trkpt lat="46.6552980524" lon="6.4980162028"><ele></ele><time>2014-6-9T2:4:27Z</time></trkpt>
<trkpt lat="46.6552980524" lon="6.4979823399"><ele></ele><time>2014-6-9T2:4:30Z</time></trkpt>
<trkpt lat="46.6552952025" lon="6.4979501534"><ele></ele><time>2014-6-9T2:4:33Z</time></trkpt>
<trkpt lat="46.6553050932" lon="6.4979141951"><ele></ele><time>2014-6-9T2:4:36Z</time></trkpt>
<trkpt lat="46.6552968789" lon="6.4978692681"><ele></ele><time>2014-6-9T2:4:39Z</time></trkpt>
<trkpt lat="46.6552262194" lon="6.4976315573"><ele></ele><time>2014-6-9T2:4:42Z</time></trkpt>
<trkpt lat="46.6551863216" lon="6.4974917471"><ele></ele><time>2014-6-9T2:4:45Z</time></trkpt>
<trkpt lat="46.6550882533" lon="6.4973308146"><ele></ele><time>2014-6-9T2:4:48Z</time></trkpt>
<trkpt lat="46.6549349483" lon="6.4971709717"><ele></ele><time>2014-6-9T2:4:51Z</time></trkpt>
<trkpt lat="46.6548776999" lon="6.4971169923"><ele></ele><time>2014-6-9T2:4:54Z</time></trkpt>
<trkpt lat="46.6548673902" lon="6.4970719814"><ele></ele><time>2014-6-9T2:4:57Z</time></trkpt>
<trkpt lat="46.6547761951" lon="6.4971128013"><ele></ele><time>2014-6-9T2:5:0Z</time></trkpt>
<trkpt lat="46.6548433341" lon="6.4971876517"><ele></ele><time>2014-6-9T2:5:3Z</time></trkpt>
<trkpt lat="46.6548487823" lon="6.4971216023"><ele></ele><time>2014-6-9T2:5:6Z</time></trkpt>
<trkpt lat="46.6547962278" lon="6.4970845543"><ele></ele><time>2014-6-9T2:5:9Z</time></trkpt>
<trkpt lat="46.6547912825" lon="6.4971040003"><ele></ele><time>2014-6-9T2:5:12Z</time></trkpt>
<trkpt lat="46.6547813918" lon="6.4971373603"><ele></ele><time>2014-6-9T2:5:15Z</time></trkpt>
<trkpt lat="46.6546467785" lon="6.4971387014"><ele></ele><time>2014-6-9T2:5:18Z</time></trkpt>
<trkpt lat="46.6545005981" lon="6.4971525315"><ele></ele><time>2014-6-9T2:5:21Z</time></trkpt>
<trkpt lat="46.6544896178" lon="6.4971495140"><ele></ele><time>2014-6-9T2:5:24Z</time></trkpt>
<trkpt lat="46.6543002706" lon="6.4971255418"><ele></ele><time>2014-6-9T2:5:27Z</time></trkpt>
<trkpt lat="46.6541146114" lon="6.4970785193"><ele></ele><time>2014-6-9T2:5:30Z</time></trkpt>
<trkpt lat="46.6537800059" lon="6.4968413115"><ele></ele><time>2014-6-9T2:5:33Z</time></trkpt>
<trkpt lat="46.6537768207" lon="6.4966978133"><ele></ele><time>2014-6-9T2:5:36Z</time></trkpt>
<trkpt lat="46.6538789123" lon="6.4962565899"><ele></ele><time>2014-6-9T2:5:39Z</time></trkpt>
<trkpt lat="46.6538959276" lon="6.4961959049"><ele></ele><time>2014-6-9T2:5:42Z</time></trkpt>
<trkpt lat="46.6539387591" lon="6.4960771333"><ele></ele><time>2014-6-9T2:5:45Z</time></trkpt>
<trkpt lat="46.6540633142" lon="6.4958392549"><ele></ele><time>2014-6-9T2:5:48Z</time></trkpt>
<trkpt lat="46.6541410144" lon="6.4957261831"><ele></ele><time>2014-6-9T2:5:51Z</time></trkpt>
<trkpt lat="46.6541807447" lon="6.4956335630"><ele></ele><time>2014-6-9T2:5:54Z</time></trkpt>
<trkpt lat="46.6542214807" lon="6.4955104329"><ele></ele><time>2014-6-9T2:5:57Z</time></trkpt>
<trkpt lat="46.6544218082" lon="6.4951127116"><ele></ele><time>2014-6-9T2:6:0Z</time></trkpt>
<trkpt lat="46.6545935534" lon="6.4950437285"><ele></ele><time>2014-6-9T2:6:3Z</time></trkpt>
<trkpt lat="46.6546428390" lon="6.4949215204"><ele></ele><time>2014-6-9T2:6:6Z</time></trkpt>
<trkpt lat="46.6546440125" lon="6.4948009048"><ele></ele><time>2014-6-9T2:6:9Z</time></trkpt>
<trkpt lat="46.6547592636" lon="6.4945626073"><ele></ele><time>2014-6-9T2:6:12Z</time></trkpt>
<trkpt lat="46.6547899414" lon="6.4945574943"><ele></ele><time>2014-6-9T2:6:15Z</time></trkpt>
<trkpt lat="46.6548355389" lon="6.4945546445"><ele></ele><time>2014-6-9T2:6:18Z</time></trkpt>
<trkpt lat="46.6548554040" lon="6.4945180994"><ele></ele><time>2014-6-9T2:6:21Z</time></trkpt>
<trkpt lat="46.6548602656" lon="6.4944918640"><ele></ele><time>2014-6-9T2:6:24Z</time></trkpt>
<trkpt lat="46.6548750177" lon="6.4942627866"><ele></ele><time>2014-6-9T2:6:27Z</time></trkpt>
<trkpt lat="46.6548611876" lon="6.4942108188"><ele></ele><time>2014-6-9T2:6:30Z</time></trkpt>
<trkpt lat="46.6548688989" lon="6.4940838329"><ele></ele><time>2014-6-9T2:6:33Z</time></trkpt>
<trkpt lat="46.6548575833" lon="6.4940236509"><ele></ele><time>2014-6-9T2:6:36Z</time></trkpt>
<trkpt lat="46.6548018437" lon="6.4939006045"><ele></ele><time>2014-6-9T2:6:39Z</time></trkpt>
<trkpt lat="46.6548250616" lon="6.4937838446"><ele></ele><time>2014-6-9T2:6:42Z</time></trkpt>
<trkpt lat="46.6548558231" lon="6.4937504008"><ele></ele><time>2014-6-9T2:6:45Z</time></trkpt>
<trkpt lat="46.6549830604" lon="6.4936852735"><ele></ele><time>2014-6-9T2:6:48Z</time></trkpt>
<trkpt lat="46.6549650393" lon="6.4936464652"><ele></ele><time>2014-6-9T2:6:51Z</time></trkpt>
<trkpt lat="46.6549414024" lon="6.4936650731"><ele></ele><time>2014-6-9T2:6:54Z</time></trkpt>
<trkpt lat="46.6549871676" lon="6.4936765563"><ele></ele><time>2014-6-9T2:6:57Z</time></trkpt>
<trkpt lat="46.6549944598" lon="6.4936716110"><ele></ele><time>2014-6-9T2:7:0Z</time></trkpt>
<trkpt lat="46.6550195217" lon="6.4936416037"><ele></ele><time>2014-6-9T2:7:3Z</time></trkpt>
<trkpt lat="46.6549626924" lon="6.4935541805"><ele></ele><time>2014-6-9T2:7:6Z</time></trkpt>
<trkpt lat="46.6549410671" lon="6.4935003687"><ele></ele><time>2014-6-9T2:7:9Z</time></trkpt>
<trkpt lat="46.6549072880" lon="6.4933993667"><ele></ele><time>2014-6-9T2:7:12Z</time></trkpt>
<trkpt lat="46.6549554840" lon="6.4933654200"><ele></ele><time>2014-6-9T2:7:15Z</time></trkpt>
<trkpt lat="46.6551006585" lon="6.4933867101"><ele></ele><time>2014-6-9T2:7:18Z</time></trkpt>
<trkpt lat="46.6552314162" lon="6.4933871292"><ele></ele><time>2014-6-9T2:7:21Z</time></trkpt>
<trkpt lat="46.6553133074" lon="6.4933955111"><ele></ele><time>2014-6-9T2:7:24Z</time></trkpt>
<trkpt lat="46.6553302389" lon="6.4934136998"><ele></ele><time>2014-6-9T2:7:27Z</time></trkpt>
<trkpt lat="46.6554720607" lon="6.4933014661"><ele></ele><time>2014-6-9T2:7:30Z</time></trkpt>
<trkpt lat="46.6554591525" lon="6.4932558686"><ele></ele><time>2014-6-9T2:7:33Z</time></trkpt>
<trkpt lat="46.6553893313" lon="6.4930740651"><ele></ele><time>2014-6-9T2:7:36Z</time></trkpt>
<trkpt lat="46.6553927679" lon="6.4928289782"><ele></ele><time>2014-6-9T2:7:39Z</time></trkpt>
<trkpt lat="46.6553786863" lon="6.4927190915"><ele></ele><time>2014-6-9T2:7:42Z</time></trkpt>
<trkpt lat="46.6551990621" lon="6.4925243799"><ele></ele><time>2014-6-9T2:7:45Z</time></trkpt>
<trkpt lat="46.6551359463" lon="6.4924339391"><ele></ele><time>2014-6-9T2:7:48Z</time></trkpt>
<trkpt lat="46.6550130676" lon="6.4923270699"><ele></ele><time>2014-6-9T2:7:51Z</time></trkpt>
<trkpt lat="46.6548223794" lon="6.4921400696"><ele></ele><time>2014-6-9T2:7:54Z</time></trkpt>
<trkpt lat="46.6548021790" lon="6.4921406563"><ele></ele><time>2014-6-9T2:7:57Z</time></trkpt>
<trkpt lat="46.6548870876" lon="6.4920161013"><ele></ele><time>2014-6-9T2:8:0Z</time></trkpt>
<trkpt lat="46.6549903527" lon="6.4917364810"><ele></ele><time>2014-6-9T2:8:3Z</time></trkpt>
<trkpt lat="46.6550565697" lon="6.4911924116"><ele></ele><time>2014-6-9T2:8:6Z</time></trkpt>
<trkpt lat="46.6550196894" lon="6.4906638488"><ele></ele><time>2014-6-9T2:8:9Z</time></trkpt>
<trkpt lat="46.6548540629" lon="6.4900590945"><ele></ele><time>2014-6-9T2:8:12Z</time></trkpt>
<trkpt lat="46.6547749378" lon="6.4896842558"><ele></ele><time>2014-6-9T2:8:15Z</time></trkpt>
<trkpt lat="46.6547979042" lon="6.4892728720"><ele></ele><time>2014-6-9T2:8:18Z</time></trkpt>
<trkpt lat="46.6547697410" lon="6.4888122026"><ele></ele><time>2014-6-9T2:8:21Z</time></trkpt>
<trkpt lat="46.6548652109" lon="6.4883869048"><ele></ele><time>2014-6-9T2:8:24Z</time></trkpt>
<trkpt lat="46.6550028417" lon="6.4881957974"><ele></ele><time>2014-6-9T2:8:27Z</time></trkpt>
<trkpt lat="46.6553941928" lon="6.4878269937"><ele></ele><time>2014-6-9T2:8:30Z</time></trkpt>
<trkpt lat="46.6556433029" lon="6.4874541666"><ele></ele><time>2014-6-9T2:8:33Z</time></trkpt>
<trkpt lat="46.6556711309" lon="6.4873800706"><ele></ele><time>2014-6-9T2:8:36Z</time></trkpt>
<trkpt lat="46.6556636710" lon="6.4872654062"><ele></ele><time>2014-6-9T2:8:39Z</time></trkpt>
<trkpt lat="46.6555625852" lon="6.4871371631"><ele></ele><time>2014-6-9T2:8:42Z</time></trkpt>
<trkpt lat="46.6552603338" lon="6.4869212452"><ele></ele><time>2014-6-9T2:8:45Z</time></trkpt>
<trkpt lat="46.6550061945" lon="6.4866738953"><ele></ele><time>2014-6-9T2:8:48Z</time></trkpt>
<trkpt lat="46.6547205392" lon="6.4861760940"><ele></ele><time>2014-6-9T2:8:51Z</time></trkpt>
<trkpt lat="46.6546578426" lon="6.4860171732"><ele></ele><time>2014-6-9T2:8:54Z</time></trkpt>
<trkpt lat="46.6545745265" lon="6.4858522173"><ele></ele><time>2014-6-9T2:8:57Z</time></trkpt>
<trkpt lat="46.6544415895" lon="6.4853447769"><ele></ele><time>2014-6-9T2:9:0Z</time></trkpt>
<trkpt lat="46.6543736961" lon="6.4850536734"><ele></ele><time>2014-6-9T2:9:3Z</time></trkpt>
<trkpt lat="46.6543280985" lon="6.4846935030"><ele></ele><time>2014-6-9T2:9:6Z</time></trkpt>
<trkpt lat="46.6544171982" lon="6.4844523557"><ele></ele><time>2014-6-9T2:9:9Z</time></trkpt>
<trkpt lat="46.6544684116" lon="6.4843106177"><ele></ele><time>2014-6-9T2:9:12Z</time></trkpt>
<trkpt lat="46.6545272525" lon="6.4841068536"><ele></ele><time>2014-6-9T2:9:15Z</time></trkpt>
<trkpt lat="46.6545889433" lon="6.4839910157"><ele></ele><time>2014-6-9T2:9:18Z</time></trkpt>
<trkpt lat="46.6547310166" lon="6.4837060310"><ele></ele><time>2014-6-9T2:9:21Z</time></trkpt>
<trkpt lat="46.6547265742" lon="6.4836590923"><ele></ele><time>2014-6-9T2:9:24Z</time></trkpt>
<trkpt lat="46.6547426675" lon="6.4835627005"><ele></ele><time>2014-6-9T2:9:27Z</time></trkpt>
<trkpt lat="46.6547669750" lon="6.4834886044"><ele></ele><time>2014-6-9T2:9:30Z</time></trkpt>
<trkpt lat="46.6548449267" lon="6.4834336191"><ele></ele><time>2014-6-9T2:9:33Z</time></trkpt>
<trkpt lat="46.6548764426" lon="6.4834254887"><ele></ele><time>2014-6-9T2:9:36Z</time></trkpt>
<trkpt lat="46.6549339425" lon="6.4834218845"><ele></ele><time>2014-6-9T2:9:39Z</time></trkpt>
<trkpt lat="46.6549740080" lon="6.4834189508"><ele></ele><time>2014-6-9T2:9:42Z</time></trkpt>
<trkpt lat="46.6549886763" lon="6.4834919572"><ele></ele><time>2014-6-9T2:9:45Z</time></trkpt>
<trkpt lat="46.6549691465" lon="6.4834433421"><ele></ele><time>2014-6-9T2:9:48Z</time></trkpt>
<trkpt lat="46.6549927834" lon="6.4834318589"><ele></ele><time>2014-6-9T2:9:51Z</time></trkpt>
<trkpt lat="46.6550145764" lon="6.4834777918"><ele></ele><time>2014-6-9T2:9:54Z</time></trkpt>
<trkpt lat="46.6550113913" lon="6.4834482875"><ele></ele><time>2014-6-9T2:9:57Z</time></trkpt>
<trkpt lat="46.6549918614" lon="6.4834393188"><ele></ele><time>2014-6-9T2:10:0Z</time></trkpt>
<trkpt lat="46.6550108045" lon="6.4834620338"><ele></ele><time>2014-6-9T2:10:3Z</time></trkpt>
<trkpt lat="46.6551402211" lon="6.4837786183"><ele></ele><time>2014-6-9T2:10:6Z</time></trkpt>
<trkpt lat="46.6552087013" lon="6.4839185961"><ele></ele><time>2014-6-9T2:10:9Z</time></trkpt>
<trkpt lat="46.6553117149" lon="6.4840194304"><ele></ele><time>2014-6-9T2:10:12Z</time></trkpt>
<trkpt lat="46.6556133796" lon="6.4843661059"><ele></ele><time>2014-6-9T2:10:15Z</time></trkpt>
<trkpt lat="46.6558775771" lon="6.4845681936"><ele></ele><time>2014-6-9T2:10:18Z</time></trkpt>
<trkpt lat="46.6561452113" lon="6.4845927525"><ele></ele><time>2014-6-9T2:10:21Z</time></trkpt>
<trkpt lat="46.6564552579" lon="6.4844720531"><ele></ele><time>2014-6-9T2:10:24Z</time></trkpt>
<trkpt lat="46.6567564197" lon="6.4843676146"><ele></ele><time>2014-6-9T2:10:27Z</time></trkpt>
<trkpt lat="46.6570778657" lon="6.4842700493"><ele></ele><time>2014-6-9T2:10:30Z</time></trkpt>
<trkpt lat="46.6572799534" lon="6.4842129685"><ele></ele><time>2014-6-9T2:10:33Z</time></trkpt>
<trkpt lat="46.6572825518" lon="6.4838718250"><ele></ele><time>2014-6-9T2:10:36Z</time></trkpt>
<trkpt lat="46.6572025046" lon="6.4833777118"><ele></ele><time>2014-6-9T2:10:39Z</time></trkpt>
<trkpt lat="46.6570927016" lon="6.4827276953"><ele></ele><time>2014-6-9T2:10:42Z</time></trkpt>
<trkpt lat="46.6571161710" lon="6.4822908305"><ele></ele><time>2014-6-9T2:10:45Z</time></trkpt>
<trkpt lat="46.6570835654" lon="6.4822306484"><ele></ele><time>2014-6-9T2:10:48Z</time></trkpt>
<trkpt lat="46.6571264807" lon="6.4821352623"><ele></ele><time>2014-6-9T2:10:51Z</time></trkpt>
<trkpt lat="46.6574609187" lon="6.4818514511"><ele></ele><time>2014-6-9T2:10:54Z</time></trkpt>
<trkpt lat="46.6577858012" lon="6.4815062843"><ele></ele><time>2014-6-9T2:10:57Z</time></trkpt>
<trkpt lat="46.6581731290" lon="6.4810875244"><ele></ele><time>2014-6-9T2:11:0Z</time></trkpt>
<trkpt lat="46.6585484706" lon="6.4806722011"><ele></ele><time>2014-6-9T2:11:3Z</time></trkpt>
<trkpt lat="46.6588667314" lon="6.4803764038"><ele></ele><time>2014-6-9T2:11:6Z</time></trkpt>
<trkpt lat="46.6591923684" lon="6.4804391842"><ele></ele><time>2014-6-9T2:11:9Z</time></trkpt>
<trkpt lat="46.6595417261" lon="6.4806705248"><ele></ele><time>2014-6-9T2:11:12Z</time></trkpt>
<trkpt lat="46.6598019004" lon="6.4810549188"><ele></ele><time>2014-6-9T2:11:15Z</time></trkpt>
<trkpt lat="46.6602577921" lon="6.4817229565"><ele></ele><time>2014-6-9T2:11:18Z</time></trkpt>
<trkpt lat="46.6607120074" lon="6.4823894016"><ele></ele><time>2014-6-9T2:11:21Z</time></trkpt>
<trkpt lat="46.6608731076" lon="6.4825531002"><ele></ele><time>2014-6-9T2:11:24Z</time></trkpt>
<trkpt lat="46.6609805636" lon="6.4824385196"><ele></ele><time>2014-6-9T2:11:27Z</time></trkpt>
<trkpt lat="46.6614875011" lon="6.4816957992"><ele></ele><time>2014-6-9T2:11:30Z</time></trkpt>
<trkpt lat="46.6616995633" lon="6.4811233990"><ele></ele><time>2014-6-9T2:11:33Z</time></trkpt>
<trkpt lat="46.6619226895" lon="6.4807965048"><ele></ele><time>2014-6-9T2:11:36Z</time></trkpt>
<trkpt lat="46.6621831153" lon="6.4806020446"><ele></ele><time>2014-6-9T2:11:39Z</time></trkpt>
<trkpt lat="46.6624608915" lon="6.4804167207"><ele></ele><time>2014-6-9T2:11:42Z</time></trkpt>
<trkpt lat="46.6627143603" lon="6.4802677743"><ele></ele><time>2014-6-9T2:11:45Z</time></trkpt>
<trkpt lat="46.6629762948" lon="6.4801267907"><ele></ele><time>2014-6-9T2:11:48Z</time></trkpt>
<trkpt lat="46.6632499639" lon="6.4799500164"><ele></ele><time>2014-6-9T2:11:51Z</time></trkpt>
<trkpt lat="46.6634477768" lon="6.4797488507"><ele></ele><time>2014-6-9T2:11:54Z</time></trkpt>
<trkpt lat="46.6634624451" lon="6.4797304105"><ele></ele><time>2014-6-9T2:11:57Z</time></trkpt>
<trkpt lat="46.6634981520" lon="6.4796639420"><ele></ele><time>2014-6-9T2:12:0Z</time></trkpt>
<trkpt lat="46.6637411434" lon="6.4795100503"><ele></ele><time>2014-6-9T2:12:3Z</time></trkpt>
<trkpt lat="46.6640242003" lon="6.4792541508"><ele></ele><time>2014-6-9T2:12:6Z</time></trkpt>
<trkpt lat="46.6642004717" lon="6.4792119898"><ele></ele><time>2014-6-9T2:12:9Z</time></trkpt>
<trkpt lat="46.6643403657" lon="6.4792414103"><ele></ele><time>2014-6-9T2:12:12Z</time></trkpt>
<trkpt lat="46.6646522563" lon="6.4793652948"><ele></ele><time>2014-6-9T2:12:15Z</time></trkpt>
<trkpt lat="46.6648519132" lon="6.4794643689"><ele></ele><time>2014-6-9T2:12:18Z</time></trkpt>
<trkpt lat="46.6651114170" lon="6.4794239681"><ele></ele><time>2014-6-9T2:12:21Z</time></trkpt>
<trkpt lat="46.6652435157" lon="6.4793248940"><ele></ele><time>2014-6-9T2:12:24Z</time></trkpt>
<trkpt lat="46.6653648857" lon="6.4792300947"><ele></ele><time>2014-6-9T2:12:27Z</time></trkpt>
<trkpt lat="46.6656608507" lon="6.4789763745"><ele></ele><time>2014-6-9T2:12:30Z</time></trkpt>
<trkpt lat="46.6656752676" lon="6.4789594430"><ele></ele><time>2014-6-9T2:12:33Z</time></trkpt>
<trkpt lat="46.6656816378" lon="6.4789420925"><ele></ele><time>2014-6-9T2:12:36Z</time></trkpt>
<trkpt lat="46.6656271555" lon="6.4790229779"><ele></ele><time>2014-6-9T2:12:39Z</time></trkpt>
<trkpt lat="46.6656355374" lon="6.4790223073"><ele></ele><time>2014-6-9T2:12:42Z</time></trkpt>
<trkpt lat="46.6656313464" lon="6.4790266659"><ele></ele><time>2014-6-9T2:12:45Z</time></trkpt>
<trkpt lat="46.6656176001" lon="6.4790333714"><ele></ele><time>2014-6-9T2:12:48Z</time></trkpt>
<trkpt lat="46.6656206176" lon="6.4790332876"><ele></ele><time>2014-6-9T2:12:51Z</time></trkpt>
<trkpt lat="46.6655988246" lon="6.4790391549"><ele></ele><time>2014-6-9T2:12:54Z</time></trkpt>
<trkpt lat="46.6656037699" lon="6.4789939765"><ele></ele><time>2014-6-9T2:12:57Z</time></trkpt>
<trkpt lat="46.6656093858" lon="6.4789906237"><ele></ele><time>2014-6-9T2:13:0Z</time></trkpt>
<trkpt lat="46.6656866670" lon="6.4789215568"><ele></ele><time>2014-6-9T2:13:3Z</time></trkpt>
<trkpt lat="46.6660174169" lon="6.4785567764"><ele></ele><time>2014-6-9T2:13:6Z</time></trkpt>
<trkpt lat="46.6663505137" lon="6.4785683434"><ele></ele><time>2014-6-9T2:13:9Z</time></trkpt>
<trkpt lat="46.6667366680" lon="6.4786400925"><ele></ele><time>2014-6-9T2:13:12Z</time></trkpt>
<trkpt lat="46.6672030371" lon="6.4785411861"><ele></ele><time>2014-6-9T2:13:15Z</time></trkpt>
<trkpt lat="46.6676077992" lon="6.4784116019"><ele></ele><time>2014-6-9T2:13:18Z</time></trkpt>
<trkpt lat="46.6677700728" lon="6.4783602208"><ele></ele><time>2014-6-9T2:13:21Z</time></trkpt>
<trkpt lat="46.6682180017" lon="6.4786657412"><ele></ele><time>2014-6-9T2:13:24Z</time></trkpt>
<trkpt lat="46.6685951874" lon="6.4788854308"><ele></ele><time>2014-6-9T2:13:27Z</time></trkpt>
<trkpt lat="46.6690640710" lon="6.4791521430"><ele></ele><time>2014-6-9T2:13:30Z</time></trkpt>
<trkpt lat="46.6696050391" lon="6.4795589168"><ele></ele><time>2014-6-9T2:13:33Z</time></trkpt>
<trkpt lat="46.6697405744" lon="6.4796347730"><ele></ele><time>2014-6-9T2:13:36Z</time></trkpt>
<trkpt lat="46.6703590751" lon="6.4797354396"><ele></ele><time>2014-6-9T2:13:39Z</time></trkpt>
<trkpt lat="46.6707755718" lon="6.4796627685"><ele></ele><time>2014-6-9T2:13:42Z</time></trkpt>
<trkpt lat="46.6712215729" lon="6.4795904327"><ele></ele><time>2014-6-9T2:13:45Z</time></trkpt>
<trkpt lat="46.6717040353" lon="6.4795272332"><ele></ele><time>2014-6-9T2:13:48Z</time></trkpt>
<trkpt lat="46.6718233936" lon="6.4795134868"><ele></ele><time>2014-6-9T2:13:51Z</time></trkpt>
<trkpt lat="46.6722133197" lon="6.4792145044"><ele></ele><time>2014-6-9T2:13:54Z</time></trkpt>
<trkpt lat="46.6725170799" lon="6.4790347964"><ele></ele><time>2014-6-9T2:13:57Z</time></trkpt>
<trkpt lat="46.6728823632" lon="6.4788017794"><ele></ele><time>2014-6-9T2:14:0Z</time></trkpt>
<trkpt lat="46.6730681062" lon="6.4786949940"><ele></ele><time>2014-6-9T2:14:3Z</time></trkpt>
<trkpt lat="46.6734769754" lon="6.4785739593"><ele></ele><time>2014-6-9T2:14:6Z</time></trkpt>
<trkpt lat="46.6737566795" lon="6.4785535913"><ele></ele><time>2014-6-9T2:14:9Z</time></trkpt>
<trkpt lat="46.6737876926" lon="6.4785430301"><ele></ele><time>2014-6-9T2:14:12Z</time></trkpt>
<trkpt lat="46.6741727572" lon="6.4783406910"><ele></ele><time>2014-6-9T2:14:15Z</time></trkpt>
<trkpt lat="46.6745565645" lon="6.4782629069"><ele></ele><time>2014-6-9T2:14:18Z</time></trkpt>
<trkpt lat="46.6749289725" lon="6.4781200793"><ele></ele><time>2014-6-9T2:14:21Z</time></trkpt>
<trkpt lat="46.6752918251" lon="6.4779053349"><ele></ele><time>2014-6-9T2:14:24Z</time></trkpt>
<trkpt lat="46.6755150352" lon="6.4776541293"><ele></ele><time>2014-6-9T2:14:27Z</time></trkpt>
<trkpt lat="46.6756795719" lon="6.4772457629"><ele></ele><time>2014-6-9T2:14:30Z</time></trkpt>
<trkpt lat="46.6757472977" lon="6.4769694116"><ele></ele><time>2014-6-9T2:14:33Z</time></trkpt>
<trkpt lat="46.6758674942" lon="6.4766606223"><ele></ele><time>2014-6-9T2:14:36Z</time></trkpt>
<trkpt lat="46.6759941448" lon="6.4762951713"><ele></ele><time>2014-6-9T2:14:39Z</time></trkpt>
<trkpt lat="46.6761167720" lon="6.4760283753"><ele></ele><time>2014-6-9T2:14:42Z</time></trkpt>
<trkpt lat="46.6762044467" lon="6.4757812768"><ele></ele><time>2014-6-9T2:14:45Z</time></trkpt>
<trkpt lat="46.6763079632" lon="6.4755115472"><ele></ele><time>2014-6-9T2:14:48Z</time></trkpt>
<trkpt lat="46.6763455980" lon="6.4754263870"><ele></ele><time>2014-6-9T2:14:51Z</time></trkpt>
<trkpt lat="46.6764739249" lon="6.4752818830"><ele></ele><time>2014-6-9T2:14:54Z</time></trkpt>
<trkpt lat="46.6764880065" lon="6.4752709866"><ele></ele><time>2014-6-9T2:14:57Z</time></trkpt>
<trkpt lat="46.6766607575" lon="6.4750836510"><ele></ele><time>2014-6-9T2:15:0Z</time></trkpt>
<trkpt lat="46.6766836401" lon="6.4750577509"><ele></ele><time>2014-6-9T2:15:3Z</time></trkpt>
<trkpt lat="46.6767033376" lon="6.4750325214"><ele></ele><time>2014-6-9T2:15:6Z</time></trkpt>
<trkpt lat="46.6768097039" lon="6.4749237243"><ele></ele><time>2014-6-9T2:15:9Z</time></trkpt>
<trkpt lat="46.6768257972" lon="6.4748853352"><ele></ele><time>2014-6-9T2:15:12Z</time></trkpt>
<trkpt lat="46.6768432315" lon="6.4748644643"><ele></ele><time>2014-6-9T2:15:15Z</time></trkpt>
<trkpt lat="46.6769874841" lon="6.4747072197"><ele></ele><time>2014-6-9T2:15:18Z</time></trkpt>
<trkpt lat="46.6770507675" lon="6.4746303577"><ele></ele><time>2014-6-9T2:15:21Z</time></trkpt>
<trkpt lat="46.6770987120" lon="6.4745918009"><ele></ele><time>2014-6-9T2:15:24Z</time></trkpt>
<trkpt lat="46.6771081835" lon="6.4745589439"><ele></ele><time>2014-6-9T2:15:27Z</time></trkpt>
<trkpt lat="46.6771827824" lon="6.4745565969"><ele></ele><time>2014-6-9T2:15:30Z</time></trkpt>
<trkpt lat="46.6773639154" lon="6.4744161163"><ele></ele><time>2014-6-9T2:15:33Z</time></trkpt>
<trkpt lat="46.6774624866" lon="6.4743207302"><ele></ele><time>2014-6-9T2:15:36Z</time></trkpt>
<trkpt lat="46.6775554419" lon="6.4741022140"><ele></ele><time>2014-6-9T2:15:39Z</time></trkpt>
<trkpt lat="46.6776360758" lon="6.4739057422"><ele></ele><time>2014-6-9T2:15:42Z</time></trkpt>
<trkpt lat="46.6776713636" lon="6.4738119487"><ele></ele><time>2014-6-9T2:15:45Z</time></trkpt>
<trkpt lat="46.6777538415" lon="6.4735801052"><ele></ele><time>2014-6-9T2:15:48Z</time></trkpt>
<trkpt lat="46.6778357327" lon="6.4733734913"><ele></ele><time>2014-6-9T2:15:51Z</time></trkpt>
<trkpt lat="46.6779218148" lon="6.4732392970"><ele></ele><time>2014-6-9T2:15:54Z</time></trkpt>
<trkpt lat="46.6779689211" lon="6.4731875807"><ele></ele><time>2014-6-9T2:15:57Z</time></trkpt>
<trkpt lat="46.6780556738" lon="6.4731341042"><ele></ele><time>2014-6-9T2:16:0Z</time></trkpt>
<trkpt lat="46.6780896205" lon="6.4731258061"><ele></ele><time>2014-6-9T2:16:3Z</time></trkpt>
<trkpt lat="46.6782657243" lon="6.4729590062"><ele></ele><time>2014-6-9T2:16:6Z</time></trkpt>
<trkpt lat="46.6783690732" lon="6.4728745166"><ele></ele><time>2014-6-9T2:16:9Z</time></trkpt>
<trkpt lat="46.6785348672" lon="6.4726420026"><ele></ele><time>2014-6-9T2:16:12Z</time></trkpt>
<trkpt lat="46.6785733402" lon="6.4725710917"><ele></ele><time>2014-6-9T2:16:15Z</time></trkpt>
<trkpt lat="46.6786279902" lon="6.4724177867"><ele></ele><time>2014-6-9T2:16:18Z</time></trkpt>
<trkpt lat="46.6785891820" lon="6.4723949879"><ele></ele><time>2014-6-9T2:16:21Z</time></trkpt>
<trkpt lat="46.6786095500" lon="6.4724289346"><ele></ele><time>2014-6-9T2:16:24Z</time></trkpt>
<trkpt lat="46.6785514634" lon="6.4724760409"><ele></ele><time>2014-6-9T2:16:27Z</time></trkpt>
<trkpt lat="46.6785986535" lon="6.4724294376"><ele></ele><time>2014-6-9T2:16:30Z</time></trkpt>
<trkpt lat="46.6785942949" lon="6.4724246599"><ele></ele><time>2014-6-9T2:16:33Z</time></trkpt>
<trkpt lat="46.6785732564" lon="6.4724913798"><ele></ele><time>2014-6-9T2:16:36Z</time></trkpt>
<trkpt lat="46.6785974801" lon="6.4724733587"><ele></ele><time>2014-6-9T2:16:39Z</time></trkpt>
<trkpt lat="46.6785994079" lon="6.4724697545"><ele></ele><time>2014-6-9T2:16:42Z</time></trkpt>
<trkpt lat="46.6786639486" lon="6.4725001808"><ele></ele><time>2014-6-9T2:16:45Z</time></trkpt>
<trkpt lat="46.6786113102" lon="6.4724563435"><ele></ele><time>2014-6-9T2:16:48Z</time></trkpt>
<trkpt lat="46.6786201950" lon="6.4724770468"><ele></ele><time>2014-6-9T2:16:51Z</time></trkpt>
<trkpt lat="46.6786712408" lon="6.4724639710"><ele></ele><time>2014-6-9T2:16:54Z</time></trkpt>
<trkpt lat="46.6786906030" lon="6.4724415913"><ele></ele><time>2014-6-9T2:16:57Z</time></trkpt>
<trkpt lat="46.6787289083" lon="6.4724110812"><ele></ele><time>2014-6-9T2:17:0Z</time></trkpt>
<trkpt lat="46.6788379569" lon="6.4723065589"><ele></ele><time>2014-6-9T2:17:3Z</time></trkpt>
<trkpt lat="46.6790192574" lon="6.4721576963"><ele></ele><time>2014-6-9T2:17:6Z</time></trkpt>
<trkpt lat="46.6790682077" lon="6.4721167088"><ele></ele><time>2014-6-9T2:17:9Z</time></trkpt>
<trkpt lat="46.6793353390" lon="6.4720090851"><ele></ele><time>2014-6-9T2:17:12Z</time></trkpt>
<trkpt lat="46.6796291247" lon="6.4718702808"><ele></ele><time>2014-6-9T2:17:15Z</time></trkpt>
<trkpt lat="46.6798608843" lon="6.4718216658"><ele></ele><time>2014-6-9T2:17:18Z</time></trkpt>
<trkpt lat="46.6801398341" lon="6.4718271140"><ele></ele><time>2014-6-9T2:17:21Z</time></trkpt>
<trkpt lat="46.6805523075" lon="6.4717084263"><ele></ele><time>2014-6-9T2:17:24Z</time></trkpt>
<trkpt lat="46.6809732467" lon="6.4713784307"><ele></ele><time>2014-6-9T2:17:27Z</time></trkpt>
<trkpt lat="46.6814303119" lon="6.4710128959"><ele></ele><time>2014-6-9T2:17:30Z</time></trkpt>
<trkpt lat="46.6814670246" lon="6.4709969703"><ele></ele><time>2014-6-9T2:17:33Z</time></trkpt>
<trkpt lat="46.6815096885" lon="6.4709387161"><ele></ele><time>2014-6-9T2:17:36Z</time></trkpt>
<trkpt lat="46.6812283918" lon="6.4706895221"><ele></ele><time>2014-6-9T2:17:39Z</time></trkpt>
<trkpt lat="46.6808833089" lon="6.4700793196"><ele></ele><time>2014-6-9T2:17:42Z</time></trkpt>
<trkpt lat="46.6806676425" lon="6.4696544409"><ele></ele><time>2014-6-9T2:17:45Z</time></trkpt>
<trkpt lat="46.6805491224" lon="6.4694133773"><ele></ele><time>2014-6-9T2:17:48Z</time></trkpt>
<trkpt lat="46.6803342942" lon="6.4687515423"><ele></ele><time>2014-6-9T2:17:51Z</time></trkpt>
<trkpt lat="46.6802964918" lon="6.4686639514"><ele></ele><time>2014-6-9T2:17:54Z</time></trkpt>
<trkpt lat="46.6801502276" lon="6.4682319481"><ele></ele><time>2014-6-9T2:17:57Z</time></trkpt>
<trkpt lat="46.6800395027" lon="6.4679079037"><ele></ele><time>2014-6-9T2:18:0Z</time></trkpt>
<trkpt lat="46.6799514089" lon="6.4675587136"><ele></ele><time>2014-6-9T2:18:3Z</time></trkpt>
<trkpt lat="46.6799188871" lon="6.4674542751"><ele></ele><time>2014-6-9T2:18:6Z</time></trkpt>
<trkpt lat="46.6798967589" lon="6.4673669357"><ele></ele><time>2014-6-9T2:18:9Z</time></trkpt>
<trkpt lat="46.6796637420" lon="6.4669905044"><ele></ele><time>2014-6-9T2:18:12Z</time></trkpt>
<trkpt lat="46.6794907395" lon="6.4667027537"><ele></ele><time>2014-6-9T2:18:15Z</time></trkpt>
<trkpt lat="46.6794341616" lon="6.4666622691"><ele></ele><time>2014-6-9T2:18:18Z</time></trkpt>
<trkpt lat="46.6791780945" lon="6.4666047692"><ele></ele><time>2014-6-9T2:18:21Z</time></trkpt>
<trkpt lat="46.6791148111" lon="6.4666131511"><ele></ele><time>2014-6-9T2:18:24Z</time></trkpt>
<trkpt lat="46.6790103726" lon="6.4666666277"><ele></ele><time>2014-6-9T2:18:27Z</time></trkpt>
<trkpt lat="46.6788936965" lon="6.4668134786"><ele></ele><time>2014-6-9T2:18:30Z</time></trkpt>
<trkpt lat="46.6788089555" lon="6.4669290651"><ele></ele><time>2014-6-9T2:18:33Z</time></trkpt>
<trkpt lat="46.6786737554" lon="6.4671098627"><ele></ele><time>2014-6-9T2:18:36Z</time></trkpt>
<trkpt lat="46.6786315106" lon="6.4671804383"><ele></ele><time>2014-6-9T2:18:39Z</time></trkpt>
<trkpt lat="46.6786271520" lon="6.4671456534"><ele></ele><time>2014-6-9T2:18:42Z</time></trkpt>
<trkpt lat="46.6785066202" lon="6.4670644328"><ele></ele><time>2014-6-9T2:18:45Z</time></trkpt>
<trkpt lat="46.6782208811" lon="6.4669194259"><ele></ele><time>2014-6-9T2:18:48Z</time></trkpt>
<trkpt lat="46.6779121757" lon="6.4667085372"><ele></ele><time>2014-6-9T2:18:51Z</time></trkpt>
<trkpt lat="46.6778137721" lon="6.4664001670"><ele></ele><time>2014-6-9T2:18:54Z</time></trkpt>
<trkpt lat="46.6775603872" lon="6.4660238195"><ele></ele><time>2014-6-9T2:18:57Z</time></trkpt>
<trkpt lat="46.6773760691" lon="6.4655729569"><ele></ele><time>2014-6-9T2:19:0Z</time></trkpt>
<trkpt lat="46.6772443894" lon="6.4650990441"><ele></ele><time>2014-6-9T2:19:3Z</time></trkpt>
<trkpt lat="46.6770219337" lon="6.4646998979"><ele></ele><time>2014-6-9T2:19:6Z</time></trkpt>
<trkpt lat="46.6767840553" lon="6.4644177631"><ele></ele><time>2014-6-9T2:19:9Z</time></trkpt>
<trkpt lat="46.6765376274" lon="6.4641103987"><ele></ele><time>2014-6-9T2:19:12Z</time></trkpt>
<trkpt lat="46.6764541436" lon="6.4640285075"><ele></ele><time>2014-6-9T2:19:15Z</time></trkpt>
<trkpt lat="46.6765155829" lon="6.4639657270"><ele></ele><time>2014-6-9T2:19:18Z</time></trkpt>
<trkpt lat="46.6765470151" lon="6.4640416671"><ele></ele><time>2014-6-9T2:19:21Z</time></trkpt>
<trkpt lat="46.6764681414" lon="6.4639526512"><ele></ele><time>2014-6-9T2:19:24Z</time></trkpt>
<trkpt lat="46.6764460132" lon="6.4640019368"><ele></ele><time>2014-6-9T2:19:27Z</time></trkpt>
<trkpt lat="46.6764679737" lon="6.4640095644"><ele></ele><time>2014-6-9T2:19:30Z</time></trkpt>
<trkpt lat="46.6764899343" lon="6.4639430959"><ele></ele><time>2014-6-9T2:19:33Z</time></trkpt>
<trkpt lat="46.6764670517" lon="6.4639324509"><ele></ele><time>2014-6-9T2:19:36Z</time></trkpt>
<trkpt lat="46.6761138383" lon="6.4639132563"><ele></ele><time>2014-6-9T2:19:39Z</time></trkpt>
<trkpt lat="46.6757597867" lon="6.4638547506"><ele></ele><time>2014-6-9T2:19:42Z</time></trkpt>
<trkpt lat="46.6756517440" lon="6.4638627972"><ele></ele><time>2014-6-9T2:19:45Z</time></trkpt>
<trkpt lat="46.6754582059" lon="6.4638078958"><ele></ele><time>2014-6-9T2:19:48Z</time></trkpt>
<trkpt lat="46.6753706150" lon="6.4637598675"><ele></ele><time>2014-6-9T2:19:51Z</time></trkpt>
<trkpt lat="46.6749079339" lon="6.4634808339"><ele></ele><time>2014-6-9T2:19:54Z</time></trkpt>
<trkpt lat="46.6744397208" lon="6.4632780757"><ele></ele><time>2014-6-9T2:19:57Z</time></trkpt>
<trkpt lat="46.6741293389" lon="6.4632154629"><ele></ele><time>2014-6-9T2:20:0Z</time></trkpt>
<trkpt lat="46.6739050392" lon="6.4631931670"><ele></ele><time>2014-6-9T2:20:3Z</time></trkpt>
<trkpt lat="46.6737908777" lon="6.4631841984"><ele></ele><time>2014-6-9T2:20:6Z</time></trkpt>
<trkpt lat="46.6734402627" lon="6.4630935062"><ele></ele><time>2014-6-9T2:20:9Z</time></trkpt>
<trkpt lat="46.6733135283" lon="6.4630547818"><ele></ele><time>2014-6-9T2:20:12Z</time></trkpt>
<trkpt lat="46.6730373446" lon="6.4630252775"><ele></ele><time>2014-6-9T2:20:15Z</time></trkpt>
<trkpt lat="46.6729624942" lon="6.4627677016"><ele></ele><time>2014-6-9T2:20:18Z</time></trkpt>
<trkpt lat="46.6730082594" lon="6.4626081940"><ele></ele><time>2014-6-9T2:20:21Z</time></trkpt>
<trkpt lat="46.6730837803" lon="6.4624260552"><ele></ele><time>2014-6-9T2:20:24Z</time></trkpt>
<trkpt lat="46.6730783321" lon="6.4623838104"><ele></ele><time>2014-6-9T2:20:27Z</time></trkpt>
<trkpt lat="46.6729678586" lon="6.4622917771"><ele></ele><time>2014-6-9T2:20:30Z</time></trkpt>
<trkpt lat="46.6724883299" lon="6.4619004261"><ele></ele><time>2014-6-9T2:20:33Z</time></trkpt>
<trkpt lat="46.6720245592" lon="6.4614369068"><ele></ele><time>2014-6-9T2:20:36Z</time></trkpt>
<trkpt lat="46.6717308573" lon="6.4610041492"><ele></ele><time>2014-6-9T2:20:39Z</time></trkpt>
<trkpt lat="46.6713191383" lon="6.4604458306"><ele></ele><time>2014-6-9T2:20:42Z</time></trkpt>
<trkpt lat="46.6709713731" lon="6.4599651285"><ele></ele><time>2014-6-9T2:20:45Z</time></trkpt>
<trkpt lat="46.6706148908" lon="6.4593933150"><ele></ele><time>2014-6-9T2:20:48Z</time></trkpt>
<trkpt lat="46.6702548042" lon="6.4586899895"><ele></ele><time>2014-6-9T2:20:51Z</time></trkpt>
<trkpt lat="46.6699791234" lon="6.4581726585"><ele></ele><time>2014-6-9T2:20:54Z</time></trkpt>
<trkpt lat="46.6697544884" lon="6.4577910304"><ele></ele><time>2014-6-9T2:20:57Z</time></trkpt>
<trkpt lat="46.6696918756" lon="6.4576868434"><ele></ele><time>2014-6-9T2:21:0Z</time></trkpt>
<trkpt lat="46.6695897002" lon="6.4574474562"><ele></ele><time>2014-6-9T2:21:3Z</time></trkpt>
<trkpt lat="46.6692715231" lon="6.4568918198"><ele></ele><time>2014-6-9T2:21:6Z</time></trkpt>
<trkpt lat="46.6692349780" lon="6.4568412770"><ele></ele><time>2014-6-9T2:21:9Z</time></trkpt>
<trkpt lat="46.6689778212" lon="6.4565947652"><ele></ele><time>2014-6-9T2:21:12Z</time></trkpt>
<trkpt lat="46.6688532662" lon="6.4564986248"><ele></ele><time>2014-6-9T2:21:15Z</time></trkpt>
<trkpt lat="46.6685764957" lon="6.4563837927"><ele></ele><time>2014-6-9T2:21:18Z</time></trkpt>
<trkpt lat="46.6683879867" lon="6.4563021529"><ele></ele><time>2014-6-9T2:21:21Z</time></trkpt>
<trkpt lat="46.6682335082" lon="6.4561636839"><ele></ele><time>2014-6-9T2:21:24Z</time></trkpt>
<trkpt lat="46.6680958774" lon="6.4559170045"><ele></ele><time>2014-6-9T2:21:27Z</time></trkpt>
<trkpt lat="46.6676861700" lon="6.4550027065"><ele></ele><time>2014-6-9T2:21:30Z</time></trkpt>
<trkpt lat="46.6673454456" lon="6.4544028137"><ele></ele><time>2014-6-9T2:21:33Z</time></trkpt>
<trkpt lat="46.6673217248" lon="6.4543547016"><ele></ele><time>2014-6-9T2:21:36Z</time></trkpt>
<trkpt lat="46.6671006940" lon="6.4539844729"><ele></ele><time>2014-6-9T2:21:39Z</time></trkpt>
<trkpt lat="46.6669321340" lon="6.4537118934"><ele></ele><time>2014-6-9T2:21:42Z</time></trkpt>
<trkpt lat="46.6665874701" lon="6.4531109948"><ele></ele><time>2014-6-9T2:21:45Z</time></trkpt>
<trkpt lat="46.6664717998" lon="6.4529358130"><ele></ele><time>2014-6-9T2:21:48Z</time></trkpt>
<trkpt lat="46.6664592270" lon="6.4529248327"><ele></ele><time>2014-6-9T2:21:51Z</time></trkpt>
<trkpt lat="46.6663496755" lon="6.4529897925"><ele></ele><time>2014-6-9T2:21:54Z</time></trkpt>
<trkpt lat="46.6662708856" lon="6.4531120006"><ele></ele><time>2014-6-9T2:21:57Z</time></trkpt>
<trkpt lat="46.6662649345" lon="6.4530880284"><ele></ele><time>2014-6-9T2:22:0Z</time></trkpt>
<trkpt lat="46.6662311554" lon="6.4530767966"><ele></ele><time>2014-6-9T2:22:3Z</time></trkpt>
<trkpt lat="46.6661572270" lon="6.4531983342"><ele></ele><time>2014-6-9T2:22:6Z</time></trkpt>
<trkpt lat="46.6660745814" lon="6.4532532357"><ele></ele><time>2014-6-9T2:22:9Z</time></trkpt>
<trkpt lat="46.6657783650" lon="6.4534766972"><ele></ele><time>2014-6-9T2:22:12Z</time></trkpt>
<trkpt lat="46.6655409057" lon="6.4536496159"><ele></ele><time>2014-6-9T2:22:15Z</time></trkpt>
<trkpt lat="46.6652694996" lon="6.4537921082"><ele></ele><time>2014-6-9T2:22:18Z</time></trkpt>
<trkpt lat="46.6648804117" lon="6.4539516158"><ele></ele><time>2014-6-9T2:22:21Z</time></trkpt>
<trkpt lat="46.6646009590" lon="6.4540156536"><ele></ele><time>2014-6-9T2:22:24Z</time></trkpt>
<trkpt lat="46.6644196585" lon="6.4539820421"><ele></ele><time>2014-6-9T2:22:27Z</time></trkpt>
<trkpt lat="46.6642110329" lon="6.4538560621"><ele></ele><time>2014-6-9T2:22:30Z</time></trkpt>
<trkpt lat="46.6640352644" lon="6.4538767654"><ele></ele><time>2014-6-9T2:22:33Z</time></trkpt>
<trkpt lat="46.6638468392" lon="6.4540659450"><ele></ele><time>2014-6-9T2:22:36Z</time></trkpt>
<trkpt lat="46.6637583263" lon="6.4540937729"><ele></ele><time>2014-6-9T2:22:39Z</time></trkpt>
<trkpt lat="46.6637180932" lon="6.4542461559"><ele></ele><time>2014-6-9T2:22:42Z</time></trkpt>
<trkpt lat="46.6636028420" lon="6.4544880576"><ele></ele><time>2014-6-9T2:22:45Z</time></trkpt>
<trkpt lat="46.6634294204" lon="6.4548947476"><ele></ele><time>2014-6-9T2:22:48Z</time></trkpt>
<trkpt lat="46.6633562464" lon="6.4550646488"><ele></ele><time>2014-6-9T2:22:51Z</time></trkpt>
<trkpt lat="46.6632606927" lon="6.4553079754"><ele></ele><time>2014-6-9T2:22:54Z</time></trkpt>
<trkpt lat="46.6632064618" lon="6.4554624539"><ele></ele><time>2014-6-9T2:22:57Z</time></trkpt>
<trkpt lat="46.6631959844" lon="6.4554943051"><ele></ele><time>2014-6-9T2:23:0Z</time></trkpt>
<trkpt lat="46.6631313600" lon="6.4555741847"><ele></ele><time>2014-6-9T2:23:3Z</time></trkpt>
<trkpt lat="46.6631073039" lon="6.4553839155"><ele></ele><time>2014-6-9T2:23:6Z</time></trkpt>
<trkpt lat="46.6630327050" lon="6.4552462846"><ele></ele><time>2014-6-9T2:23:9Z</time></trkpt>
<trkpt lat="46.6629707627" lon="6.4552743640"><ele></ele><time>2014-6-9T2:23:12Z</time></trkpt>
<trkpt lat="46.6629442759" lon="6.4551967476"><ele></ele><time>2014-6-9T2:23:15Z</time></trkpt>
<trkpt lat="46.6629490536" lon="6.4550984278"><ele></ele><time>2014-6-9T2:23:18Z</time></trkpt>
<trkpt lat="46.6629334632" lon="6.4549820870"><ele></ele><time>2014-6-9T2:23:21Z</time></trkpt>
<trkpt lat="46.6628503148" lon="6.4547647443"><ele></ele><time>2014-6-9T2:23:24Z</time></trkpt>
<trkpt lat="46.6627268493" lon="6.4545435458"><ele></ele><time>2014-6-9T2:23:27Z</time></trkpt>
<trkpt lat="46.6626814194" lon="6.4544399455"><ele></ele><time>2014-6-9T2:23:30Z</time></trkpt>
<trkpt lat="46.6626266856" lon="6.4543466549"><ele></ele><time>2014-6-9T2:23:33Z</time></trkpt>
<trkpt lat="46.6623475682" lon="6.4542151429"><ele></ele><time>2014-6-9T2:23:36Z</time></trkpt>
<trkpt lat="46.6622705385" lon="6.4542143047"><ele></ele><time>2014-6-9T2:23:39Z</time></trkpt>
<trkpt lat="46.6619804408" lon="6.4540177491"><ele></ele><time>2014-6-9T2:23:42Z</time></trkpt>
<trkpt lat="46.6619032435" lon="6.4538577385"><ele></ele><time>2014-6-9T2:23:45Z</time></trkpt>
<trkpt lat="46.6616006568" lon="6.4537603408"><ele></ele><time>2014-6-9T2:23:48Z</time></trkpt>
<trkpt lat="46.6613941267" lon="6.4536450058"><ele></ele><time>2014-6-9T2:23:51Z</time></trkpt>
<trkpt lat="46.6612875089" lon="6.4535547327"><ele></ele><time>2014-6-9T2:23:54Z</time></trkpt>
<trkpt lat="46.6612768639" lon="6.4533027727"><ele></ele><time>2014-6-9T2:23:57Z</time></trkpt>
<trkpt lat="46.6612794623" lon="6.4531723503"><ele></ele><time>2014-6-9T2:24:0Z</time></trkpt>
<trkpt lat="46.6612762772" lon="6.4530726057"><ele></ele><time>2014-6-9T2:24:3Z</time></trkpt>
<trkpt lat="46.6612740140" lon="6.4529629704"><ele></ele><time>2014-6-9T2:24:6Z</time></trkpt>
<trkpt lat="46.6613008361" lon="6.4527979307"><ele></ele><time>2014-6-9T2:24:9Z</time></trkpt>
<trkpt lat="46.6613247246" lon="6.4526161272"><ele></ele><time>2014-6-9T2:24:12Z</time></trkpt>
<trkpt lat="46.6613554861" lon="6.4523994550"><ele></ele><time>2014-6-9T2:24:15Z</time></trkpt>
<trkpt lat="46.6614011675" lon="6.4522436354"><ele></ele><time>2014-6-9T2:24:18Z</time></trkpt>
<trkpt lat="46.6615052707" lon="6.4518323354"><ele></ele><time>2014-6-9T2:24:21Z</time></trkpt>
<trkpt lat="46.6615105513" lon="6.4516431559"><ele></ele><time>2014-6-9T2:24:24Z</time></trkpt>
<trkpt lat="46.6614790354" lon="6.4513191953"><ele></ele><time>2014-6-9T2:24:27Z</time></trkpt>
<trkpt lat="46.6614714079" lon="6.4509303588"><ele></ele><time>2014-6-9T2:24:30Z</time></trkpt>
<trkpt lat="46.6614544764" lon="6.4507819992"><ele></ele><time>2014-6-9T2:24:33Z</time></trkpt>
<trkpt lat="46.6614478547" lon="6.4506359026"><ele></ele><time>2014-6-9T2:24:36Z</time></trkpt>
<trkpt lat="46.6614382155" lon="6.4501589723"><ele></ele><time>2014-6-9T2:24:39Z</time></trkpt>
<trkpt lat="46.6614026763" lon="6.4497749135"><ele></ele><time>2014-6-9T2:24:42Z</time></trkpt>
<trkpt lat="46.6613410693" lon="6.4493695647"><ele></ele><time>2014-6-9T2:24:45Z</time></trkpt>
<trkpt lat="46.6612065397" lon="6.4489306882"><ele></ele><time>2014-6-9T2:24:48Z</time></trkpt>
<trkpt lat="46.6610893607" lon="6.4484432805"><ele></ele><time>2014-6-9T2:24:51Z</time></trkpt>
<trkpt lat="46.6609529871" lon="6.4480181504"><ele></ele><time>2014-6-9T2:24:54Z</time></trkpt>
<trkpt lat="46.6608358081" lon="6.4475871529"><ele></ele><time>2014-6-9T2:24:57Z</time></trkpt>
<trkpt lat="46.6606889572" lon="6.4472656231"><ele></ele><time>2014-6-9T2:25:0Z</time></trkpt>
<trkpt lat="46.6606811620" lon="6.4472217020"><ele></ele><time>2014-6-9T2:25:3Z</time></trkpt>
<trkpt lat="46.6605680902" lon="6.4470890164"><ele></ele><time>2014-6-9T2:25:6Z</time></trkpt>
<trkpt lat="46.6605545115" lon="6.4470649604"><ele></ele><time>2014-6-9T2:25:9Z</time></trkpt>
<trkpt lat="46.6605606303" lon="6.4470641222"><ele></ele><time>2014-6-9T2:25:12Z</time></trkpt>
<trkpt lat="46.6605408490" lon="6.4470720850"><ele></ele><time>2014-6-9T2:25:15Z</time></trkpt>
<trkpt lat="46.6605748795" lon="6.4470827300"><ele></ele><time>2014-6-9T2:25:18Z</time></trkpt>
<trkpt lat="46.6605723649" lon="6.4470766112"><ele></ele><time>2014-6-9T2:25:21Z</time></trkpt>
<trkpt lat="46.6604254302" lon="6.4472054411"><ele></ele><time>2014-6-9T2:25:24Z</time></trkpt>
<trkpt lat="46.6600817721" lon="6.4473974705"><ele></ele><time>2014-6-9T2:25:27Z</time></trkpt>
<trkpt lat="46.6599031538" lon="6.4476186689"><ele></ele><time>2014-6-9T2:25:30Z</time></trkpt>
<trkpt lat="46.6598550417" lon="6.4479705412"><ele></ele><time>2014-6-9T2:25:33Z</time></trkpt>
<trkpt lat="46.6597872321" lon="6.4482882153"><ele></ele><time>2014-6-9T2:25:36Z</time></trkpt>
<trkpt lat="46.6597454064" lon="6.4483983535"><ele></ele><time>2014-6-9T2:25:39Z</time></trkpt>
<trkpt lat="46.6595526226" lon="6.4488948975"><ele></ele><time>2014-6-9T2:25:42Z</time></trkpt>
<trkpt lat="46.6594998166" lon="6.4490140043"><ele></ele><time>2014-6-9T2:25:45Z</time></trkpt>
<trkpt lat="46.6592321824" lon="6.4495495241"><ele></ele><time>2014-6-9T2:25:48Z</time></trkpt>
<trkpt lat="46.6590570007" lon="6.4499204233"><ele></ele><time>2014-6-9T2:25:51Z</time></trkpt>
<trkpt lat="46.6588940565" lon="6.4502883889"><ele></ele><time>2014-6-9T2:25:54Z</time></trkpt>
<trkpt lat="46.6588274203" lon="6.4503952581"><ele></ele><time>2014-6-9T2:25:57Z</time></trkpt>
<trkpt lat="46.6585028730" lon="6.4505866170"><ele></ele><time>2014-6-9T2:26:0Z</time></trkpt>
<trkpt lat="46.6580686904" lon="6.4507215656"><ele></ele><time>2014-6-9T2:26:3Z</time></trkpt>
<trkpt lat="46.6577399522" lon="6.4509358071"><ele></ele><time>2014-6-9T2:26:6Z</time></trkpt>
<trkpt lat="46.6577084363" lon="6.4509142656"><ele></ele><time>2014-6-9T2:26:9Z</time></trkpt>
<trkpt lat="46.6576728970" lon="6.4508915506"><ele></ele><time>2014-6-9T2:26:12Z</time></trkpt>
<trkpt lat="46.6576432250" lon="6.4508720208"><ele></ele><time>2014-6-9T2:26:15Z</time></trkpt>
<trkpt lat="46.6576367710" lon="6.4508749545"><ele></ele><time>2014-6-9T2:26:18Z</time></trkpt>
<trkpt lat="46.6575312428" lon="6.4508822467"><ele></ele><time>2014-6-9T2:26:21Z</time></trkpt>
<trkpt lat="46.6573683824" lon="6.4508428518"><ele></ele><time>2014-6-9T2:26:24Z</time></trkpt>
<trkpt lat="46.6570456792" lon="6.4508204721"><ele></ele><time>2014-6-9T2:26:27Z</time></trkpt>
<trkpt lat="46.6567491274" lon="6.4508753736"><ele></ele><time>2014-6-9T2:26:30Z</time></trkpt>
<trkpt lat="46.6565470397" lon="6.4509720169"><ele></ele><time>2014-6-9T2:26:33Z</time></trkpt>
<trkpt lat="46.6564466245" lon="6.4510175306"><ele></ele><time>2014-6-9T2:26:36Z</time></trkpt>
<trkpt lat="46.6560960095" lon="6.4510431793"><ele></ele><time>2014-6-9T2:26:39Z</time></trkpt>
<trkpt lat="46.6557552852" lon="6.4512045309"><ele></ele><time>2014-6-9T2:26:42Z</time></trkpt>
<trkpt lat="46.6556797642" lon="6.4512009267"><ele></ele><time>2014-6-9T2:26:45Z</time></trkpt>
<trkpt lat="46.6553734895" lon="6.4512337837"><ele></ele><time>2014-6-9T2:26:48Z</time></trkpt>
<trkpt lat="46.6549716610" lon="6.4514870010"><ele></ele><time>2014-6-9T2:26:51Z</time></trkpt>
<trkpt lat="46.6547600180" lon="6.4516441617"><ele></ele><time>2014-6-9T2:26:54Z</time></trkpt>
<trkpt lat="46.6544705071" lon="6.4516745042"><ele></ele><time>2014-6-9T2:26:57Z</time></trkpt>
<trkpt lat="46.6542383283" lon="6.4517765120"><ele></ele><time>2014-6-9T2:27:0Z</time></trkpt>
<trkpt lat="46.6539417766" lon="6.4518825430"><ele></ele><time>2014-6-9T2:27:3Z</time></trkpt>
<trkpt lat="46.6536398605" lon="6.4518525358"><ele></ele><time>2014-6-9T2:27:6Z</time></trkpt>
<trkpt lat="46.6533008125" lon="6.4519353490"><ele></ele><time>2014-6-9T2:27:9Z</time></trkpt>
<trkpt lat="46.6531985532" lon="6.4519497659"><ele></ele><time>2014-6-9T2:27:12Z</time></trkpt>
<trkpt lat="46.6529175080" lon="6.4519981295"><ele></ele><time>2014-6-9T2:27:15Z</time></trkpt>
<trkpt lat="46.6525585949" lon="6.4522155561"><ele></ele><time>2014-6-9T2:27:18Z</time></trkpt>
<trkpt lat="46.6523888614" lon="6.4524567034"><ele></ele><time>2014-6-9T2:27:21Z</time></trkpt>
<trkpt lat="46.6520821676" lon="6.4525292069"><ele></ele><time>2014-6-9T2:27:24Z</time></trkpt>
<trkpt lat="46.6516641621" lon="6.4526384231"><ele></ele><time>2014-6-9T2:27:27Z</time></trkpt>
<trkpt lat="46.6514734738" lon="6.4526607189"><ele></ele><time>2014-6-9T2:27:30Z</time></trkpt>
<trkpt lat="46.6511984635" lon="6.4525537658"><ele></ele><time>2014-6-9T2:27:33Z</time></trkpt>
<trkpt lat="46.6510703880" lon="6.4526056498"><ele></ele><time>2014-6-9T2:27:36Z</time></trkpt>
<trkpt lat="46.6508377064" lon="6.4526699390"><ele></ele><time>2014-6-9T2:27:39Z</time></trkpt>
<trkpt lat="46.6506503709" lon="6.4524898119"><ele></ele><time>2014-6-9T2:27:42Z</time></trkpt>
<trkpt lat="46.6506507061" lon="6.4524888899"><ele></ele><time>2014-6-9T2:27:45Z</time></trkpt>
<trkpt lat="46.6506444197" lon="6.4524898957"><ele></ele><time>2014-6-9T2:27:48Z</time></trkpt>
<trkpt lat="46.6506447550" lon="6.4524969365"><ele></ele><time>2014-6-9T2:27:51Z</time></trkpt>
<trkpt lat="46.6506378818" lon="6.4524867944"><ele></ele><time>2014-6-9T2:27:54Z</time></trkpt>
<trkpt lat="46.6506253090" lon="6.4524437115"><ele></ele><time>2014-6-9T2:27:57Z</time></trkpt>
<trkpt lat="46.6506857425" lon="6.4519690443"><ele></ele><time>2014-6-9T2:28:0Z</time></trkpt>
<trkpt lat="46.6506550647" lon="6.4513108972"><ele></ele><time>2014-6-9T2:28:3Z</time></trkpt>
<trkpt lat="46.6505440883" lon="6.4505661651"><ele></ele><time>2014-6-9T2:28:6Z</time></trkpt>
<trkpt lat="46.6504325252" lon="6.4498063456"><ele></ele><time>2014-6-9T2:28:9Z</time></trkpt>
<trkpt lat="46.6502925474" lon="6.4493247215"><ele></ele><time>2014-6-9T2:28:12Z</time></trkpt>
<trkpt lat="46.6502813157" lon="6.4492636174"><ele></ele><time>2014-6-9T2:28:15Z</time></trkpt>
<trkpt lat="46.6502394900" lon="6.4492250606"><ele></ele><time>2014-6-9T2:28:18Z</time></trkpt>
<trkpt lat="46.6502341256" lon="6.4492345322"><ele></ele><time>2014-6-9T2:28:21Z</time></trkpt>
<trkpt lat="46.6502140928" lon="6.4492384717"><ele></ele><time>2014-6-9T2:28:24Z</time></trkpt>
<trkpt lat="46.6502135899" lon="6.4492796268"><ele></ele><time>2014-6-9T2:28:27Z</time></trkpt>
<trkpt lat="46.6502021905" lon="6.4493240509"><ele></ele><time>2014-6-9T2:28:30Z</time></trkpt>
<trkpt lat="46.6502301861" lon="6.4492532238"><ele></ele><time>2014-6-9T2:28:33Z</time></trkpt>
<trkpt lat="46.6502431780" lon="6.4492587559"><ele></ele><time>2014-6-9T2:28:36Z</time></trkpt>
<trkpt lat="46.6502576787" lon="6.4492210373"><ele></ele><time>2014-6-9T2:28:39Z</time></trkpt>
<trkpt lat="46.6502698325" lon="6.4492082130"><ele></ele><time>2014-6-9T2:28:42Z</time></trkpt>
<trkpt lat="46.6502409987" lon="6.4492540620"><ele></ele><time>2014-6-9T2:28:45Z</time></trkpt>
<trkpt lat="46.6502741911" lon="6.4492117334"><ele></ele><time>2014-6-9T2:28:48Z</time></trkpt>
<trkpt lat="46.6502560023" lon="6.4492368791"><ele></ele><time>2014-6-9T2:28:51Z</time></trkpt>
<trkpt lat="46.6502731852" lon="6.4492199477"><ele></ele><time>2014-6-9T2:28:54Z</time></trkpt>
<trkpt lat="46.6502779629" lon="6.4491996635"><ele></ele><time>2014-6-9T2:28:57Z</time></trkpt>
<trkpt lat="46.6502421722" lon="6.4492210373"><ele></ele><time>2014-6-9T2:29:0Z</time></trkpt>
<trkpt lat="46.6502523143" lon="6.4492155891"><ele></ele><time>2014-6-9T2:29:3Z</time></trkpt>
<trkpt lat="46.6502099857" lon="6.4493399765"><ele></ele><time>2014-6-9T2:29:6Z</time></trkpt>
<trkpt lat="46.6502490453" lon="6.4492782857"><ele></ele><time>2014-6-9T2:29:9Z</time></trkpt>
<trkpt lat="46.6502438486" lon="6.4492379688"><ele></ele><time>2014-6-9T2:29:12Z</time></trkpt>
<trkpt lat="46.6501968261" lon="6.4493189380"><ele></ele><time>2014-6-9T2:29:15Z</time></trkpt>
<trkpt lat="46.6501688305" lon="6.4493693132"><ele></ele><time>2014-6-9T2:29:18Z</time></trkpt>
<trkpt lat="46.6501287650" lon="6.4493779466"><ele></ele><time>2014-6-9T2:29:21Z</time></trkpt>
<trkpt lat="46.6501160245" lon="6.4493559022"><ele></ele><time>2014-6-9T2:29:24Z</time></trkpt>
<trkpt lat="46.6501222271" lon="6.4493978955"><ele></ele><time>2014-6-9T2:29:27Z</time></trkpt>
<trkpt lat="46.6502363887" lon="6.4492812194"><ele></ele><time>2014-6-9T2:29:30Z</time></trkpt>
<trkpt lat="46.6502740234" lon="6.4492042735"><ele></ele><time>2014-6-9T2:29:33Z</time></trkpt>
<trkpt lat="46.6502868477" lon="6.4491654653"><ele></ele><time>2014-6-9T2:29:36Z</time></trkpt>
<trkpt lat="46.6502905358" lon="6.4491512161"><ele></ele><time>2014-6-9T2:29:39Z</time></trkpt>
<trkpt lat="46.6502709221" lon="6.4491826482"><ele></ele><time>2014-6-9T2:29:42Z</time></trkpt>
<trkpt lat="46.6502660606" lon="6.4492200315"><ele></ele><time>2014-6-9T2:29:45Z</time></trkpt>
<trkpt lat="46.6502542421" lon="6.4492252283"><ele></ele><time>2014-6-9T2:29:48Z</time></trkpt>
<trkpt lat="46.6502615344" lon="6.4492343646"><ele></ele><time>2014-6-9T2:29:51Z</time></trkpt>
<trkpt lat="46.6502424236" lon="6.4492701553"><ele></ele><time>2014-6-9T2:29:54Z</time></trkpt>
<trkpt lat="46.6502573434" lon="6.4492801297"><ele></ele><time>2014-6-9T2:29:57Z</time></trkpt>
<trkpt lat="46.6502641328" lon="6.4492960554"><ele></ele><time>2014-6-9T2:30:0Z</time></trkpt>
<trkpt lat="46.6503053717" lon="6.4492912777"><ele></ele><time>2014-6-9T2:30:3Z</time></trkpt>
<trkpt lat="46.6502523143" lon="6.4492522180"><ele></ele><time>2014-6-9T2:30:6Z</time></trkpt>
<trkpt lat="46.6500628833" lon="6.4488498028"><ele></ele><time>2014-6-9T2:30:9Z</time></trkpt>
<trkpt lat="46.6499163676" lon="6.4485126827"><ele></ele><time>2014-6-9T2:30:12Z</time></trkpt>
<trkpt lat="46.6496134456" lon="6.4478309825"><ele></ele><time>2014-6-9T2:30:15Z</time></trkpt>
<trkpt lat="46.6493399441" lon="6.4470495377"><ele></ele><time>2014-6-9T2:30:18Z</time></trkpt>
<trkpt lat="46.6493272036" lon="6.4464803226"><ele></ele><time>2014-6-9T2:30:21Z</time></trkpt>
<trkpt lat="46.6494044010" lon="6.4460515883"><ele></ele><time>2014-6-9T2:30:24Z</time></trkpt>
<trkpt lat="46.6494968534" lon="6.4456122089"><ele></ele><time>2014-6-9T2:30:27Z</time></trkpt>
<trkpt lat="46.6495083366" lon="6.4452192653"><ele></ele><time>2014-6-9T2:30:30Z</time></trkpt>
<trkpt lat="46.6495202389" lon="6.4450871665"><ele></ele><time>2014-6-9T2:30:33Z</time></trkpt>
<trkpt lat="46.6495260224" lon="6.4449509606"><ele></ele><time>2014-6-9T2:30:36Z</time></trkpt>
<trkpt lat="46.6495663393" lon="6.4446749445"><ele></ele><time>2014-6-9T2:30:39Z</time></trkpt>
<trkpt lat="46.6496136133" lon="6.4443840086"><ele></ele><time>2014-6-9T2:30:42Z</time></trkpt>
<trkpt lat="46.6496254317" lon="6.4443446975"><ele></ele><time>2014-6-9T2:30:45Z</time></trkpt>
<trkpt lat="46.6496587917" lon="6.4441924822"><ele></ele><time>2014-6-9T2:30:48Z</time></trkpt>
<trkpt lat="46.6497312114" lon="6.4439190645"><ele></ele><time>2014-6-9T2:30:51Z</time></trkpt>
<trkpt lat="46.6497384198" lon="6.4438145421"><ele></ele><time>2014-6-9T2:30:54Z</time></trkpt>
<trkpt lat="46.6498598736" lon="6.4434495103"><ele></ele><time>2014-6-9T2:30:57Z</time></trkpt>
<trkpt lat="46.6500037909" lon="6.4431833010"><ele></ele><time>2014-6-9T2:31:0Z</time></trkpt>
<trkpt lat="46.6501772963" lon="6.4428449236"><ele></ele><time>2014-6-9T2:31:3Z</time></trkpt>
<trkpt lat="46.6502195410" lon="6.4427283313"><ele></ele><time>2014-6-9T2:31:6Z</time></trkpt>
<trkpt lat="46.6502944753" lon="6.4425343741"><ele></ele><time>2014-6-9T2:31:9Z</time></trkpt>
<trkpt lat="46.6504217964" lon="6.4421943203"><ele></ele><time>2014-6-9T2:31:12Z</time></trkpt>
<trkpt lat="46.6504877619" lon="6.4419400971"><ele></ele><time>2014-6-9T2:31:15Z</time></trkpt>
<trkpt lat="46.6505444236" lon="6.4416151308"><ele></ele><time>2014-6-9T2:31:18Z</time></trkpt>
<trkpt lat="46.6505796276" lon="6.4414971974"><ele></ele><time>2014-6-9T2:31:21Z</time></trkpt>
<trkpt lat="46.6506219562" lon="6.4410891663"><ele></ele><time>2014-6-9T2:31:24Z</time></trkpt>
<trkpt lat="46.6506312601" lon="6.4410310797"><ele></ele><time>2014-6-9T2:31:27Z</time></trkpt>
<trkpt lat="46.6506861616" lon="6.4408403076"><ele></ele><time>2014-6-9T2:31:30Z</time></trkpt>
<trkpt lat="46.6507479362" lon="6.4405486174"><ele></ele><time>2014-6-9T2:31:33Z</time></trkpt>
<trkpt lat="46.6507672984" lon="6.4403030276"><ele></ele><time>2014-6-9T2:31:36Z</time></trkpt>
<trkpt lat="46.6507892590" lon="6.4401722699"><ele></ele><time>2014-6-9T2:31:39Z</time></trkpt>
<trkpt lat="46.6508218646" lon="6.4400324598"><ele></ele><time>2014-6-9T2:31:42Z</time></trkpt>
<trkpt lat="46.6509256326" lon="6.4395869616"><ele></ele><time>2014-6-9T2:31:45Z</time></trkpt>
<trkpt lat="46.6509486828" lon="6.4393096045"><ele></ele><time>2014-6-9T2:31:48Z</time></trkpt>
<trkpt lat="46.6509937774" lon="6.4388991427"><ele></ele><time>2014-6-9T2:31:51Z</time></trkpt>
<trkpt lat="46.6510076914" lon="6.4384933747"><ele></ele><time>2014-6-9T2:31:54Z</time></trkpt>
<trkpt lat="46.6509979684" lon="6.4384641219"><ele></ele><time>2014-6-9T2:31:57Z</time></trkpt>
<trkpt lat="46.6509317514" lon="6.4381475374"><ele></ele><time>2014-6-9T2:32:0Z</time></trkpt>
<trkpt lat="46.6509278119" lon="6.4380995091"><ele></ele><time>2014-6-9T2:32:3Z</time></trkpt>
<trkpt lat="46.6508965474" lon="6.4379235730"><ele></ele><time>2014-6-9T2:32:6Z</time></trkpt>
<trkpt lat="46.6507724114" lon="6.4376694337"><ele></ele><time>2014-6-9T2:32:9Z</time></trkpt>
<trkpt lat="46.6507558152" lon="6.4376340620"><ele></ele><time>2014-6-9T2:32:12Z</time></trkpt>
<trkpt lat="46.6506576631" lon="6.4375542663"><ele></ele><time>2014-6-9T2:32:15Z</time></trkpt>
<trkpt lat="46.6506200284" lon="6.4375385921"><ele></ele><time>2014-6-9T2:32:18Z</time></trkpt>
<trkpt lat="46.6505067889" lon="6.4374723751"><ele></ele><time>2014-6-9T2:32:21Z</time></trkpt>
<trkpt lat="46.6502047051" lon="6.4372096024"><ele></ele><time>2014-6-9T2:32:24Z</time></trkpt>
<trkpt lat="46.6499285214" lon="6.4369138051"><ele></ele><time>2014-6-9T2:32:27Z</time></trkpt>
<trkpt lat="46.6496006213" lon="6.4367504418"><ele></ele><time>2014-6-9T2:32:30Z</time></trkpt>
<trkpt lat="46.6492333263" lon="6.4364708215"><ele></ele><time>2014-6-9T2:32:33Z</time></trkpt>
<trkpt lat="46.6491581406" lon="6.4364270680"><ele></ele><time>2014-6-9T2:32:36Z</time></trkpt>
<trkpt lat="46.6489076056" lon="6.4359088987"><ele></ele><time>2014-6-9T2:32:39Z</time></trkpt>
<trkpt lat="46.6488186736" lon="6.4358348027"><ele></ele><time>2014-6-9T2:32:42Z</time></trkpt>
<trkpt lat="46.6487840563" lon="6.4357860200"><ele></ele><time>2014-6-9T2:32:45Z</time></trkpt>
<trkpt lat="46.6485605948" lon="6.4354426973"><ele></ele><time>2014-6-9T2:32:48Z</time></trkpt>
<trkpt lat="46.6482988279" lon="6.4350489154"><ele></ele><time>2014-6-9T2:32:51Z</time></trkpt>
<trkpt lat="46.6482908651" lon="6.4350057486"><ele></ele><time>2014-6-9T2:32:54Z</time></trkpt>
<trkpt lat="46.6480491310" lon="6.4346050099"><ele></ele><time>2014-6-9T2:32:57Z</time></trkpt>
<trkpt lat="46.6480051260" lon="6.4345594961"><ele></ele><time>2014-6-9T2:33:0Z</time></trkpt>
<trkpt lat="46.6476545110" lon="6.4340561628"><ele></ele><time>2014-6-9T2:33:3Z</time></trkpt>
<trkpt lat="46.6476374120" lon="6.4340118226"><ele></ele><time>2014-6-9T2:33:6Z</time></trkpt>
<trkpt lat="46.6475122701" lon="6.4337612875"><ele></ele><time>2014-6-9T2:33:9Z</time></trkpt>
<trkpt lat="46.6474511661" lon="6.4336736128"><ele></ele><time>2014-6-9T2:33:12Z</time></trkpt>
<trkpt lat="46.6471163929" lon="6.4333569445"><ele></ele><time>2014-6-9T2:33:15Z</time></trkpt>
<trkpt lat="46.6467367765" lon="6.4330729656"><ele></ele><time>2014-6-9T2:33:18Z</time></trkpt>
<trkpt lat="46.6466541309" lon="6.4330499992"><ele></ele><time>2014-6-9T2:33:21Z</time></trkpt>
<trkpt lat="46.6464053560" lon="6.4327619132"><ele></ele><time>2014-6-9T2:33:24Z</time></trkpt>
<trkpt lat="46.6463484429" lon="6.4326307364"><ele></ele><time>2014-6-9T2:33:27Z</time></trkpt>
<trkpt lat="46.6463139933" lon="6.4325319976"><ele></ele><time>2014-6-9T2:33:30Z</time></trkpt>
<trkpt lat="46.6460555792" lon="6.4321491960"><ele></ele><time>2014-6-9T2:33:33Z</time></trkpt>
<trkpt lat="46.6461056191" lon="6.4321419038"><ele></ele><time>2014-6-9T2:33:36Z</time></trkpt>
<trkpt lat="46.6461204551" lon="6.4321243856"><ele></ele><time>2014-6-9T2:33:39Z</time></trkpt>
<trkpt lat="46.6463051084" lon="6.4318662230"><ele></ele><time>2014-6-9T2:33:42Z</time></trkpt>
<trkpt lat="46.6463776957" lon="6.4317226410"><ele></ele><time>2014-6-9T2:33:45Z</time></trkpt>
<trkpt lat="46.6463374626" lon="6.4317518100"><ele></ele><time>2014-6-9T2:33:48Z</time></trkpt>
<trkpt lat="46.6463059466" lon="6.4318127465"><ele></ele><time>2014-6-9T2:33:51Z</time></trkpt>
<trkpt lat="46.6460467782" lon="6.4320954680"><ele></ele><time>2014-6-9T2:33:54Z</time></trkpt>
<trkpt lat="46.6456596181" lon="6.4321316779"><ele></ele><time>2014-6-9T2:33:57Z</time></trkpt>
<trkpt lat="46.6454887949" lon="6.4321499504"><ele></ele><time>2014-6-9T2:34:0Z</time></trkpt>
<trkpt lat="46.6454476397" lon="6.4321590867"><ele></ele><time>2014-6-9T2:34:3Z</time></trkpt>
<trkpt lat="46.6454032157" lon="6.4321679715"><ele></ele><time>2014-6-9T2:34:6Z</time></trkpt>
<trkpt lat="46.6453773994" lon="6.4321758505"><ele></ele><time>2014-6-9T2:34:9Z</time></trkpt>
<trkpt lat="46.6454012040" lon="6.4321134891"><ele></ele><time>2014-6-9T2:34:12Z</time></trkpt>
<trkpt lat="46.6455888748" lon="6.4319501258"><ele></ele><time>2014-6-9T2:34:15Z</time></trkpt>
<trkpt lat="46.6458515637" lon="6.4316042885"><ele></ele><time>2014-6-9T2:34:18Z</time></trkpt>
<trkpt lat="46.6460445989" lon="6.4312502369"><ele></ele><time>2014-6-9T2:34:21Z</time></trkpt>
<trkpt lat="46.6462999955" lon="6.4309680182"><ele></ele><time>2014-6-9T2:34:24Z</time></trkpt>
<trkpt lat="46.6464346927" lon="6.4307028148"><ele></ele><time>2014-6-9T2:34:27Z</time></trkpt>
<trkpt lat="46.6464763507" lon="6.4306355081"><ele></ele><time>2014-6-9T2:34:30Z</time></trkpt>
<trkpt lat="46.6465584096" lon="6.4304931834"><ele></ele><time>2014-6-9T2:34:33Z</time></trkpt>
<trkpt lat="46.6466786899" lon="6.4303110447"><ele></ele><time>2014-6-9T2:34:36Z</time></trkpt>
<trkpt lat="46.6467330884" lon="6.4302033372"><ele></ele><time>2014-6-9T2:34:39Z</time></trkpt>
<trkpt lat="46.6467558034" lon="6.4301757608"><ele></ele><time>2014-6-9T2:34:42Z</time></trkpt>
<trkpt lat="46.6468060948" lon="6.4300423209"><ele></ele><time>2014-6-9T2:34:45Z</time></trkpt>
<trkpt lat="46.6468885727" lon="6.4296994172"><ele></ele><time>2014-6-9T2:34:48Z</time></trkpt>
<trkpt lat="46.6468856391" lon="6.4295705874"><ele></ele><time>2014-6-9T2:34:51Z</time></trkpt>
<trkpt lat="46.6468654387" lon="6.4294640534"><ele></ele><time>2014-6-9T2:34:54Z</time></trkpt>
<trkpt lat="46.6468006466" lon="6.4293799829"><ele></ele><time>2014-6-9T2:34:57Z</time></trkpt>
<trkpt lat="46.6464610118" lon="6.4290815871"><ele></ele><time>2014-6-9T2:35:0Z</time></trkpt>
<trkpt lat="46.6463564057" lon="6.4286792558"><ele></ele><time>2014-6-9T2:35:3Z</time></trkpt>
<trkpt lat="46.6462993249" lon="6.4282945264"><ele></ele><time>2014-6-9T2:35:6Z</time></trkpt>
<trkpt lat="46.6462411545" lon="6.4279752597"><ele></ele><time>2014-6-9T2:35:9Z</time></trkpt>
<trkpt lat="46.6461793799" lon="6.4276447613"><ele></ele><time>2014-6-9T2:35:12Z</time></trkpt>
<trkpt lat="46.6461888514" lon="6.4274381474"><ele></ele><time>2014-6-9T2:35:15Z</time></trkpt>
<trkpt lat="46.6462146677" lon="6.4272528235"><ele></ele><time>2014-6-9T2:35:18Z</time></trkpt>
<trkpt lat="46.6462189425" lon="6.4272004366"><ele></ele><time>2014-6-9T2:35:21Z</time></trkpt>
<trkpt lat="46.6462010890" lon="6.4271358121"><ele></ele><time>2014-6-9T2:35:24Z</time></trkpt>
<trkpt lat="46.6461077146" lon="6.4268646576"><ele></ele><time>2014-6-9T2:35:27Z</time></trkpt>
<trkpt lat="46.6460419167" lon="6.4267448802"><ele></ele><time>2014-6-9T2:35:30Z</time></trkpt>
<trkpt lat="46.6460018512" lon="6.4266271144"><ele></ele><time>2014-6-9T2:35:33Z</time></trkpt>
<trkpt lat="46.6459343769" lon="6.4264646731"><ele></ele><time>2014-6-9T2:35:36Z</time></trkpt>
<trkpt lat="46.6458926350" lon="6.4263735618"><ele></ele><time>2014-6-9T2:35:39Z</time></trkpt>
<trkpt lat="46.6458151862" lon="6.4262093604"><ele></ele><time>2014-6-9T2:35:42Z</time></trkpt>
<trkpt lat="46.6457495559" lon="6.4261520281"><ele></ele><time>2014-6-9T2:35:45Z</time></trkpt>
<trkpt lat="46.6456155293" lon="6.4260029141"><ele></ele><time>2014-6-9T2:35:48Z</time></trkpt>
<trkpt lat="46.6455421876" lon="6.4258963801"><ele></ele><time>2014-6-9T2:35:51Z</time></trkpt>
<trkpt lat="46.6454830952" lon="6.4258013293"><ele></ele><time>2014-6-9T2:35:54Z</time></trkpt>
<trkpt lat="46.6453248449" lon="6.4256547298"><ele></ele><time>2014-6-9T2:35:57Z</time></trkpt>
<trkpt lat="46.6451193206" lon="6.4254862536"><ele></ele><time>2014-6-9T2:36:0Z</time></trkpt>
<trkpt lat="46.6449966095" lon="6.4253526460"><ele></ele><time>2014-6-9T2:36:3Z</time></trkpt>
<trkpt lat="46.6446625907" lon="6.4252592716"><ele></ele><time>2014-6-9T2:36:6Z</time></trkpt>
<trkpt lat="46.6443730798" lon="6.4252957329"><ele></ele><time>2014-6-9T2:36:9Z</time></trkpt>
<trkpt lat="46.6442385502" lon="6.4254173543"><ele></ele><time>2014-6-9T2:36:12Z</time></trkpt>
<trkpt lat="46.6441211198" lon="6.4254316036"><ele></ele><time>2014-6-9T2:36:15Z</time></trkpt>
<trkpt lat="46.6440450959" lon="6.4253264107"><ele></ele><time>2014-6-9T2:36:18Z</time></trkpt>
<trkpt lat="46.6439637076" lon="6.4251955692"><ele></ele><time>2014-6-9T2:36:21Z</time></trkpt>
<trkpt lat="46.6438140906" lon="6.4249944873"><ele></ele><time>2014-6-9T2:36:24Z</time></trkpt>
<trkpt lat="46.6437677387" lon="6.4249055553"><ele></ele><time>2014-6-9T2:36:27Z</time></trkpt>
<trkpt lat="46.6435314529" lon="6.4246764779"><ele></ele><time>2014-6-9T2:36:30Z</time></trkpt>
<trkpt lat="46.6432861984" lon="6.4244600572"><ele></ele><time>2014-6-9T2:36:33Z</time></trkpt>
<trkpt lat="46.6431275290" lon="6.4242203347"><ele></ele><time>2014-6-9T2:36:36Z</time></trkpt>
<trkpt lat="46.6429353319" lon="6.4239949454"><ele></ele><time>2014-6-9T2:36:39Z</time></trkpt>
<trkpt lat="46.6428163927" lon="6.4238793589"><ele></ele><time>2014-6-9T2:36:42Z</time></trkpt>
<trkpt lat="46.6425606608" lon="6.4235778619"><ele></ele><time>2014-6-9T2:36:45Z</time></trkpt>
<trkpt lat="46.6425300669" lon="6.4236170892"><ele></ele><time>2014-6-9T2:36:48Z</time></trkpt>
<trkpt lat="46.6425102856" lon="6.4236129820"><ele></ele><time>2014-6-9T2:36:51Z</time></trkpt>
<trkpt lat="46.6424628440" lon="6.4237807877"><ele></ele><time>2014-6-9T2:36:54Z</time></trkpt>
<trkpt lat="46.6424695496" lon="6.4238828793"><ele></ele><time>2014-6-9T2:36:57Z</time></trkpt>
<trkpt lat="46.6422480159" lon="6.4242091030"><ele></ele><time>2014-6-9T2:37:0Z</time></trkpt>
<trkpt lat="46.6422433220" lon="6.4242400322"><ele></ele><time>2014-6-9T2:37:3Z</time></trkpt>
<trkpt lat="46.6422098782" lon="6.4243347477"><ele></ele><time>2014-6-9T2:37:6Z</time></trkpt>
<trkpt lat="46.6422025859" lon="6.4243883081"><ele></ele><time>2014-6-9T2:37:9Z</time></trkpt>
<trkpt lat="46.6421906836" lon="6.4244484063"><ele></ele><time>2014-6-9T2:37:12Z</time></trkpt>
<trkpt lat="46.6421926115" lon="6.4244996198"><ele></ele><time>2014-6-9T2:37:15Z</time></trkpt>
<trkpt lat="46.6422192659" lon="6.4247602131"><ele></ele><time>2014-6-9T2:37:18Z</time></trkpt>
<trkpt lat="46.6421838105" lon="6.4248283580"><ele></ele><time>2014-6-9T2:37:21Z</time></trkpt>
<trkpt lat="46.6421481874" lon="6.4249048848"><ele></ele><time>2014-6-9T2:37:24Z</time></trkpt>
<trkpt lat="46.6421449184" lon="6.4248587005"><ele></ele><time>2014-6-9T2:37:27Z</time></trkpt>
<trkpt lat="46.6421225388" lon="6.4248058945"><ele></ele><time>2014-6-9T2:37:30Z</time></trkpt>
<trkpt lat="46.6421391349" lon="6.4248541743"><ele></ele><time>2014-6-9T2:37:33Z</time></trkpt>
<trkpt lat="46.6421928629" lon="6.4248297829"><ele></ele><time>2014-6-9T2:37:36Z</time></trkpt>
<trkpt lat="46.6421718244" lon="6.4248544257"><ele></ele><time>2014-6-9T2:37:39Z</time></trkpt>
<trkpt lat="46.6421268973" lon="6.4248206466"><ele></ele><time>2014-6-9T2:37:42Z</time></trkpt>
<trkpt lat="46.6421189345" lon="6.4248678368"><ele></ele><time>2014-6-9T2:37:45Z</time></trkpt>
<trkpt lat="46.6420585010" lon="6.4248925634"><ele></ele><time>2014-6-9T2:37:48Z</time></trkpt>
<trkpt lat="46.6419919487" lon="6.4248923119"><ele></ele><time>2014-6-9T2:37:51Z</time></trkpt>
<trkpt lat="46.6419336107" lon="6.4248706866"><ele></ele><time>2014-6-9T2:37:54Z</time></trkpt>
<trkpt lat="46.6418752726" lon="6.4248298667"><ele></ele><time>2014-6-9T2:37:57Z</time></trkpt>
<trkpt lat="46.6418694053" lon="6.4247312956"><ele></ele><time>2014-6-9T2:38:0Z</time></trkpt>
<trkpt lat="46.6418782063" lon="6.4247187227"><ele></ele><time>2014-6-9T2:38:3Z</time></trkpt>
<trkpt lat="46.6419450939" lon="6.4245805889"><ele></ele><time>2014-6-9T2:38:6Z</time></trkpt>
<trkpt lat="46.6420754325" lon="6.4243519306"><ele></ele><time>2014-6-9T2:38:9Z</time></trkpt>
<trkpt lat="46.6423123050" lon="6.4241132140"><ele></ele><time>2014-6-9T2:38:12Z</time></trkpt>
<trkpt lat="46.6423495207" lon="6.4240700472"><ele></ele><time>2014-6-9T2:38:15Z</time></trkpt>
<trkpt lat="46.6424554680" lon="6.4237251319"><ele></ele><time>2014-6-9T2:38:18Z</time></trkpt>
<trkpt lat="46.6424748302" lon="6.4235805441"><ele></ele><time>2014-6-9T2:38:21Z</time></trkpt>
<trkpt lat="46.6424565576" lon="6.4235226251"><ele></ele><time>2014-6-9T2:38:24Z</time></trkpt>
<trkpt lat="46.6423938610" lon="6.4234112296"><ele></ele><time>2014-6-9T2:38:27Z</time></trkpt>
<trkpt lat="46.6423626803" lon="6.4233462699"><ele></ele><time>2014-6-9T2:38:30Z</time></trkpt>
<trkpt lat="46.6420552321" lon="6.4232036099"><ele></ele><time>2014-6-9T2:38:33Z</time></trkpt>
<trkpt lat="46.6418906953" lon="6.4231104869"><ele></ele><time>2014-6-9T2:38:36Z</time></trkpt>
<trkpt lat="46.6418802179" lon="6.4230810665"><ele></ele><time>2014-6-9T2:38:39Z</time></trkpt>
<trkpt lat="46.6418421641" lon="6.4229738619"><ele></ele><time>2014-6-9T2:38:42Z</time></trkpt>
<trkpt lat="46.6418190300" lon="6.4228887018"><ele></ele><time>2014-6-9T2:38:45Z</time></trkpt>
<trkpt lat="46.6417754441" lon="6.4227447845"><ele></ele><time>2014-6-9T2:38:48Z</time></trkpt>
<trkpt lat="46.6416112427" lon="6.4225514140"><ele></ele><time>2014-6-9T2:38:51Z</time></trkpt>
<trkpt lat="46.6412188858" lon="6.4223294612"><ele></ele><time>2014-6-9T2:38:54Z</time></trkpt>
<trkpt lat="46.6409629863" lon="6.4221876394"><ele></ele><time>2014-6-9T2:38:57Z</time></trkpt>
<trkpt lat="46.6407701187" lon="6.4221179020"><ele></ele><time>2014-6-9T2:39:0Z</time></trkpt>
<trkpt lat="46.6404740699" lon="6.4216692187"><ele></ele><time>2014-6-9T2:39:3Z</time></trkpt>
<trkpt lat="46.6404220182" lon="6.4215314202"><ele></ele><time>2014-6-9T2:39:6Z</time></trkpt>
<trkpt lat="46.6402909253" lon="6.4211983234"><ele></ele><time>2014-6-9T2:39:9Z</time></trkpt>
<trkpt lat="46.6401539650" lon="6.4208126720"><ele></ele><time>2014-6-9T2:39:12Z</time></trkpt>
<trkpt lat="46.6401721537" lon="6.4205184672"><ele></ele><time>2014-6-9T2:39:15Z</time></trkpt>
<trkpt lat="46.6401813738" lon="6.4203858655"><ele></ele><time>2014-6-9T2:39:18Z</time></trkpt>
<trkpt lat="46.6401242930" lon="6.4202537667"><ele></ele><time>2014-6-9T2:39:21Z</time></trkpt>
<trkpt lat="46.6400186811" lon="6.4200686105"><ele></ele><time>2014-6-9T2:39:24Z</time></trkpt>
<trkpt lat="46.6400023364" lon="6.4200537745"><ele></ele><time>2014-6-9T2:39:27Z</time></trkpt>
<trkpt lat="46.6399893444" lon="6.4199959394"><ele></ele><time>2014-6-9T2:39:30Z</time></trkpt>
<trkpt lat="46.6399198584" lon="6.4198681153"><ele></ele><time>2014-6-9T2:39:33Z</time></trkpt>
<trkpt lat="46.6399068665" lon="6.4198347554"><ele></ele><time>2014-6-9T2:39:36Z</time></trkpt>
<trkpt lat="46.6398165096" lon="6.4197449852"><ele></ele><time>2014-6-9T2:39:39Z</time></trkpt>
<trkpt lat="46.6397595126" lon="6.4194159955"><ele></ele><time>2014-6-9T2:39:42Z</time></trkpt>
<trkpt lat="46.6396217979" lon="6.4190632850"><ele></ele><time>2014-6-9T2:39:45Z</time></trkpt>
<trkpt lat="46.6396034416" lon="6.4190056175"><ele></ele><time>2014-6-9T2:39:48Z</time></trkpt>
<trkpt lat="46.6395025235" lon="6.4188302681"><ele></ele><time>2014-6-9T2:39:51Z</time></trkpt>
<trkpt lat="46.6395089775" lon="6.4188270830"><ele></ele><time>2014-6-9T2:39:54Z</time></trkpt>
<trkpt lat="46.6394540761" lon="6.4187840838"><ele></ele><time>2014-6-9T2:39:57Z</time></trkpt>
<trkpt lat="46.6394819878" lon="6.4187526517"><ele></ele><time>2014-6-9T2:40:0Z</time></trkpt>
<trkpt lat="46.6395440139" lon="6.4183515776"><ele></ele><time>2014-6-9T2:40:3Z</time></trkpt>
<trkpt lat="46.6395803075" lon="6.4179575443"><ele></ele><time>2014-6-9T2:40:6Z</time></trkpt>
<trkpt lat="46.6395014338" lon="6.4178006351"><ele></ele><time>2014-6-9T2:40:9Z</time></trkpt>
<trkpt lat="46.6394127533" lon="6.4175198413"><ele></ele><time>2014-6-9T2:40:12Z</time></trkpt>
<trkpt lat="46.6392451990" lon="6.4172114711"><ele></ele><time>2014-6-9T2:40:15Z</time></trkpt>
<trkpt lat="46.6390796565" lon="6.4170419052"><ele></ele><time>2014-6-9T2:40:18Z</time></trkpt>
<trkpt lat="46.6388253495" lon="6.4171214495"><ele></ele><time>2014-6-9T2:40:21Z</time></trkpt>
<trkpt lat="46.6387132835" lon="6.4171569049"><ele></ele><time>2014-6-9T2:40:24Z</time></trkpt>
<trkpt lat="46.6385611519" lon="6.4171158336"><ele></ele><time>2014-6-9T2:40:27Z</time></trkpt>
<trkpt lat="46.6383328289" lon="6.4170283265"><ele></ele><time>2014-6-9T2:40:30Z</time></trkpt>
<trkpt lat="46.6382486746" lon="6.4170197770"><ele></ele><time>2014-6-9T2:40:33Z</time></trkpt>
<trkpt lat="46.6380017437" lon="6.4170101378"><ele></ele><time>2014-6-9T2:40:36Z</time></trkpt>
<trkpt lat="46.6379071120" lon="6.4169559907"><ele></ele><time>2014-6-9T2:40:39Z</time></trkpt>
<trkpt lat="46.6377204470" lon="6.4168356266"><ele></ele><time>2014-6-9T2:40:42Z</time></trkpt>
<trkpt lat="46.6375563294" lon="6.4165996760"><ele></ele><time>2014-6-9T2:40:45Z</time></trkpt>
<trkpt lat="46.6374974046" lon="6.4164902922"><ele></ele><time>2014-6-9T2:40:48Z</time></trkpt>
<trkpt lat="46.6370694246" lon="6.4161723666"><ele></ele><time>2014-6-9T2:40:51Z</time></trkpt>
<trkpt lat="46.6370208096" lon="6.4161297027"><ele></ele><time>2014-6-9T2:40:54Z</time></trkpt>
<trkpt lat="46.6369294468" lon="6.4160870388"><ele></ele><time>2014-6-9T2:40:57Z</time></trkpt>
<trkpt lat="46.6366368346" lon="6.4159164671"><ele></ele><time>2014-6-9T2:41:0Z</time></trkpt>
<trkpt lat="46.6363866348" lon="6.4157183189"><ele></ele><time>2014-6-9T2:41:3Z</time></trkpt>
<trkpt lat="46.6363477428" lon="6.4156635012"><ele></ele><time>2014-6-9T2:41:6Z</time></trkpt>
<trkpt lat="46.6361594852" lon="6.4156367630"><ele></ele><time>2014-6-9T2:41:9Z</time></trkpt>
<trkpt lat="46.6361323278" lon="6.4156291354"><ele></ele><time>2014-6-9T2:41:12Z</time></trkpt>
<trkpt lat="46.6360099521" lon="6.4156152215"><ele></ele><time>2014-6-9T2:41:15Z</time></trkpt>
<trkpt lat="46.6359490156" lon="6.4155906625"><ele></ele><time>2014-6-9T2:41:18Z</time></trkpt>
<trkpt lat="46.6356767714" lon="6.4156456478"><ele></ele><time>2014-6-9T2:41:21Z</time></trkpt>
<trkpt lat="46.6353557445" lon="6.4156004693"><ele></ele><time>2014-6-9T2:41:24Z</time></trkpt>
<trkpt lat="46.6350596957" lon="6.4155362640"><ele></ele><time>2014-6-9T2:41:27Z</time></trkpt>
<trkpt lat="46.6349591129" lon="6.4154773392"><ele></ele><time>2014-6-9T2:41:30Z</time></trkpt>
<trkpt lat="46.6347260959" lon="6.4153776783"><ele></ele><time>2014-6-9T2:41:33Z</time></trkpt>
<trkpt lat="46.6344919894" lon="6.4153712243"><ele></ele><time>2014-6-9T2:41:36Z</time></trkpt>
<trkpt lat="46.6340633389" lon="6.4152452443"><ele></ele><time>2014-6-9T2:41:39Z</time></trkpt>
<trkpt lat="46.6338626761" lon="6.4151979703"><ele></ele><time>2014-6-9T2:41:42Z</time></trkpt>
<trkpt lat="46.6337201837" lon="6.4150017500"><ele></ele><time>2014-6-9T2:41:45Z</time></trkpt>
<trkpt lat="46.6335677169" lon="6.4146309346"><ele></ele><time>2014-6-9T2:41:48Z</time></trkpt>
<trkpt lat="46.6334978957" lon="6.4143806510"><ele></ele><time>2014-6-9T2:41:51Z</time></trkpt>
<trkpt lat="46.6334294155" lon="6.4141515736"><ele></ele><time>2014-6-9T2:41:54Z</time></trkpt>
<trkpt lat="46.6332274117" lon="6.4137329813"><ele></ele><time>2014-6-9T2:41:57Z</time></trkpt>
<trkpt lat="46.6331508011" lon="6.4135925844"><ele></ele><time>2014-6-9T2:42:0Z</time></trkpt>
<trkpt lat="46.6331251524" lon="6.4135355037"><ele></ele><time>2014-6-9T2:42:3Z</time></trkpt>
<trkpt lat="46.6330446862" lon="6.4134156425"><ele></ele><time>2014-6-9T2:42:6Z</time></trkpt>
<trkpt lat="46.6329866834" lon="6.4133660216"><ele></ele><time>2014-6-9T2:42:9Z</time></trkpt>
<trkpt lat="46.6328567639" lon="6.4132574759"><ele></ele><time>2014-6-9T2:42:12Z</time></trkpt>
<trkpt lat="46.6328073945" lon="6.4132211823"><ele></ele><time>2014-6-9T2:42:15Z</time></trkpt>
<trkpt lat="46.6326782294" lon="6.4131708909"><ele></ele><time>2014-6-9T2:42:18Z</time></trkpt>
<trkpt lat="46.6325973440" lon="6.4131048415"><ele></ele><time>2014-6-9T2:42:21Z</time></trkpt>
<trkpt lat="46.6325281933" lon="6.4130340982"><ele></ele><time>2014-6-9T2:42:24Z</time></trkpt>
<trkpt lat="46.6324979346" lon="6.4130180888"><ele></ele><time>2014-6-9T2:42:27Z</time></trkpt>
<trkpt lat="46.6324287839" lon="6.4129032567"><ele></ele><time>2014-6-9T2:42:30Z</time></trkpt>
<trkpt lat="46.6323131137" lon="6.4127127361"><ele></ele><time>2014-6-9T2:42:33Z</time></trkpt>
<trkpt lat="46.6321475711" lon="6.4126849920"><ele></ele><time>2014-6-9T2:42:36Z</time></trkpt>
<trkpt lat="46.6319196671" lon="6.4125839900"><ele></ele><time>2014-6-9T2:42:39Z</time></trkpt>
<trkpt lat="46.6318511032" lon="6.4124565851"><ele></ele><time>2014-6-9T2:42:42Z</time></trkpt>
<trkpt lat="46.6316917632" lon="6.4124064613"><ele></ele><time>2014-6-9T2:42:45Z</time></trkpt>
<trkpt lat="46.6312541440" lon="6.4125862531"><ele></ele><time>2014-6-9T2:42:48Z</time></trkpt>
<trkpt lat="46.6312214546" lon="6.4126093872"><ele></ele><time>2014-6-9T2:42:51Z</time></trkpt>
<trkpt lat="46.6310722567" lon="6.4125502948"><ele></ele><time>2014-6-9T2:42:54Z</time></trkpt>
<trkpt lat="46.6310471948" lon="6.4125397336"><ele></ele><time>2014-6-9T2:42:57Z</time></trkpt>
<trkpt lat="46.6309477016" lon="6.4125180244"><ele></ele><time>2014-6-9T2:43:0Z</time></trkpt>
<trkpt lat="46.6308388207" lon="6.4124762826"><ele></ele><time>2014-6-9T2:43:3Z</time></trkpt>
<trkpt lat="46.6305187996" lon="6.4126056153"><ele></ele><time>2014-6-9T2:43:6Z</time></trkpt>
<trkpt lat="46.6303705238" lon="6.4125095587"><ele></ele><time>2014-6-9T2:43:9Z</time></trkpt>
<trkpt lat="46.6300752293" lon="6.4121804852"><ele></ele><time>2014-6-9T2:43:12Z</time></trkpt>
<trkpt lat="46.6296145599" lon="6.4119955804"><ele></ele><time>2014-6-9T2:43:15Z</time></trkpt>
<trkpt lat="46.6293846443" lon="6.4118299540"><ele></ele><time>2014-6-9T2:43:18Z</time></trkpt>
<trkpt lat="46.6293621808" lon="6.4117887989"><ele></ele><time>2014-6-9T2:43:21Z</time></trkpt>
<trkpt lat="46.6293118056" lon="6.4117389265"><ele></ele><time>2014-6-9T2:43:24Z</time></trkpt>
<trkpt lat="46.6292310879" lon="6.4116541855"><ele></ele><time>2014-6-9T2:43:27Z</time></trkpt>
<trkpt lat="46.6291693971" lon="6.4114381000"><ele></ele><time>2014-6-9T2:43:30Z</time></trkpt>
<trkpt lat="46.6291520465" lon="6.4113091864"><ele></ele><time>2014-6-9T2:43:33Z</time></trkpt>
<trkpt lat="46.6291428264" lon="6.4112533629"><ele></ele><time>2014-6-9T2:43:36Z</time></trkpt>
<trkpt lat="46.6291117296" lon="6.4111128822"><ele></ele><time>2014-6-9T2:43:39Z</time></trkpt>
<trkpt lat="46.6290616058" lon="6.4107502811"><ele></ele><time>2014-6-9T2:43:42Z</time></trkpt>
<trkpt lat="46.6288697440" lon="6.4104623627"><ele></ele><time>2014-6-9T2:43:45Z</time></trkpt>
<trkpt lat="46.6286893655" lon="6.4102767035"><ele></ele><time>2014-6-9T2:43:48Z</time></trkpt>
<trkpt lat="46.6284633894" lon="6.4101275895"><ele></ele><time>2014-6-9T2:43:51Z</time></trkpt>
<trkpt lat="46.6279160511" lon="6.4099127613"><ele></ele><time>2014-6-9T2:43:54Z</time></trkpt>
<trkpt lat="46.6276758257" lon="6.4098790661"><ele></ele><time>2014-6-9T2:43:57Z</time></trkpt>
<trkpt lat="46.6274830420" lon="6.4099096600"><ele></ele><time>2014-6-9T2:44:0Z</time></trkpt>
<trkpt lat="46.6275002249" lon="6.4098866936"><ele></ele><time>2014-6-9T2:44:3Z</time></trkpt>
<trkpt lat="46.6275112052" lon="6.4098877832"><ele></ele><time>2014-6-9T2:44:6Z</time></trkpt>
<trkpt lat="46.6275466606" lon="6.4099413436"><ele></ele><time>2014-6-9T2:44:9Z</time></trkpt>
<trkpt lat="46.6276127938" lon="6.4100805670"><ele></ele><time>2014-6-9T2:44:12Z</time></trkpt>
<trkpt lat="46.6277758218" lon="6.4103688207"><ele></ele><time>2014-6-9T2:44:15Z</time></trkpt>
<trkpt lat="46.6278743092" lon="6.4104599319"><ele></ele><time>2014-6-9T2:44:18Z</time></trkpt>
<trkpt lat="46.6280011274" lon="6.4106153324"><ele></ele><time>2014-6-9T2:44:21Z</time></trkpt>
<trkpt lat="46.6281042248" lon="6.4107110538"><ele></ele><time>2014-6-9T2:44:24Z</time></trkpt>
<trkpt lat="46.6281627305" lon="6.4107431564"><ele></ele><time>2014-6-9T2:44:27Z</time></trkpt>
<trkpt lat="46.6284231562" lon="6.4111373574"><ele></ele><time>2014-6-9T2:44:30Z</time></trkpt>
<trkpt lat="46.6286272556" lon="6.4114807639"><ele></ele><time>2014-6-9T2:44:33Z</time></trkpt>
<trkpt lat="46.6286757030" lon="6.4116647467"><ele></ele><time>2014-6-9T2:44:36Z</time></trkpt>
<trkpt lat="46.6287281737" lon="6.4120995160"><ele></ele><time>2014-6-9T2:44:39Z</time></trkpt>
<trkpt lat="46.6287820693" lon="6.4125974011"><ele></ele><time>2014-6-9T2:44:42Z</time></trkpt>
<trkpt lat="46.6288045328" lon="6.4127248898"><ele></ele><time>2014-6-9T2:44:45Z</time></trkpt>
<trkpt lat="46.6289501265" lon="6.4130825456"><ele></ele><time>2014-6-9T2:44:48Z</time></trkpt>
<trkpt lat="46.6290349513" lon="6.4133410435"><ele></ele><time>2014-6-9T2:44:51Z</time></trkpt>
<trkpt lat="46.6291238833" lon="6.4136531856"><ele></ele><time>2014-6-9T2:44:54Z</time></trkpt>
<trkpt lat="46.6291232128" lon="6.4137864579"><ele></ele><time>2014-6-9T2:44:57Z</time></trkpt>
<trkpt lat="46.6292570718" lon="6.4141644817"><ele></ele><time>2014-6-9T2:45:0Z</time></trkpt>
<trkpt lat="46.6293927748" lon="6.4144676551"><ele></ele><time>2014-6-9T2:45:3Z</time></trkpt>
<trkpt lat="46.6293982230" lon="6.4146689884"><ele></ele><time>2014-6-9T2:45:6Z</time></trkpt>
<trkpt lat="46.6293811239" lon="6.4148112293"><ele></ele><time>2014-6-9T2:45:9Z</time></trkpt>
<trkpt lat="46.6291889269" lon="6.4152993076"><ele></ele><time>2014-6-9T2:45:12Z</time></trkpt>
<trkpt lat="46.6290931217" lon="6.4155111182"><ele></ele><time>2014-6-9T2:45:15Z</time></trkpt>
<trkpt lat="46.6289639566" lon="6.4157314785"><ele></ele><time>2014-6-9T2:45:18Z</time></trkpt>
<trkpt lat="46.6289383918" lon="6.4158467297"><ele></ele><time>2014-6-9T2:45:21Z</time></trkpt>
<trkpt lat="46.6288821492" lon="6.4160079136"><ele></ele><time>2014-6-9T2:45:24Z</time></trkpt>
<trkpt lat="46.6288725939" lon="6.4161152020"><ele></ele><time>2014-6-9T2:45:27Z</time></trkpt>
<trkpt lat="46.6289569158" lon="6.4165280107"><ele></ele><time>2014-6-9T2:45:30Z</time></trkpt>
<trkpt lat="46.6292069480" lon="6.4172061905"><ele></ele><time>2014-6-9T2:45:33Z</time></trkpt>
<trkpt lat="46.6291872505" lon="6.4172704797"><ele></ele><time>2014-6-9T2:45:36Z</time></trkpt>
<trkpt lat="46.6291420721" lon="6.4174001478"><ele></ele><time>2014-6-9T2:45:39Z</time></trkpt>
<trkpt lat="46.6290722508" lon="6.4176532812"><ele></ele><time>2014-6-9T2:45:42Z</time></trkpt>
<trkpt lat="46.6290061176" lon="6.4177589770"><ele></ele><time>2014-6-9T2:45:45Z</time></trkpt>
<trkpt lat="46.6288887709" lon="6.4180075843"><ele></ele><time>2014-6-9T2:45:48Z</time></trkpt>
<trkpt lat="46.6287567560" lon="6.4183303714"><ele></ele><time>2014-6-9T2:45:51Z</time></trkpt>
<trkpt lat="46.6287817340" lon="6.4184477180"><ele></ele><time>2014-6-9T2:45:54Z</time></trkpt>
<trkpt lat="46.6288413294" lon="6.4184961654"><ele></ele><time>2014-6-9T2:45:57Z</time></trkpt>
<trkpt lat="46.6288397368" lon="6.4185137674"><ele></ele><time>2014-6-9T2:46:0Z</time></trkpt>
<trkpt lat="46.6288536508" lon="6.4185005240"><ele></ele><time>2014-6-9T2:46:3Z</time></trkpt>
<trkpt lat="46.6287391540" lon="6.4186712634"><ele></ele><time>2014-6-9T2:46:6Z</time></trkpt>
<trkpt lat="46.6286924668" lon="6.4187833294"><ele></ele><time>2014-6-9T2:46:9Z</time></trkpt>
<trkpt lat="46.6285462026" lon="6.4199058339"><ele></ele><time>2014-6-9T2:46:12Z</time></trkpt>
<trkpt lat="46.6285121720" lon="6.4202748891"><ele></ele><time>2014-6-9T2:46:15Z</time></trkpt>
<trkpt lat="46.6284723580" lon="6.4206130151"><ele></ele><time>2014-6-9T2:46:18Z</time></trkpt>
<trkpt lat="46.6284806561" lon="6.4209458604"><ele></ele><time>2014-6-9T2:46:21Z</time></trkpt>
<trkpt lat="46.6290523857" lon="6.4215433225"><ele></ele><time>2014-6-9T2:46:24Z</time></trkpt>
<trkpt lat="46.6294653621" lon="6.4220006391"><ele></ele><time>2014-6-9T2:46:27Z</time></trkpt>
<trkpt lat="46.6299366765" lon="6.4228439424"><ele></ele><time>2014-6-9T2:46:30Z</time></trkpt>
<trkpt lat="46.6302249301" lon="6.4232735988"><ele></ele><time>2014-6-9T2:46:33Z</time></trkpt>
<trkpt lat="46.6302496567" lon="6.4236973878"><ele></ele><time>2014-6-9T2:46:36Z</time></trkpt>
<trkpt lat="46.6297182441" lon="6.4246683475"><ele></ele><time>2014-6-9T2:46:39Z</time></trkpt>
<trkpt lat="46.6295984667" lon="6.4248016197"><ele></ele><time>2014-6-9T2:46:42Z</time></trkpt>
<trkpt lat="46.6289502941" lon="6.4251966588"><ele></ele><time>2014-6-9T2:46:45Z</time></trkpt>
<trkpt lat="46.6288048681" lon="6.4253185317"><ele></ele><time>2014-6-9T2:46:48Z</time></trkpt>
<trkpt lat="46.6285112500" lon="6.4257264789"><ele></ele><time>2014-6-9T2:46:51Z</time></trkpt>
<trkpt lat="46.6284202226" lon="6.4259140659"><ele></ele><time>2014-6-9T2:46:54Z</time></trkpt>
<trkpt lat="46.6282200627" lon="6.4271752909"><ele></ele><time>2014-6-9T2:46:57Z</time></trkpt>
<trkpt lat="46.6282639001" lon="6.4277810510"><ele></ele><time>2014-6-9T2:47:0Z</time></trkpt>
<trkpt lat="46.6281577852" lon="6.4289212413"><ele></ele><time>2014-6-9T2:47:3Z</time></trkpt>
<trkpt lat="46.6281151213" lon="6.4294150192"><ele></ele><time>2014-6-9T2:47:6Z</time></trkpt>
<trkpt lat="46.6281687655" lon="6.4297042787"><ele></ele><time>2014-6-9T2:47:9Z</time></trkpt>
<trkpt lat="46.6286536586" lon="6.4305222686"><ele></ele><time>2014-6-9T2:47:12Z</time></trkpt>
<trkpt lat="46.6287553310" lon="6.4308562037"><ele></ele><time>2014-6-9T2:47:15Z</time></trkpt>
<trkpt lat="46.6286793072" lon="6.4319650456"><ele></ele><time>2014-6-9T2:47:18Z</time></trkpt>
<trkpt lat="46.6282233316" lon="6.4332354907"><ele></ele><time>2014-6-9T2:47:21Z</time></trkpt>
<trkpt lat="46.6277608182" lon="6.4341242239"><ele></ele><time>2014-6-9T2:47:24Z</time></trkpt>
<trkpt lat="46.6272641066" lon="6.4347744081"><ele></ele><time>2014-6-9T2:47:27Z</time></trkpt>
<trkpt lat="46.6268034372" lon="6.4353837725"><ele></ele><time>2014-6-9T2:47:30Z</time></trkpt>
<trkpt lat="46.6268663015" lon="6.4357533306"><ele></ele><time>2014-6-9T2:47:33Z</time></trkpt>
<trkpt lat="46.6276557930" lon="6.4363279939"><ele></ele><time>2014-6-9T2:47:36Z</time></trkpt>
<trkpt lat="46.6285369825" lon="6.4365286566"><ele></ele><time>2014-6-9T2:47:39Z</time></trkpt>
<trkpt lat="46.6291706543" lon="6.4365057740"><ele></ele><time>2014-6-9T2:47:42Z</time></trkpt>
<trkpt lat="46.6292936169" lon="6.4367642719"><ele></ele><time>2014-6-9T2:47:45Z</time></trkpt>
<trkpt lat="46.6288093943" lon="6.4380915463"><ele></ele><time>2014-6-9T2:47:48Z</time></trkpt>
<trkpt lat="46.6284169536" lon="6.4391611610"><ele></ele><time>2014-6-9T2:47:51Z</time></trkpt>
<trkpt lat="46.6280128621" lon="6.4402796421"><ele></ele><time>2014-6-9T2:47:54Z</time></trkpt>
<trkpt lat="46.6279358324" lon="6.4405746013"><ele></ele><time>2014-6-9T2:47:57Z</time></trkpt>
<trkpt lat="46.6278121155" lon="6.4418553561"><ele></ele><time>2014-6-9T2:48:0Z</time></trkpt>
<trkpt lat="46.6277241893" lon="6.4427711628"><ele></ele><time>2014-6-9T2:48:3Z</time></trkpt>
<trkpt lat="46.6274910886" lon="6.4433298167"><ele></ele><time>2014-6-9T2:48:6Z</time></trkpt>
<trkpt lat="46.6274588183" lon="6.4433814492"><ele></ele><time>2014-6-9T2:48:9Z</time></trkpt>
<trkpt lat="46.6272993106" lon="6.4436293021"><ele></ele><time>2014-6-9T2:48:12Z</time></trkpt>
<trkpt lat="46.6272421461" lon="6.4437199105"><ele></ele><time>2014-6-9T2:48:15Z</time></trkpt>
<trkpt lat="46.6270995699" lon="6.4439396001"><ele></ele><time>2014-6-9T2:48:18Z</time></trkpt>
<trkpt lat="46.6270804591" lon="6.4442227408"><ele></ele><time>2014-6-9T2:48:21Z</time></trkpt>
<trkpt lat="46.6276448965" lon="6.4455040824"><ele></ele><time>2014-6-9T2:48:24Z</time></trkpt>
<trkpt lat="46.6281174682" lon="6.4465053007"><ele></ele><time>2014-6-9T2:48:27Z</time></trkpt>
<trkpt lat="46.6284773871" lon="6.4476442337"><ele></ele><time>2014-6-9T2:48:30Z</time></trkpt>
<trkpt lat="46.6287224740" lon="6.4480315614"><ele></ele><time>2014-6-9T2:48:33Z</time></trkpt>
<trkpt lat="46.6290304251" lon="6.4482781570"><ele></ele><time>2014-6-9T2:48:36Z</time></trkpt>
<trkpt lat="46.6292226221" lon="6.4487320371"><ele></ele><time>2014-6-9T2:48:39Z</time></trkpt>
<trkpt lat="46.6288392339" lon="6.4503995329"><ele></ele><time>2014-6-9T2:48:42Z</time></trkpt>
<trkpt lat="46.6286053788" lon="6.4514893480"><ele></ele><time>2014-6-9T2:48:45Z</time></trkpt>
<trkpt lat="46.6282528359" lon="6.4531034511"><ele></ele><time>2014-6-9T2:48:48Z</time></trkpt>
<trkpt lat="46.6281923186" lon="6.4533516392"><ele></ele><time>2014-6-9T2:48:51Z</time></trkpt>
<trkpt lat="46.6282428615" lon="6.4535941277"><ele></ele><time>2014-6-9T2:48:54Z</time></trkpt>
<trkpt lat="46.6290350351" lon="6.4544500876"><ele></ele><time>2014-6-9T2:48:57Z</time></trkpt>
<trkpt lat="46.6295385361" lon="6.4549998567"><ele></ele><time>2014-6-9T2:49:0Z</time></trkpt>
<trkpt lat="46.6299075074" lon="6.4552599471"><ele></ele><time>2014-6-9T2:49:3Z</time></trkpt>
<trkpt lat="46.6307360586" lon="6.4553194586"><ele></ele><time>2014-6-9T2:49:6Z</time></trkpt>
<trkpt lat="46.6318494268" lon="6.4555025194"><ele></ele><time>2014-6-9T2:49:9Z</time></trkpt>
<trkpt lat="46.6320637520" lon="6.4555419981"><ele></ele><time>2014-6-9T2:49:12Z</time></trkpt>
<trkpt lat="46.6330494639" lon="6.4553619549"><ele></ele><time>2014-6-9T2:49:15Z</time></trkpt>
<trkpt lat="46.6340927593" lon="6.4551306143"><ele></ele><time>2014-6-9T2:49:18Z</time></trkpt>
<trkpt lat="46.6343874671" lon="6.4550606254"><ele></ele><time>2014-6-9T2:49:21Z</time></trkpt>
<trkpt lat="46.6345789935" lon="6.4550364856"><ele></ele><time>2014-6-9T2:49:24Z</time></trkpt>
<trkpt lat="46.6346498206" lon="6.4552798122"><ele></ele><time>2014-6-9T2:49:27Z</time></trkpt>
<trkpt lat="46.6347936541" lon="6.4556430001"><ele></ele><time>2014-6-9T2:49:30Z</time></trkpt>
<trkpt lat="46.6354409046" lon="6.4564570505"><ele></ele><time>2014-6-9T2:49:33Z</time></trkpt>
<trkpt lat="46.6362189967" lon="6.4574040379"><ele></ele><time>2014-6-9T2:49:36Z</time></trkpt>
<trkpt lat="46.6365582123" lon="6.4578861650"><ele></ele><time>2014-6-9T2:49:39Z</time></trkpt>
<trkpt lat="46.6367835179" lon="6.4589918219"><ele></ele><time>2014-6-9T2:49:42Z</time></trkpt>
<trkpt lat="46.6368163750" lon="6.4591662493"><ele></ele><time>2014-6-9T2:49:45Z</time></trkpt>
<trkpt lat="46.6367181391" lon="6.4590715338"><ele></ele><time>2014-6-9T2:49:48Z</time></trkpt>
<trkpt lat="46.6366929933" lon="6.4590379223"><ele></ele><time>2014-6-9T2:49:51Z</time></trkpt>
<trkpt lat="46.6363821924" lon="6.4586411230"><ele></ele><time>2014-6-9T2:49:54Z</time></trkpt>
<trkpt lat="46.6360115446" lon="6.4585501794"><ele></ele><time>2014-6-9T2:49:57Z</time></trkpt>
<trkpt lat="46.6356011666" lon="6.4585769176"><ele></ele><time>2014-6-9T2:50:0Z</time></trkpt>
<trkpt lat="46.6350610368" lon="6.4585083537"><ele></ele><time>2014-6-9T2:50:3Z</time></trkpt>
<trkpt lat="46.6346288659" lon="6.4583987184"><ele></ele><time>2014-6-9T2:50:6Z</time></trkpt>
<trkpt lat="46.6345414426" lon="6.4583532047"><ele></ele><time>2014-6-9T2:50:9Z</time></trkpt>
<trkpt lat="46.6344225872" lon="6.4583133906"><ele></ele><time>2014-6-9T2:50:12Z</time></trkpt>
<trkpt lat="46.6338926833" lon="6.4583436493"><ele></ele><time>2014-6-9T2:50:15Z</time></trkpt>
<trkpt lat="46.6335698962" lon="6.4583330881"><ele></ele><time>2014-6-9T2:50:18Z</time></trkpt>
<trkpt lat="46.6334022582" lon="6.4583074395"><ele></ele><time>2014-6-9T2:50:21Z</time></trkpt>
<trkpt lat="46.6332906950" lon="6.4583174139"><ele></ele><time>2014-6-9T2:50:24Z</time></trkpt>
<trkpt lat="46.6329798102" lon="6.4584044181"><ele></ele><time>2014-6-9T2:50:27Z</time></trkpt>
<trkpt lat="46.6327323765" lon="6.4584304858"><ele></ele><time>2014-6-9T2:50:30Z</time></trkpt>
<trkpt lat="46.6325158719" lon="6.4585031569"><ele></ele><time>2014-6-9T2:50:33Z</time></trkpt>
<trkpt lat="46.6323931608" lon="6.4587225951"><ele></ele><time>2014-6-9T2:50:36Z</time></trkpt>
<trkpt lat="46.6321548633" lon="6.4590567816"><ele></ele><time>2014-6-9T2:50:39Z</time></trkpt>
<trkpt lat="46.6320439707" lon="6.4596601110"><ele></ele><time>2014-6-9T2:50:42Z</time></trkpt>
<trkpt lat="46.6320407018" lon="6.4597722609"><ele></ele><time>2014-6-9T2:50:45Z</time></trkpt>
<trkpt lat="46.6322128661" lon="6.4599968120"><ele></ele><time>2014-6-9T2:50:48Z</time></trkpt>
<trkpt lat="46.6323128622" lon="6.4601025917"><ele></ele><time>2014-6-9T2:50:51Z</time></trkpt>
<trkpt lat="46.6323117726" lon="6.4606460743"><ele></ele><time>2014-6-9T2:50:54Z</time></trkpt>
<trkpt lat="46.6322557814" lon="6.4609442186"><ele></ele><time>2014-6-9T2:50:57Z</time></trkpt>
<trkpt lat="46.6321941745" lon="6.4612135291"><ele></ele><time>2014-6-9T2:51:0Z</time></trkpt>
<trkpt lat="46.6322697792" lon="6.4613826759"><ele></ele><time>2014-6-9T2:51:3Z</time></trkpt>
<trkpt lat="46.6326009482" lon="6.4615291916"><ele></ele><time>2014-6-9T2:51:6Z</time></trkpt>
<trkpt lat="46.6329860967" lon="6.4616631344"><ele></ele><time>2014-6-9T2:51:9Z</time></trkpt>
<trkpt lat="46.6330766212" lon="6.4616814908"><ele></ele><time>2014-6-9T2:51:12Z</time></trkpt>
<trkpt lat="46.6331031919" lon="6.4618321136"><ele></ele><time>2014-6-9T2:51:15Z</time></trkpt>
<trkpt lat="46.6330297664" lon="6.4624606725"><ele></ele><time>2014-6-9T2:51:18Z</time></trkpt>
<trkpt lat="46.6328790598" lon="6.4628298115"><ele></ele><time>2014-6-9T2:51:21Z</time></trkpt>
<trkpt lat="46.6328938957" lon="6.4636351448"><ele></ele><time>2014-6-9T2:51:24Z</time></trkpt>
<trkpt lat="46.6329299379" lon="6.4637149405"><ele></ele><time>2014-6-9T2:51:27Z</time></trkpt>
<trkpt lat="46.6335210297" lon="6.4650038257"><ele></ele><time>2014-6-9T2:51:30Z</time></trkpt>
<trkpt lat="46.6339650191" lon="6.4658698440"><ele></ele><time>2014-6-9T2:51:33Z</time></trkpt>
<trkpt lat="46.6340007260" lon="6.4659895375"><ele></ele><time>2014-6-9T2:51:36Z</time></trkpt>
<trkpt lat="46.6340298951" lon="6.4660238195"><ele></ele><time>2014-6-9T2:51:39Z</time></trkpt>
<trkpt lat="46.6340365168" lon="6.4660178684"><ele></ele><time>2014-6-9T2:51:42Z</time></trkpt>
<trkpt lat="46.6340427194" lon="6.4660223946"><ele></ele><time>2014-6-9T2:51:45Z</time></trkpt>
<trkpt lat="46.6340459045" lon="6.4660308603"><ele></ele><time>2014-6-9T2:51:48Z</time></trkpt>
<trkpt lat="46.6340431385" lon="6.4660340454"><ele></ele><time>2014-6-9T2:51:51Z</time></trkpt>
<trkpt lat="46.6340419650" lon="6.4660336263"><ele></ele><time>2014-6-9T2:51:54Z</time></trkpt>
<trkpt lat="46.6340293083" lon="6.4660266694"><ele></ele><time>2014-6-9T2:51:57Z</time></trkpt>
<trkpt lat="46.6340256203" lon="6.4660370629"><ele></ele><time>2014-6-9T2:52:0Z</time></trkpt>
<trkpt lat="46.6340528615" lon="6.4661982469"><ele></ele><time>2014-6-9T2:52:3Z</time></trkpt>
<trkpt lat="46.6341637541" lon="6.4665174298"><ele></ele><time>2014-6-9T2:52:6Z</time></trkpt>
<trkpt lat="46.6342357546" lon="6.4666761830"><ele></ele><time>2014-6-9T2:52:9Z</time></trkpt>
<trkpt lat="46.6342190746" lon="6.4671188314"><ele></ele><time>2014-6-9T2:52:12Z</time></trkpt>
<trkpt lat="46.6341336630" lon="6.4670876507"><ele></ele><time>2014-6-9T2:52:15Z</time></trkpt>
<trkpt lat="46.6339770891" lon="6.4670173265"><ele></ele><time>2014-6-9T2:52:18Z</time></trkpt>
<trkpt lat="46.6339866444" lon="6.4670049213"><ele></ele><time>2014-6-9T2:52:21Z</time></trkpt>
<trkpt lat="46.6339869797" lon="6.4669938572"><ele></ele><time>2014-6-9T2:52:24Z</time></trkpt>
<trkpt lat="46.6339644324" lon="6.4670088608"><ele></ele><time>2014-6-9T2:52:27Z</time></trkpt>
<trkpt lat="46.6339659411" lon="6.4670181647"><ele></ele><time>2014-6-9T2:52:30Z</time></trkpt>
<trkpt lat="46.6339653544" lon="6.4670185838"><ele></ele><time>2014-6-9T2:52:33Z</time></trkpt>
<trkpt lat="46.6337485146" lon="6.4669004828"><ele></ele><time>2014-6-9T2:52:36Z</time></trkpt>
<trkpt lat="46.6337369476" lon="6.4668954536"><ele></ele><time>2014-6-9T2:52:39Z</time></trkpt>
<trkpt lat="46.6337361094" lon="6.4668931905"><ele></ele><time>2014-6-9T2:52:42Z</time></trkpt>
<trkpt lat="46.6336905118" lon="6.4668009896"><ele></ele><time>2014-6-9T2:52:45Z</time></trkpt>
<trkpt lat="46.6335993167" lon="6.4666748419"><ele></ele><time>2014-6-9T2:52:48Z</time></trkpt>
<trkpt lat="46.6332067922" lon="6.4663431700"><ele></ele><time>2014-6-9T2:52:51Z</time></trkpt>
<trkpt lat="46.6328315344" lon="6.4657362364"><ele></ele><time>2014-6-9T2:52:54Z</time></trkpt>
<trkpt lat="46.6323354095" lon="6.4647435676"><ele></ele><time>2014-6-9T2:52:57Z</time></trkpt>
<trkpt lat="46.6320659313" lon="6.4643760212"><ele></ele><time>2014-6-9T2:53:0Z</time></trkpt>
<trkpt lat="46.6320259497" lon="6.4643468522"><ele></ele><time>2014-6-9T2:53:3Z</time></trkpt>
<trkpt lat="46.6319905780" lon="6.4642916992"><ele></ele><time>2014-6-9T2:53:6Z</time></trkpt>
<trkpt lat="46.6318152286" lon="6.4640906174"><ele></ele><time>2014-6-9T2:53:9Z</time></trkpt>
<trkpt lat="46.6314810421" lon="6.4636575244"><ele></ele><time>2014-6-9T2:53:12Z</time></trkpt>
<trkpt lat="46.6313865781" lon="6.4636184648"><ele></ele><time>2014-6-9T2:53:15Z</time></trkpt>
<trkpt lat="46.6312828101" lon="6.4635969233"><ele></ele><time>2014-6-9T2:53:18Z</time></trkpt>
<trkpt lat="46.6305307020" lon="6.4637578558"><ele></ele><time>2014-6-9T2:53:21Z</time></trkpt>
<trkpt lat="46.6304542590" lon="6.4638274256"><ele></ele><time>2014-6-9T2:53:24Z</time></trkpt>
<trkpt lat="46.6304069851" lon="6.4639555011"><ele></ele><time>2014-6-9T2:53:27Z</time></trkpt>
<trkpt lat="46.6303845216" lon="6.4640634600"><ele></ele><time>2014-6-9T2:53:30Z</time></trkpt>
<trkpt lat="46.6303698532" lon="6.4642614406"><ele></ele><time>2014-6-9T2:53:33Z</time></trkpt>
<trkpt lat="46.6304075718" lon="6.4644232113"><ele></ele><time>2014-6-9T2:53:36Z</time></trkpt>
<trkpt lat="46.6306090727" lon="6.4648116287"><ele></ele><time>2014-6-9T2:53:39Z</time></trkpt>
<trkpt lat="46.6306187958" lon="6.4648889937"><ele></ele><time>2014-6-9T2:53:42Z</time></trkpt>
<trkpt lat="46.6306127608" lon="6.4651200827"><ele></ele><time>2014-6-9T2:53:45Z</time></trkpt>
<trkpt lat="46.6305560991" lon="6.4651787560"><ele></ele><time>2014-6-9T2:53:48Z</time></trkpt>
<trkpt lat="46.6304782312" lon="6.4652082603"><ele></ele><time>2014-6-9T2:53:51Z</time></trkpt>
<trkpt lat="46.6302235890" lon="6.4653830230"><ele></ele><time>2014-6-9T2:53:54Z</time></trkpt>
<trkpt lat="46.6302270256" lon="6.4655155409"><ele></ele><time>2014-6-9T2:53:57Z</time></trkpt>
<trkpt lat="46.6304073203" lon="6.4656196442"><ele></ele><time>2014-6-9T2:54:0Z</time></trkpt>
<trkpt lat="46.6305607930" lon="6.4658551756"><ele></ele><time>2014-6-9T2:54:3Z</time></trkpt>
<trkpt lat="46.6306508984" lon="6.4660310280"><ele></ele><time>2014-6-9T2:54:6Z</time></trkpt>
<trkpt lat="46.6306422651" lon="6.4663436729"><ele></ele><time>2014-6-9T2:54:9Z</time></trkpt>
<trkpt lat="46.6304039676" lon="6.4665672183"><ele></ele><time>2014-6-9T2:54:12Z</time></trkpt>
<trkpt lat="46.6302991100" lon="6.4666847326"><ele></ele><time>2014-6-9T2:54:15Z</time></trkpt>
<trkpt lat="46.6303063184" lon="6.4667235408"><ele></ele><time>2014-6-9T2:54:18Z</time></trkpt>
<trkpt lat="46.6302734613" lon="6.4669467509"><ele></ele><time>2014-6-9T2:54:21Z</time></trkpt>
<trkpt lat="46.6302917339" lon="6.4672630839"><ele></ele><time>2014-6-9T2:54:24Z</time></trkpt>
<trkpt lat="46.6303126048" lon="6.4674018044"><ele></ele><time>2014-6-9T2:54:27Z</time></trkpt>
<trkpt lat="46.6303746309" lon="6.4682520647"><ele></ele><time>2014-6-9T2:54:30Z</time></trkpt>
<trkpt lat="46.6303354874" lon="6.4689437393"><ele></ele><time>2014-6-9T2:54:33Z</time></trkpt>
<trkpt lat="46.6301682685" lon="6.4693441428"><ele></ele><time>2014-6-9T2:54:36Z</time></trkpt>
<trkpt lat="46.6297602374" lon="6.4696122799"><ele></ele><time>2014-6-9T2:54:39Z</time></trkpt>
<trkpt lat="46.6295362730" lon="6.4695919119"><ele></ele><time>2014-6-9T2:54:42Z</time></trkpt>
<trkpt lat="46.6291055270" lon="6.4695149660"><ele></ele><time>2014-6-9T2:54:45Z</time></trkpt>
<trkpt lat="46.6289148387" lon="6.4696619846"><ele></ele><time>2014-6-9T2:54:48Z</time></trkpt>
<trkpt lat="46.6286903713" lon="6.4704363048"><ele></ele><time>2014-6-9T2:54:51Z</time></trkpt>
<trkpt lat="46.6285047121" lon="6.4705647994"><ele></ele><time>2014-6-9T2:54:54Z</time></trkpt>
<trkpt lat="46.6275863070" lon="6.4703222271"><ele></ele><time>2014-6-9T2:54:57Z</time></trkpt>
<trkpt lat="46.6268547345" lon="6.4701072313"><ele></ele><time>2014-6-9T2:55:0Z</time></trkpt>
<trkpt lat="46.6261590365" lon="6.4699449576"><ele></ele><time>2014-6-9T2:55:3Z</time></trkpt>
<trkpt lat="46.6255064216" lon="6.4697727934"><ele></ele><time>2014-6-9T2:55:6Z</time></trkpt>
<trkpt lat="46.6248421557" lon="6.4695178159"><ele></ele><time>2014-6-9T2:55:9Z</time></trkpt>
<trkpt lat="46.6241687536" lon="6.4692211803"><ele></ele><time>2014-6-9T2:55:12Z</time></trkpt>
<trkpt lat="46.6234540287" lon="6.4687191881"><ele></ele><time>2014-6-9T2:55:15Z</time></trkpt>
<trkpt lat="46.6227757651" lon="6.4686269034"><ele></ele><time>2014-6-9T2:55:18Z</time></trkpt>
<trkpt lat="46.6223797202" lon="6.4690471720"><ele></ele><time>2014-6-9T2:55:21Z</time></trkpt>
<trkpt lat="46.6220805701" lon="6.4693448972"><ele></ele><time>2014-6-9T2:55:24Z</time></trkpt>
<trkpt lat="46.6209692135" lon="6.4699337259"><ele></ele><time>2014-6-9T2:55:27Z</time></trkpt>
<trkpt lat="46.6204227973" lon="6.4703762904"><ele></ele><time>2014-6-9T2:55:30Z</time></trkpt>
<trkpt lat="46.6202487890" lon="6.4711671229"><ele></ele><time>2014-6-9T2:55:33Z</time></trkpt>
<trkpt lat="46.6202375572" lon="6.4712645207"><ele></ele><time>2014-6-9T2:55:36Z</time></trkpt>
<trkpt lat="46.6203481983" lon="6.4718252700"><ele></ele><time>2014-6-9T2:55:39Z</time></trkpt>
<trkpt lat="46.6203354578" lon="6.4718924928"><ele></ele><time>2014-6-9T2:55:42Z</time></trkpt>
<trkpt lat="46.6202148423" lon="6.4729290828"><ele></ele><time>2014-6-9T2:55:45Z</time></trkpt>
<trkpt lat="46.6201506369" lon="6.4738691133"><ele></ele><time>2014-6-9T2:55:48Z</time></trkpt>
<trkpt lat="46.6201381478" lon="6.4740388468"><ele></ele><time>2014-6-9T2:55:51Z</time></trkpt>
<trkpt lat="46.6201640479" lon="6.4743922278"><ele></ele><time>2014-6-9T2:55:54Z</time></trkpt>
<trkpt lat="46.6202622838" lon="6.4747545775"><ele></ele><time>2014-6-9T2:55:57Z</time></trkpt>
<trkpt lat="46.6207043454" lon="6.4755002316"><ele></ele><time>2014-6-9T2:56:0Z</time></trkpt>
<trkpt lat="46.6210652702" lon="6.4763191435"><ele></ele><time>2014-6-9T2:56:3Z</time></trkpt>
<trkpt lat="46.6212783381" lon="6.4765207283"><ele></ele><time>2014-6-9T2:56:6Z</time></trkpt>
<trkpt lat="46.6216139495" lon="6.4768083952"><ele></ele><time>2014-6-9T2:56:9Z</time></trkpt>
<trkpt lat="46.6220325418" lon="6.4769102354"><ele></ele><time>2014-6-9T2:56:12Z</time></trkpt>
<trkpt lat="46.6227326822" lon="6.4769910369"><ele></ele><time>2014-6-9T2:56:15Z</time></trkpt>
<trkpt lat="46.6227805428" lon="6.4769990835"><ele></ele><time>2014-6-9T2:56:18Z</time></trkpt>
<trkpt lat="46.6231787670" lon="6.4770416636"><ele></ele><time>2014-6-9T2:56:21Z</time></trkpt>
<trkpt lat="46.6238614731" lon="6.4768988360"><ele></ele><time>2014-6-9T2:56:24Z</time></trkpt>
<trkpt lat="46.6242098249" lon="6.4770934638"><ele></ele><time>2014-6-9T2:56:27Z</time></trkpt>
<trkpt lat="46.6250967141" lon="6.4773002453"><ele></ele><time>2014-6-9T2:56:30Z</time></trkpt>
<trkpt lat="46.6259223316" lon="6.4774242137"><ele></ele><time>2014-6-9T2:56:33Z</time></trkpt>
<trkpt lat="46.6264763754" lon="6.4777004812"><ele></ele><time>2014-6-9T2:56:36Z</time></trkpt>
<trkpt lat="46.6266789660" lon="6.4777483419"><ele></ele><time>2014-6-9T2:56:39Z</time></trkpt>
<trkpt lat="46.6266686562" lon="6.4777479228"><ele></ele><time>2014-6-9T2:56:42Z</time></trkpt>
<trkpt lat="46.6266748589" lon="6.4777552988"><ele></ele><time>2014-6-9T2:56:45Z</time></trkpt>
<trkpt lat="46.6266454384" lon="6.4777618367"><ele></ele><time>2014-6-9T2:56:48Z</time></trkpt>
<trkpt lat="46.6266757809" lon="6.4777798578"><ele></ele><time>2014-6-9T2:56:51Z</time></trkpt>
<trkpt lat="46.6266773734" lon="6.4777630940"><ele></ele><time>2014-6-9T2:56:54Z</time></trkpt>
<trkpt lat="46.6266783793" lon="6.4777559694"><ele></ele><time>2014-6-9T2:56:57Z</time></trkpt>
<trkpt lat="46.6266869288" lon="6.4777438994"><ele></ele><time>2014-6-9T2:57:0Z</time></trkpt>
<trkpt lat="46.6266599391" lon="6.4777197596"><ele></ele><time>2014-6-9T2:57:3Z</time></trkpt>
<trkpt lat="46.6266672313" lon="6.4777338412"><ele></ele><time>2014-6-9T2:57:6Z</time></trkpt>
<trkpt lat="46.6266744398" lon="6.4777397085"><ele></ele><time>2014-6-9T2:57:9Z</time></trkpt>
<trkpt lat="46.6266718414" lon="6.4777446538"><ele></ele><time>2014-6-9T2:57:12Z</time></trkpt>
<trkpt lat="46.6266781278" lon="6.4777372777"><ele></ele><time>2014-6-9T2:57:15Z</time></trkpt>
<trkpt lat="46.6266805585" lon="6.4777492639"><ele></ele><time>2014-6-9T2:57:18Z</time></trkpt>
<trkpt lat="46.6266743559" lon="6.4777400438"><ele></ele><time>2014-6-9T2:57:21Z</time></trkpt>
<trkpt lat="46.6266804747" lon="6.4777283929"><ele></ele><time>2014-6-9T2:57:24Z</time></trkpt>
<trkpt lat="46.6266845819" lon="6.4777304046"><ele></ele><time>2014-6-9T2:57:27Z</time></trkpt>
<trkpt lat="46.6266699973" lon="6.4777255431"><ele></ele><time>2014-6-9T2:57:30Z</time></trkpt>
<trkpt lat="46.6266671475" lon="6.4777340926"><ele></ele><time>2014-6-9T2:57:33Z</time></trkpt>
<trkpt lat="46.6266618669" lon="6.4777339250"><ele></ele><time>2014-6-9T2:57:36Z</time></trkpt>
<trkpt lat="46.6266628727" lon="6.4777472522"><ele></ele><time>2014-6-9T2:57:39Z</time></trkpt>
<trkpt lat="46.6266563348" lon="6.4777487610"><ele></ele><time>2014-6-9T2:57:42Z</time></trkpt>
<trkpt lat="46.6266528983" lon="6.4777400438"><ele></ele><time>2014-6-9T2:57:45Z</time></trkpt>
<trkpt lat="46.6266649682" lon="6.4777356852"><ele></ele><time>2014-6-9T2:57:48Z</time></trkpt>
<trkpt lat="46.6266656388" lon="6.4777153172"><ele></ele><time>2014-6-9T2:57:51Z</time></trkpt>
<trkpt lat="46.6266680695" lon="6.4777254593"><ele></ele><time>2014-6-9T2:57:54Z</time></trkpt>
<trkpt lat="46.6266645491" lon="6.4777379483"><ele></ele><time>2014-6-9T2:57:57Z</time></trkpt>
<trkpt lat="46.6266604420" lon="6.4777406305"><ele></ele><time>2014-6-9T2:58:0Z</time></trkpt>
<trkpt lat="46.6266585141" lon="6.4777405467"><ele></ele><time>2014-6-9T2:58:3Z</time></trkpt>
<trkpt lat="46.6266565025" lon="6.4777451567"><ele></ele><time>2014-6-9T2:58:6Z</time></trkpt>
<trkpt lat="46.6266573407" lon="6.4777629264"><ele></ele><time>2014-6-9T2:58:9Z</time></trkpt>
<trkpt lat="46.6266694106" lon="6.4777860604"><ele></ele><time>2014-6-9T2:58:12Z</time></trkpt>
<trkpt lat="46.6266702488" lon="6.4777659439"><ele></ele><time>2014-6-9T2:58:15Z</time></trkpt>
<trkpt lat="46.6266815644" lon="6.4777555503"><ele></ele><time>2014-6-9T2:58:18Z</time></trkpt>
<trkpt lat="46.6266782116" lon="6.4777584001"><ele></ele><time>2014-6-9T2:58:21Z</time></trkpt>
<trkpt lat="46.6266632918" lon="6.4777392894"><ele></ele><time>2014-6-9T2:58:24Z</time></trkpt>
<trkpt lat="46.6266695783" lon="6.4777434804"><ele></ele><time>2014-6-9T2:58:27Z</time></trkpt>
<trkpt lat="46.6266658064" lon="6.4777070191"><ele></ele><time>2014-6-9T2:58:30Z</time></trkpt>
<trkpt lat="46.6266742721" lon="6.4777230285"><ele></ele><time>2014-6-9T2:58:33Z</time></trkpt>
<trkpt lat="46.6266829893" lon="6.4777283929"><ele></ele><time>2014-6-9T2:58:36Z</time></trkpt>
<trkpt lat="46.6266768705" lon="6.4777314942"><ele></ele><time>2014-6-9T2:58:39Z</time></trkpt>
<trkpt lat="46.6266664770" lon="6.4777432289"><ele></ele><time>2014-6-9T2:58:42Z</time></trkpt>
<trkpt lat="46.6266712546" lon="6.4777407981"><ele></ele><time>2014-6-9T2:58:45Z</time></trkpt>
<trkpt lat="46.6266594362" lon="6.4777413849"><ele></ele><time>2014-6-9T2:58:48Z</time></trkpt>
<trkpt lat="46.6266612802" lon="6.4777354337"><ele></ele><time>2014-6-9T2:58:51Z</time></trkpt>
<trkpt lat="46.6266650520" lon="6.4777389541"><ele></ele><time>2014-6-9T2:58:54Z</time></trkpt>
<trkpt lat="46.6266648006" lon="6.4777675364"><ele></ele><time>2014-6-9T2:58:57Z</time></trkpt>
<trkpt lat="46.6266595200" lon="6.4777636807"><ele></ele><time>2014-6-9T2:59:0Z</time></trkpt>
<trkpt lat="46.6266436782" lon="6.4777498506"><ele></ele><time>2014-6-9T2:59:3Z</time></trkpt>
<trkpt lat="46.6266417503" lon="6.4777575620"><ele></ele><time>2014-6-9T2:59:6Z</time></trkpt>
<trkpt lat="46.6266568378" lon="6.4777672850"><ele></ele><time>2014-6-9T2:59:9Z</time></trkpt>
<trkpt lat="46.6266573407" lon="6.4777740743"><ele></ele><time>2014-6-9T2:59:12Z</time></trkpt>
<trkpt lat="46.6266535688" lon="6.4777793549"><ele></ele><time>2014-6-9T2:59:15Z</time></trkpt>
<trkpt lat="46.6266518924" lon="6.4777582325"><ele></ele><time>2014-6-9T2:59:18Z</time></trkpt>
<trkpt lat="46.6266591847" lon="6.4777315781"><ele></ele><time>2014-6-9T2:59:21Z</time></trkpt>
<trkpt lat="46.6266521439" lon="6.4777373616"><ele></ele><time>2014-6-9T2:59:24Z</time></trkpt>
<trkpt lat="46.6265625414" lon="6.4777458273"><ele></ele><time>2014-6-9T2:59:27Z</time></trkpt>
<trkpt lat="46.6265704203" lon="6.4777251240"><ele></ele><time>2014-6-9T2:59:30Z</time></trkpt>
<trkpt lat="46.6266020201" lon="6.4777260460"><ele></ele><time>2014-6-9T2:59:33Z</time></trkpt>
<trkpt lat="46.6266347934" lon="6.4777494315"><ele></ele><time>2014-6-9T2:59:36Z</time></trkpt>
<trkpt lat="46.6266741883" lon="6.4777553827"><ele></ele><time>2014-6-9T2:59:39Z</time></trkpt>
<trkpt lat="46.6266840789" lon="6.4777509402"><ele></ele><time>2014-6-9T2:59:42Z</time></trkpt>
<trkpt lat="46.6266673990" lon="6.4777713083"><ele></ele><time>2014-6-9T2:59:45Z</time></trkpt>
<trkpt lat="46.6267766990" lon="6.4778197557"><ele></ele><time>2014-6-9T2:59:48Z</time></trkpt>
<trkpt lat="46.6269603465" lon="6.4778880682"><ele></ele><time>2014-6-9T2:59:51Z</time></trkpt>
<trkpt lat="46.6271300800" lon="6.4779721387"><ele></ele><time>2014-6-9T2:59:54Z</time></trkpt>
<trkpt lat="46.6273466684" lon="6.4780852105"><ele></ele><time>2014-6-9T2:59:57Z</time></trkpt>
<trkpt lat="46.6275062598" lon="6.4785145316"><ele></ele><time>2014-6-9T3:0:0Z</time></trkpt>
<trkpt lat="46.6275327466" lon="6.4786260109"><ele></ele><time>2014-6-9T3:0:3Z</time></trkpt>
<trkpt lat="46.6275759973" lon="6.4787251689"><ele></ele><time>2014-6-9T3:0:6Z</time></trkpt>
<trkpt lat="46.6278092656" lon="6.4792155940"><ele></ele><time>2014-6-9T3:0:9Z</time></trkpt>
<trkpt lat="46.6282148659" lon="6.4794199448"><ele></ele><time>2014-6-9T3:0:12Z</time></trkpt>
<trkpt lat="46.6283936519" lon="6.4793985710"><ele></ele><time>2014-6-9T3:0:15Z</time></trkpt>
<trkpt lat="46.6290207021" lon="6.4797157422"><ele></ele><time>2014-6-9T3:0:18Z</time></trkpt>
<trkpt lat="46.6290666349" lon="6.4797449950"><ele></ele><time>2014-6-9T3:0:21Z</time></trkpt>
<trkpt lat="46.6291416530" lon="6.4799712226"><ele></ele><time>2014-6-9T3:0:24Z</time></trkpt>
<trkpt lat="46.6289996635" lon="6.4805221651"><ele></ele><time>2014-6-9T3:0:27Z</time></trkpt>
<trkpt lat="46.6288766172" lon="6.4809851814"><ele></ele><time>2014-6-9T3:0:30Z</time></trkpt>
<trkpt lat="46.6287622042" lon="6.4814714156"><ele></ele><time>2014-6-9T3:0:33Z</time></trkpt>
<trkpt lat="46.6285572667" lon="6.4822739828"><ele></ele><time>2014-6-9T3:0:36Z</time></trkpt>
<trkpt lat="46.6282656603" lon="6.4834353793"><ele></ele><time>2014-6-9T3:0:39Z</time></trkpt>
<trkpt lat="46.6280752234" lon="6.4837644529"><ele></ele><time>2014-6-9T3:0:42Z</time></trkpt>
<trkpt lat="46.6274940223" lon="6.4836571645"><ele></ele><time>2014-6-9T3:0:45Z</time></trkpt>
<trkpt lat="46.6263458692" lon="6.4832166117"><ele></ele><time>2014-6-9T3:0:48Z</time></trkpt>
<trkpt lat="46.6252739914" lon="6.4830259234"><ele></ele><time>2014-6-9T3:0:51Z</time></trkpt>
<trkpt lat="46.6243112460" lon="6.4827701915"><ele></ele><time>2014-6-9T3:0:54Z</time></trkpt>
<trkpt lat="46.6242186259" lon="6.4827459678"><ele></ele><time>2014-6-9T3:0:57Z</time></trkpt>
<trkpt lat="46.6242596973" lon="6.4829113428"><ele></ele><time>2014-6-9T3:1:0Z</time></trkpt>
<trkpt lat="46.6245965660" lon="6.4834650513"><ele></ele><time>2014-6-9T3:1:3Z</time></trkpt>
<trkpt lat="46.6248965543" lon="6.4839843102"><ele></ele><time>2014-6-9T3:1:6Z</time></trkpt>
<trkpt lat="46.6251404677" lon="6.4844233543"><ele></ele><time>2014-6-9T3:1:9Z</time></trkpt>
<trkpt lat="46.6252079420" lon="6.4850121830"><ele></ele><time>2014-6-9T3:1:12Z</time></trkpt>
<trkpt lat="46.6252207663" lon="6.4851465449"><ele></ele><time>2014-6-9T3:1:15Z</time></trkpt>
<trkpt lat="46.6251240391" lon="6.4855162706"><ele></ele><time>2014-6-9T3:1:18Z</time></trkpt>
<trkpt lat="46.6251179203" lon="6.4855732676"><ele></ele><time>2014-6-9T3:1:21Z</time></trkpt>
<trkpt lat="46.6250475962" lon="6.4855690766"><ele></ele><time>2014-6-9T3:1:24Z</time></trkpt>
<trkpt lat="46.6246621963" lon="6.4853472076"><ele></ele><time>2014-6-9T3:1:27Z</time></trkpt>
<trkpt lat="46.6242098249" lon="6.4852079842"><ele></ele><time>2014-6-9T3:1:30Z</time></trkpt>
<trkpt lat="46.6238056496" lon="6.4850916434"><ele></ele><time>2014-6-9T3:1:33Z</time></trkpt>
<trkpt lat="46.6236836091" lon="6.4850199781"><ele></ele><time>2014-6-9T3:1:36Z</time></trkpt>
<trkpt lat="46.6231726483" lon="6.4848426171"><ele></ele><time>2014-6-9T3:1:39Z</time></trkpt>
<trkpt lat="46.6228072811" lon="6.4847779926"><ele></ele><time>2014-6-9T3:1:42Z</time></trkpt>
<trkpt lat="46.6226487793" lon="6.4848911483"><ele></ele><time>2014-6-9T3:1:45Z</time></trkpt>
<trkpt lat="46.6225019284" lon="6.4850401785"><ele></ele><time>2014-6-9T3:1:48Z</time></trkpt>
<trkpt lat="46.6223693267" lon="6.4849323872"><ele></ele><time>2014-6-9T3:1:51Z</time></trkpt>
<trkpt lat="46.6222215537" lon="6.4847872965"><ele></ele><time>2014-6-9T3:1:54Z</time></trkpt>
<trkpt lat="46.6221660655" lon="6.4847525954"><ele></ele><time>2014-6-9T3:1:57Z</time></trkpt>
<trkpt lat="46.6221006867" lon="6.4847265277"><ele></ele><time>2014-6-9T3:2:0Z</time></trkpt>
<trkpt lat="46.6220463719" lon="6.4847012982"><ele></ele><time>2014-6-9T3:2:3Z</time></trkpt>
<trkpt lat="46.6220202204" lon="6.4847132005"><ele></ele><time>2014-6-9T3:2:6Z</time></trkpt>
<trkpt lat="46.6220262554" lon="6.4847214147"><ele></ele><time>2014-6-9T3:2:9Z</time></trkpt>
<trkpt lat="46.6220123414" lon="6.4846864622"><ele></ele><time>2014-6-9T3:2:12Z</time></trkpt>
<trkpt lat="46.6219852678" lon="6.4846011344"><ele></ele><time>2014-6-9T3:2:15Z</time></trkpt>
<trkpt lat="46.6218359023" lon="6.4845031500"><ele></ele><time>2014-6-9T3:2:18Z</time></trkpt>
<trkpt lat="46.6216426156" lon="6.4842957817"><ele></ele><time>2014-6-9T3:2:21Z</time></trkpt>
<trkpt lat="46.6213881411" lon="6.4840255491"><ele></ele><time>2014-6-9T3:2:24Z</time></trkpt>
<trkpt lat="46.6213424597" lon="6.4839648642"><ele></ele><time>2014-6-9T3:2:27Z</time></trkpt>
<trkpt lat="46.6208844725" lon="6.4836869203"><ele></ele><time>2014-6-9T3:2:30Z</time></trkpt>
<trkpt lat="46.6205314267" lon="6.4835093077"><ele></ele><time>2014-6-9T3:2:33Z</time></trkpt>
<trkpt lat="46.6202343721" lon="6.4833863452"><ele></ele><time>2014-6-9T3:2:36Z</time></trkpt>
<trkpt lat="46.6200407501" lon="6.4833155181"><ele></ele><time>2014-6-9T3:2:39Z</time></trkpt>
<trkpt lat="46.6198260896" lon="6.4832478762"><ele></ele><time>2014-6-9T3:2:42Z</time></trkpt>
<trkpt lat="46.6196266003" lon="6.4831251651"><ele></ele><time>2014-6-9T3:2:45Z</time></trkpt>
<trkpt lat="46.6194321401" lon="6.4830042142"><ele></ele><time>2014-6-9T3:2:48Z</time></trkpt>
<trkpt lat="46.6193512548" lon="6.4829878695"><ele></ele><time>2014-6-9T3:2:51Z</time></trkpt>
<trkpt lat="46.6192329023" lon="6.4829830080"><ele></ele><time>2014-6-9T3:2:54Z</time></trkpt>
<trkpt lat="46.6191981174" lon="6.4829941560"><ele></ele><time>2014-6-9T3:2:57Z</time></trkpt>
<trkpt lat="46.6190376878" lon="6.4830914699"><ele></ele><time>2014-6-9T3:3:0Z</time></trkpt>
<trkpt lat="46.6189500969" lon="6.4832944795"><ele></ele><time>2014-6-9T3:3:3Z</time></trkpt>
<trkpt lat="46.6188757494" lon="6.4835395664"><ele></ele><time>2014-6-9T3:3:6Z</time></trkpt>
<trkpt lat="46.6188359354" lon="6.4836192783"><ele></ele><time>2014-6-9T3:3:9Z</time></trkpt>
<trkpt lat="46.6186902579" lon="6.4839731622"><ele></ele><time>2014-6-9T3:3:12Z</time></trkpt>
<trkpt lat="46.6184121463" lon="6.4841016568"><ele></ele><time>2014-6-9T3:3:15Z</time></trkpt>
<trkpt lat="46.6182085499" lon="6.4840842225"><ele></ele><time>2014-6-9T3:3:18Z</time></trkpt>
<trkpt lat="46.6181524750" lon="6.4840521198"><ele></ele><time>2014-6-9T3:3:21Z</time></trkpt>
<trkpt lat="46.6180693265" lon="6.4840564784"><ele></ele><time>2014-6-9T3:3:24Z</time></trkpt>
<trkpt lat="46.6180620342" lon="6.4840377867"><ele></ele><time>2014-6-9T3:3:27Z</time></trkpt>
<trkpt lat="46.6180728469" lon="6.4840786066"><ele></ele><time>2014-6-9T3:3:30Z</time></trkpt>
<trkpt lat="46.6181026865" lon="6.4840289857"><ele></ele><time>2014-6-9T3:3:33Z</time></trkpt>
<trkpt lat="46.6180774570" lon="6.4839642774"><ele></ele><time>2014-6-9T3:3:36Z</time></trkpt>
<trkpt lat="46.6180704162" lon="6.4839738328"><ele></ele><time>2014-6-9T3:3:39Z</time></trkpt>
<trkpt lat="46.6179751977" lon="6.4839959610"><ele></ele><time>2014-6-9T3:3:42Z</time></trkpt>
<trkpt lat="46.6176234931" lon="6.4839822985"><ele></ele><time>2014-6-9T3:3:45Z</time></trkpt>
<trkpt lat="46.6172826011" lon="6.4839256369"><ele></ele><time>2014-6-9T3:3:48Z</time></trkpt>
<trkpt lat="46.6167946067" lon="6.4839097112"><ele></ele><time>2014-6-9T3:3:51Z</time></trkpt>
<trkpt lat="46.6167610791" lon="6.4839424007"><ele></ele><time>2014-6-9T3:3:54Z</time></trkpt>
<trkpt lat="46.6165415570" lon="6.4843605738"><ele></ele><time>2014-6-9T3:3:57Z</time></trkpt>
<trkpt lat="46.6160993278" lon="6.4849079121"><ele></ele><time>2014-6-9T3:4:0Z</time></trkpt>
<trkpt lat="46.6157813184" lon="6.4851372410"><ele></ele><time>2014-6-9T3:4:3Z</time></trkpt>
<trkpt lat="46.6155800689" lon="6.4852695074"><ele></ele><time>2014-6-9T3:4:6Z</time></trkpt>
<trkpt lat="46.6154236626" lon="6.4848781563"><ele></ele><time>2014-6-9T3:4:9Z</time></trkpt>
<trkpt lat="46.6152869537" lon="6.4844868891"><ele></ele><time>2014-6-9T3:4:12Z</time></trkpt>
<trkpt lat="46.6151547711" lon="6.4844836202"><ele></ele><time>2014-6-9T3:4:15Z</time></trkpt>
<trkpt lat="46.6147090215" lon="6.4846890606"><ele></ele><time>2014-6-9T3:4:18Z</time></trkpt>
<trkpt lat="46.6141586658" lon="6.4849236701"><ele></ele><time>2014-6-9T3:4:21Z</time></trkpt>
<trkpt lat="46.6139671393" lon="6.4849742968"><ele></ele><time>2014-6-9T3:4:24Z</time></trkpt>
<trkpt lat="46.6136218887" lon="6.4850970916"><ele></ele><time>2014-6-9T3:4:27Z</time></trkpt>
<trkpt lat="46.6135479603" lon="6.4851177949"><ele></ele><time>2014-6-9T3:4:30Z</time></trkpt>
<trkpt lat="46.6134760436" lon="6.4851669129"><ele></ele><time>2014-6-9T3:4:33Z</time></trkpt>
<trkpt lat="46.6130819265" lon="6.4850605465"><ele></ele><time>2014-6-9T3:4:36Z</time></trkpt>
<trkpt lat="46.6129702795" lon="6.4850882068"><ele></ele><time>2014-6-9T3:4:39Z</time></trkpt>
<trkpt lat="46.6127956845" lon="6.4856305998"><ele></ele><time>2014-6-9T3:4:42Z</time></trkpt>
<trkpt lat="46.6126072593" lon="6.4862365276"><ele></ele><time>2014-6-9T3:4:45Z</time></trkpt>
<trkpt lat="46.6124744061" lon="6.4862900041"><ele></ele><time>2014-6-9T3:4:48Z</time></trkpt>
<trkpt lat="46.6124494281" lon="6.4863470849"><ele></ele><time>2014-6-9T3:4:51Z</time></trkpt>
<trkpt lat="46.6122366954" lon="6.4864539541"><ele></ele><time>2014-6-9T3:4:54Z</time></trkpt>
<trkpt lat="46.6121947858" lon="6.4864930976"><ele></ele><time>2014-6-9T3:4:57Z</time></trkpt>
<trkpt lat="46.6119491123" lon="6.4868688583"><ele></ele><time>2014-6-9T3:5:0Z</time></trkpt>
<trkpt lat="46.6118495353" lon="6.4870029688"><ele></ele><time>2014-6-9T3:5:3Z</time></trkpt>
<trkpt lat="46.6117981542" lon="6.4870660007"><ele></ele><time>2014-6-9T3:5:6Z</time></trkpt>
<trkpt lat="46.6117434204" lon="6.4871442877"><ele></ele><time>2014-6-9T3:5:9Z</time></trkpt>
<trkpt lat="46.6116534825" lon="6.4872265980"><ele></ele><time>2014-6-9T3:5:12Z</time></trkpt>
<trkpt lat="46.6115921270" lon="6.4872443676"><ele></ele><time>2014-6-9T3:5:15Z</time></trkpt>
<trkpt lat="46.6114881076" lon="6.4872946590"><ele></ele><time>2014-6-9T3:5:18Z</time></trkpt>
<trkpt lat="46.6112474632" lon="6.4872871153"><ele></ele><time>2014-6-9T3:5:21Z</time></trkpt>
<trkpt lat="46.6111620516" lon="6.4872820862"><ele></ele><time>2014-6-9T3:5:24Z</time></trkpt>
<trkpt lat="46.6110650729" lon="6.4873103332"><ele></ele><time>2014-6-9T3:5:27Z</time></trkpt>
<trkpt lat="46.6109669209" lon="6.4873571042"><ele></ele><time>2014-6-9T3:5:30Z</time></trkpt>
<trkpt lat="46.6109302919" lon="6.4874218125"><ele></ele><time>2014-6-9T3:5:33Z</time></trkpt>
<trkpt lat="46.6109198984" lon="6.4874709304"><ele></ele><time>2014-6-9T3:5:36Z</time></trkpt>
<trkpt lat="46.6109101754" lon="6.4875324536"><ele></ele><time>2014-6-9T3:5:39Z</time></trkpt>
<trkpt lat="46.6108841915" lon="6.4878833201"><ele></ele><time>2014-6-9T3:5:42Z</time></trkpt>
<trkpt lat="46.6109130252" lon="6.4881067816"><ele></ele><time>2014-6-9T3:5:45Z</time></trkpt>
<trkpt lat="46.6110728681" lon="6.4883778524"><ele></ele><time>2014-6-9T3:5:48Z</time></trkpt>
<trkpt lat="46.6113059688" lon="6.4887745678"><ele></ele><time>2014-6-9T3:5:51Z</time></trkpt>
<trkpt lat="46.6113553382" lon="6.4891675115"><ele></ele><time>2014-6-9T3:5:54Z</time></trkpt>
<trkpt lat="46.6113704257" lon="6.4896379877"><ele></ele><time>2014-6-9T3:5:57Z</time></trkpt>
<trkpt lat="46.6114594415" lon="6.4900417440"><ele></ele><time>2014-6-9T3:6:0Z</time></trkpt>
<trkpt lat="46.6117878444" lon="6.4902337734"><ele></ele><time>2014-6-9T3:6:3Z</time></trkpt>
<trkpt lat="46.6119758505" lon="6.4902799577"><ele></ele><time>2014-6-9T3:6:6Z</time></trkpt>
<trkpt lat="46.6120427381" lon="6.4903611783"><ele></ele><time>2014-6-9T3:6:9Z</time></trkpt>
<trkpt lat="46.6120442469" lon="6.4903895929"><ele></ele><time>2014-6-9T3:6:12Z</time></trkpt>
<trkpt lat="46.6119977273" lon="6.4904323407"><ele></ele><time>2014-6-9T3:6:15Z</time></trkpt>
<trkpt lat="46.6119995713" lon="6.4904363640"><ele></ele><time>2014-6-9T3:6:18Z</time></trkpt>
<trkpt lat="46.6121267248" lon="6.4902631100"><ele></ele><time>2014-6-9T3:6:21Z</time></trkpt>
<trkpt lat="46.6123335063" lon="6.4901661314"><ele></ele><time>2014-6-9T3:6:24Z</time></trkpt>
<trkpt lat="46.6127220076" lon="6.4901046921"><ele></ele><time>2014-6-9T3:6:27Z</time></trkpt>
<trkpt lat="46.6130518354" lon="6.4899808913"><ele></ele><time>2014-6-9T3:6:30Z</time></trkpt>
<trkpt lat="46.6134510655" lon="6.4898689929"><ele></ele><time>2014-6-9T3:6:33Z</time></trkpt>
<trkpt lat="46.6137650516" lon="6.4899286721"><ele></ele><time>2014-6-9T3:6:36Z</time></trkpt>
<trkpt lat="46.6139708273" lon="6.4899186976"><ele></ele><time>2014-6-9T3:6:39Z</time></trkpt>
<trkpt lat="46.6140661296" lon="6.4899257384"><ele></ele><time>2014-6-9T3:6:42Z</time></trkpt>
<trkpt lat="46.6143838037" lon="6.4899548236"><ele></ele><time>2014-6-9T3:6:45Z</time></trkpt>
<trkpt lat="46.6144711431" lon="6.4899632055"><ele></ele><time>2014-6-9T3:6:48Z</time></trkpt>
<trkpt lat="46.6147491708" lon="6.4900135808"><ele></ele><time>2014-6-9T3:6:51Z</time></trkpt>
<trkpt lat="46.6147797648" lon="6.4900165144"><ele></ele><time>2014-6-9T3:6:54Z</time></trkpt>
<trkpt lat="46.6149152163" lon="6.4900556579"><ele></ele><time>2014-6-9T3:6:57Z</time></trkpt>
<trkpt lat="46.6151478142" lon="6.4900438394"><ele></ele><time>2014-6-9T3:7:0Z</time></trkpt>
<trkpt lat="46.6155553423" lon="6.4901434164"><ele></ele><time>2014-6-9T3:7:3Z</time></trkpt>
<trkpt lat="46.6156163625" lon="6.4901592582"><ele></ele><time>2014-6-9T3:7:6Z</time></trkpt>
<trkpt lat="46.6157461144" lon="6.4902097173"><ele></ele><time>2014-6-9T3:7:9Z</time></trkpt>
<trkpt lat="46.6161172651" lon="6.4902766887"><ele></ele><time>2014-6-9T3:7:12Z</time></trkpt>
<trkpt lat="46.6161409859" lon="6.4902918600"><ele></ele><time>2014-6-9T3:7:15Z</time></trkpt>
<trkpt lat="46.6162907705" lon="6.4903171733"><ele></ele><time>2014-6-9T3:7:18Z</time></trkpt>
<trkpt lat="46.6163211968" lon="6.4903414808"><ele></ele><time>2014-6-9T3:7:21Z</time></trkpt>
<trkpt lat="46.6164439078" lon="6.4903195202"><ele></ele><time>2014-6-9T3:7:24Z</time></trkpt>
<trkpt lat="46.6165671218" lon="6.4901092183"><ele></ele><time>2014-6-9T3:7:27Z</time></trkpt>
<trkpt lat="46.6167208459" lon="6.4901316818"><ele></ele><time>2014-6-9T3:7:30Z</time></trkpt>
<trkpt lat="46.6167408787" lon="6.4902660437"><ele></ele><time>2014-6-9T3:7:33Z</time></trkpt>
<trkpt lat="46.6168143880" lon="6.4903845638"><ele></ele><time>2014-6-9T3:7:36Z</time></trkpt>
<trkpt lat="46.6170241032" lon="6.4908858854"><ele></ele><time>2014-6-9T3:7:39Z</time></trkpt>
<trkpt lat="46.6171458084" lon="6.4915022068"><ele></ele><time>2014-6-9T3:7:42Z</time></trkpt>
<trkpt lat="46.6172145400" lon="6.4917664882"><ele></ele><time>2014-6-9T3:7:45Z</time></trkpt>
<trkpt lat="46.6173618101" lon="6.4919959009"><ele></ele><time>2014-6-9T3:7:48Z</time></trkpt>
<trkpt lat="46.6173842736" lon="6.4919776283"><ele></ele><time>2014-6-9T3:7:51Z</time></trkpt>
<trkpt lat="46.6175976768" lon="6.4918190427"><ele></ele><time>2014-6-9T3:7:54Z</time></trkpt>
<trkpt lat="46.6178274248" lon="6.4916752931"><ele></ele><time>2014-6-9T3:7:57Z</time></trkpt>
<trkpt lat="46.6180364694" lon="6.4914923161"><ele></ele><time>2014-6-9T3:8:0Z</time></trkpt>
<trkpt lat="46.6182663850" lon="6.4913215768"><ele></ele><time>2014-6-9T3:8:3Z</time></trkpt>
<trkpt lat="46.6185040958" lon="6.4913073275"><ele></ele><time>2014-6-9T3:8:6Z</time></trkpt>
<trkpt lat="46.6185600869" lon="6.4913616423"><ele></ele><time>2014-6-9T3:8:9Z</time></trkpt>
<trkpt lat="46.6188066825" lon="6.4915399253"><ele></ele><time>2014-6-9T3:8:12Z</time></trkpt>
<trkpt lat="46.6188885737" lon="6.4916110877"><ele></ele><time>2014-6-9T3:8:15Z</time></trkpt>
<trkpt lat="46.6190277971" lon="6.4918353874"><ele></ele><time>2014-6-9T3:8:18Z</time></trkpt>
<trkpt lat="46.6190883145" lon="6.4919215534"><ele></ele><time>2014-6-9T3:8:21Z</time></trkpt>
<trkpt lat="46.6192561202" lon="6.4916628040"><ele></ele><time>2014-6-9T3:8:24Z</time></trkpt>
<trkpt lat="46.6193118598" lon="6.4914745465"><ele></ele><time>2014-6-9T3:8:27Z</time></trkpt>
<trkpt lat="46.6193655040" lon="6.4911308046"><ele></ele><time>2014-6-9T3:8:30Z</time></trkpt>
<trkpt lat="46.6193942539" lon="6.4908833709"><ele></ele><time>2014-6-9T3:8:33Z</time></trkpt>
<trkpt lat="46.6194992792" lon="6.4901616052"><ele></ele><time>2014-6-9T3:8:36Z</time></trkpt>
<trkpt lat="46.6196406819" lon="6.4897316135"><ele></ele><time>2014-6-9T3:8:39Z</time></trkpt>
<trkpt lat="46.6198998503" lon="6.4894840121"><ele></ele><time>2014-6-9T3:8:42Z</time></trkpt>
<trkpt lat="46.6200014390" lon="6.4893778134"><ele></ele><time>2014-6-9T3:8:45Z</time></trkpt>
<trkpt lat="46.6199850943" lon="6.4893511590"><ele></ele><time>2014-6-9T3:8:48Z</time></trkpt>
<trkpt lat="46.6200024448" lon="6.4894568548"><ele></ele><time>2014-6-9T3:8:51Z</time></trkpt>
<trkpt lat="46.6200006846" lon="6.4894566033"><ele></ele><time>2014-6-9T3:8:54Z</time></trkpt>
<trkpt lat="46.6197203938" lon="6.4896395802"><ele></ele><time>2014-6-9T3:8:57Z</time></trkpt>
<trkpt lat="46.6195658315" lon="6.4897223096"><ele></ele><time>2014-6-9T3:9:0Z</time></trkpt>
<trkpt lat="46.6194882151" lon="6.4899399038"><ele></ele><time>2014-6-9T3:9:3Z</time></trkpt>
<trkpt lat="46.6196089983" lon="6.4900921192"><ele></ele><time>2014-6-9T3:9:6Z</time></trkpt>
<trkpt lat="46.6200200468" lon="6.4900025167"><ele></ele><time>2014-6-9T3:9:9Z</time></trkpt>
<trkpt lat="46.6204818059" lon="6.4898922108"><ele></ele><time>2014-6-9T3:9:12Z</time></trkpt>
<trkpt lat="46.6209743265" lon="6.4898410812"><ele></ele><time>2014-6-9T3:9:15Z</time></trkpt>
<trkpt lat="46.6214431264" lon="6.4898034465"><ele></ele><time>2014-6-9T3:9:18Z</time></trkpt>
<trkpt lat="46.6220280156" lon="6.4897363074"><ele></ele><time>2014-6-9T3:9:21Z</time></trkpt>
<trkpt lat="46.6227933671" lon="6.4896566793"><ele></ele><time>2014-6-9T3:9:24Z</time></trkpt>
<trkpt lat="46.6235129535" lon="6.4895909652"><ele></ele><time>2014-6-9T3:9:27Z</time></trkpt>
<trkpt lat="46.6237658355" lon="6.4895794820"><ele></ele><time>2014-6-9T3:9:30Z</time></trkpt>
<trkpt lat="46.6244494636" lon="6.4896902908"><ele></ele><time>2014-6-9T3:9:33Z</time></trkpt>
<trkpt lat="46.6245562490" lon="6.4897361398"><ele></ele><time>2014-6-9T3:9:36Z</time></trkpt>
<trkpt lat="46.6252361890" lon="6.4901571628"><ele></ele><time>2014-6-9T3:9:39Z</time></trkpt>
<trkpt lat="46.6257092636" lon="6.4904579055"><ele></ele><time>2014-6-9T3:9:42Z</time></trkpt>
<trkpt lat="46.6260181367" lon="6.4906706382"><ele></ele><time>2014-6-9T3:9:45Z</time></trkpt>
<trkpt lat="46.6261944920" lon="6.4907968696"><ele></ele><time>2014-6-9T3:9:48Z</time></trkpt>
<trkpt lat="46.6262734495" lon="6.4908741508"><ele></ele><time>2014-6-9T3:9:51Z</time></trkpt>
<trkpt lat="46.6267960612" lon="6.4913259353"><ele></ele><time>2014-6-9T3:9:54Z</time></trkpt>
<trkpt lat="46.6269545630" lon="6.4915091638"><ele></ele><time>2014-6-9T3:9:57Z</time></trkpt>
<trkpt lat="46.6271270625" lon="6.4917867724"><ele></ele><time>2014-6-9T3:10:0Z</time></trkpt>
<trkpt lat="46.6273245402" lon="6.4923033491"><ele></ele><time>2014-6-9T3:10:3Z</time></trkpt>
<trkpt lat="46.6273884103" lon="6.4925133996"><ele></ele><time>2014-6-9T3:10:6Z</time></trkpt>
<trkpt lat="46.6273512784" lon="6.4930166490"><ele></ele><time>2014-6-9T3:10:9Z</time></trkpt>
<trkpt lat="46.6272286512" lon="6.4931934234"><ele></ele><time>2014-6-9T3:10:12Z</time></trkpt>
<trkpt lat="46.6268954705" lon="6.4934698585"><ele></ele><time>2014-6-9T3:10:15Z</time></trkpt>
<trkpt lat="46.6267968155" lon="6.4936083276"><ele></ele><time>2014-6-9T3:10:18Z</time></trkpt>
<trkpt lat="46.6268952191" lon="6.4939863514"><ele></ele><time>2014-6-9T3:10:21Z</time></trkpt>
<trkpt lat="46.6271924414" lon="6.4939661510"><ele></ele><time>2014-6-9T3:10:24Z</time></trkpt>
<trkpt lat="46.6278534383" lon="6.4939120039"><ele></ele><time>2014-6-9T3:10:27Z</time></trkpt>
<trkpt lat="46.6285871901" lon="6.4937624708"><ele></ele><time>2014-6-9T3:10:30Z</time></trkpt>
<trkpt lat="46.6287344601" lon="6.4937936515"><ele></ele><time>2014-6-9T3:10:33Z</time></trkpt>
<trkpt lat="46.6290193610" lon="6.4939608704"><ele></ele><time>2014-6-9T3:10:36Z</time></trkpt>
<trkpt lat="46.6291160882" lon="6.4940239023"><ele></ele><time>2014-6-9T3:10:39Z</time></trkpt>
<trkpt lat="46.6292144917" lon="6.4940689132"><ele></ele><time>2014-6-9T3:10:42Z</time></trkpt>
<trkpt lat="46.6299241036" lon="6.4941638801"><ele></ele><time>2014-6-9T3:10:45Z</time></trkpt>
<trkpt lat="46.6299760714" lon="6.4941829909"><ele></ele><time>2014-6-9T3:10:48Z</time></trkpt>
<trkpt lat="46.6300750617" lon="6.4942052029"><ele></ele><time>2014-6-9T3:10:51Z</time></trkpt>
<trkpt lat="46.6305709351" lon="6.4940014388"><ele></ele><time>2014-6-9T3:10:54Z</time></trkpt>
<trkpt lat="46.6306250822" lon="6.4939339645"><ele></ele><time>2014-6-9T3:10:57Z</time></trkpt>
<trkpt lat="46.6309041996" lon="6.4939971641"><ele></ele><time>2014-6-9T3:11:0Z</time></trkpt>
<trkpt lat="46.6316061839" lon="6.4944118168"><ele></ele><time>2014-6-9T3:11:3Z</time></trkpt>
<trkpt lat="46.6316491831" lon="6.4944391418"><ele></ele><time>2014-6-9T3:11:6Z</time></trkpt>
<trkpt lat="46.6324847750" lon="6.4949168265"><ele></ele><time>2014-6-9T3:11:9Z</time></trkpt>
<trkpt lat="46.6332143359" lon="6.4953246061"><ele></ele><time>2014-6-9T3:11:12Z</time></trkpt>
<trkpt lat="46.6337404680" lon="6.4956229180"><ele></ele><time>2014-6-9T3:11:15Z</time></trkpt>
<trkpt lat="46.6339933500" lon="6.4955232572"><ele></ele><time>2014-6-9T3:11:18Z</time></trkpt>
<trkpt lat="46.6346232500" lon="6.4948599134"><ele></ele><time>2014-6-9T3:11:21Z</time></trkpt>
<trkpt lat="46.6346708592" lon="6.4948123880"><ele></ele><time>2014-6-9T3:11:24Z</time></trkpt>
<trkpt lat="46.6350260004" lon="6.4944067039"><ele></ele><time>2014-6-9T3:11:27Z</time></trkpt>
<trkpt lat="46.6351753660" lon="6.4940651413"><ele></ele><time>2014-6-9T3:11:30Z</time></trkpt>
<trkpt lat="46.6352277528" lon="6.4938872773"><ele></ele><time>2014-6-9T3:11:33Z</time></trkpt>
<trkpt lat="46.6354111489" lon="6.4932932518"><ele></ele><time>2014-6-9T3:11:36Z</time></trkpt>
<trkpt lat="46.6356165893" lon="6.4931518491"><ele></ele><time>2014-6-9T3:11:39Z</time></trkpt>
<trkpt lat="46.6362015624" lon="6.4935346507"><ele></ele><time>2014-6-9T3:11:42Z</time></trkpt>
<trkpt lat="46.6366417799" lon="6.4937887061"><ele></ele><time>2014-6-9T3:11:45Z</time></trkpt>
<trkpt lat="46.6369157843" lon="6.4937265962"><ele></ele><time>2014-6-9T3:11:48Z</time></trkpt>
<trkpt lat="46.6370975040" lon="6.4932737220"><ele></ele><time>2014-6-9T3:11:51Z</time></trkpt>
<trkpt lat="46.6373395734" lon="6.4930422977"><ele></ele><time>2014-6-9T3:11:54Z</time></trkpt>
<trkpt lat="46.6377212014" lon="6.4929864742"><ele></ele><time>2014-6-9T3:11:57Z</time></trkpt>
<trkpt lat="46.6380543821" lon="6.4930306468"><ele></ele><time>2014-6-9T3:12:0Z</time></trkpt>
<trkpt lat="46.6384188272" lon="6.4931435511"><ele></ele><time>2014-6-9T3:12:3Z</time></trkpt>
<trkpt lat="46.6388648283" lon="6.4933012147"><ele></ele><time>2014-6-9T3:12:6Z</time></trkpt>
<trkpt lat="46.6389468033" lon="6.4933022205"><ele></ele><time>2014-6-9T3:12:9Z</time></trkpt>
<trkpt lat="46.6390836798" lon="6.4933543559"><ele></ele><time>2014-6-9T3:12:12Z</time></trkpt>
<trkpt lat="46.6393282637" lon="6.4933611453"><ele></ele><time>2014-6-9T3:12:15Z</time></trkpt>
<trkpt lat="46.6394187883" lon="6.4933283720"><ele></ele><time>2014-6-9T3:12:18Z</time></trkpt>
<trkpt lat="46.6395448521" lon="6.4932445530"><ele></ele><time>2014-6-9T3:12:21Z</time></trkpt>
<trkpt lat="46.6397109814" lon="6.4931445569"><ele></ele><time>2014-6-9T3:12:24Z</time></trkpt>
<trkpt lat="46.6400901787" lon="6.4929888211"><ele></ele><time>2014-6-9T3:12:27Z</time></trkpt>
<trkpt lat="46.6405640077" lon="6.4929646812"><ele></ele><time>2014-6-9T3:12:30Z</time></trkpt>
<trkpt lat="46.6409553587" lon="6.4932593890"><ele></ele><time>2014-6-9T3:12:33Z</time></trkpt>
<trkpt lat="46.6414990928" lon="6.4936317131"><ele></ele><time>2014-6-9T3:12:36Z</time></trkpt>
<trkpt lat="46.6420040186" lon="6.4938879479"><ele></ele><time>2014-6-9T3:12:39Z</time></trkpt>
<trkpt lat="46.6421978921" lon="6.4939737786"><ele></ele><time>2014-6-9T3:12:42Z</time></trkpt>
<trkpt lat="46.6424970422" lon="6.4941207971"><ele></ele><time>2014-6-9T3:12:45Z</time></trkpt>
<trkpt lat="46.6426707990" lon="6.4941553306"><ele></ele><time>2014-6-9T3:12:48Z</time></trkpt>
<trkpt lat="46.6431235895" lon="6.4941502176"><ele></ele><time>2014-6-9T3:12:51Z</time></trkpt>
<trkpt lat="46.6432181373" lon="6.4941741060"><ele></ele><time>2014-6-9T3:12:54Z</time></trkpt>
<trkpt lat="46.6433201451" lon="6.4942173567"><ele></ele><time>2014-6-9T3:12:57Z</time></trkpt>
<trkpt lat="46.6434631404" lon="6.4942979906"><ele></ele><time>2014-6-9T3:13:0Z</time></trkpt>
<trkpt lat="46.6436120030" lon="6.4943788759"><ele></ele><time>2014-6-9T3:13:3Z</time></trkpt>
<trkpt lat="46.6438708361" lon="6.4945805445"><ele></ele><time>2014-6-9T3:13:6Z</time></trkpt>
<trkpt lat="46.6441913601" lon="6.4949006494"><ele></ele><time>2014-6-9T3:13:9Z</time></trkpt>
<trkpt lat="46.6443511192" lon="6.4950249530"><ele></ele><time>2014-6-9T3:13:12Z</time></trkpt>
<trkpt lat="46.6447902471" lon="6.4953177329"><ele></ele><time>2014-6-9T3:13:15Z</time></trkpt>
<trkpt lat="46.6451468132" lon="6.4956215769"><ele></ele><time>2014-6-9T3:13:18Z</time></trkpt>
<trkpt lat="46.6453426145" lon="6.4957373310"><ele></ele><time>2014-6-9T3:13:21Z</time></trkpt>
<trkpt lat="46.6455992684" lon="6.4960542507"><ele></ele><time>2014-6-9T3:13:24Z</time></trkpt>
<trkpt lat="46.6457301937" lon="6.4961451944"><ele></ele><time>2014-6-9T3:13:27Z</time></trkpt>
<trkpt lat="46.6458182875" lon="6.4962205477"><ele></ele><time>2014-6-9T3:13:30Z</time></trkpt>
<trkpt lat="46.6458918806" lon="6.4962426759"><ele></ele><time>2014-6-9T3:13:33Z</time></trkpt>
<trkpt lat="46.6459455248" lon="6.4962493815"><ele></ele><time>2014-6-9T3:13:36Z</time></trkpt>
<trkpt lat="46.6459464468" lon="6.4962657262"><ele></ele><time>2014-6-9T3:13:39Z</time></trkpt>
<trkpt lat="46.6459464468" lon="6.4962596074"><ele></ele><time>2014-6-9T3:13:42Z</time></trkpt>
<trkpt lat="46.6459402442" lon="6.4962477889"><ele></ele><time>2014-6-9T3:13:45Z</time></trkpt>
<trkpt lat="46.6459363885" lon="6.4962684084"><ele></ele><time>2014-6-9T3:13:48Z</time></trkpt>
<trkpt lat="46.6459459439" lon="6.4962575957"><ele></ele><time>2014-6-9T3:13:51Z</time></trkpt>
<trkpt lat="46.6461440921" lon="6.4958234131"><ele></ele><time>2014-6-9T3:13:54Z</time></trkpt>
<trkpt lat="46.6463940404" lon="6.4952599816"><ele></ele><time>2014-6-9T3:13:57Z</time></trkpt>
<trkpt lat="46.6465162486" lon="6.4953053277"><ele></ele><time>2014-6-9T3:14:0Z</time></trkpt>
<trkpt lat="46.6465558112" lon="6.4953368437"><ele></ele><time>2014-6-9T3:14:3Z</time></trkpt>
<trkpt lat="46.6466255486" lon="6.4952914976"><ele></ele><time>2014-6-9T3:14:6Z</time></trkpt>
<trkpt lat="46.6468397062" lon="6.4948211052"><ele></ele><time>2014-6-9T3:14:9Z</time></trkpt>
<trkpt lat="46.6468973737" lon="6.4947086200"><ele></ele><time>2014-6-9T3:14:12Z</time></trkpt>
<trkpt lat="46.6471354198" lon="6.4943893533"><ele></ele><time>2014-6-9T3:14:15Z</time></trkpt>
<trkpt lat="46.6473672632" lon="6.4944902714"><ele></ele><time>2014-6-9T3:14:18Z</time></trkpt>
<trkpt lat="46.6476074886" lon="6.4949990530"><ele></ele><time>2014-6-9T3:14:21Z</time></trkpt>
<trkpt lat="46.6477489751" lon="6.4954754803"><ele></ele><time>2014-6-9T3:14:24Z</time></trkpt>
<trkpt lat="46.6479173675" lon="6.4954704512"><ele></ele><time>2014-6-9T3:14:27Z</time></trkpt>
<trkpt lat="46.6482806392" lon="6.4951894898"><ele></ele><time>2014-6-9T3:14:30Z</time></trkpt>
<trkpt lat="46.6485334374" lon="6.4951355103"><ele></ele><time>2014-6-9T3:14:33Z</time></trkpt>
<trkpt lat="46.6487799492" lon="6.4952565450"><ele></ele><time>2014-6-9T3:14:36Z</time></trkpt>
<trkpt lat="46.6495063249" lon="6.4954467304"><ele></ele><time>2014-6-9T3:14:39Z</time></trkpt>
<trkpt lat="46.6500040423" lon="6.4953550324"><ele></ele><time>2014-6-9T3:14:42Z</time></trkpt>
<trkpt lat="46.6501501389" lon="6.4953261148"><ele></ele><time>2014-6-9T3:14:45Z</time></trkpt>
<trkpt lat="46.6505491175" lon="6.4954200760"><ele></ele><time>2014-6-9T3:14:48Z</time></trkpt>
<trkpt lat="46.6512261238" lon="6.4955708664"><ele></ele><time>2014-6-9T3:14:51Z</time></trkpt>
<trkpt lat="46.6519995220" lon="6.4958334714"><ele></ele><time>2014-6-9T3:14:54Z</time></trkpt>
<trkpt lat="46.6525684018" lon="6.4960626327"><ele></ele><time>2014-6-9T3:14:57Z</time></trkpt>
<trkpt lat="46.6529132333" lon="6.4963026904"><ele></ele><time>2014-6-9T3:15:0Z</time></trkpt>
<trkpt lat="46.6533392016" lon="6.4965749346"><ele></ele><time>2014-6-9T3:15:3Z</time></trkpt>
<trkpt lat="46.6535919998" lon="6.4968347736"><ele></ele><time>2014-6-9T3:15:6Z</time></trkpt>
<trkpt lat="46.6536391061" lon="6.4968861546"><ele></ele><time>2014-6-9T3:15:9Z</time></trkpt>
<trkpt lat="46.6536294669" lon="6.4969073609"><ele></ele><time>2014-6-9T3:15:12Z</time></trkpt>
<trkpt lat="46.6536717955" lon="6.4968720730"><ele></ele><time>2014-6-9T3:15:15Z</time></trkpt>
<trkpt lat="46.6537397727" lon="6.4969228674"><ele></ele><time>2014-6-9T3:15:18Z</time></trkpt>
<trkpt lat="46.6537542734" lon="6.4969428163"><ele></ele><time>2014-6-9T3:15:21Z</time></trkpt>
<trkpt lat="46.6538361646" lon="6.4970465843"><ele></ele><time>2014-6-9T3:15:24Z</time></trkpt>
<trkpt lat="46.6542239953" lon="6.4973450638"><ele></ele><time>2014-6-9T3:15:27Z</time></trkpt>
<trkpt lat="46.6544440202" lon="6.4973636717"><ele></ele><time>2014-6-9T3:15:30Z</time></trkpt>
<trkpt lat="46.6544490494" lon="6.4972131327"><ele></ele><time>2014-6-9T3:15:33Z</time></trkpt>
<trkpt lat="46.6544021107" lon="6.4971454069"><ele></ele><time>2014-6-9T3:15:36Z</time></trkpt>
<trkpt lat="46.6543098260" lon="6.4969590772"><ele></ele><time>2014-6-9T3:15:39Z</time></trkpt>
<trkpt lat="46.6545383167" lon="6.4964935463"><ele></ele><time>2014-6-9T3:15:42Z</time></trkpt>
<trkpt lat="46.6549515445" lon="6.4958212338"><ele></ele><time>2014-6-9T3:15:45Z</time></trkpt>
<trkpt lat="46.6549824737" lon="6.4957624767"><ele></ele><time>2014-6-9T3:15:48Z</time></trkpt>
<trkpt lat="46.6551769339" lon="6.4953937568"><ele></ele><time>2014-6-9T3:15:51Z</time></trkpt>
<trkpt lat="46.6552103776" lon="6.4952130429"><ele></ele><time>2014-6-9T3:15:54Z</time></trkpt>
<trkpt lat="46.6552099586" lon="6.4951810241"><ele></ele><time>2014-6-9T3:15:57Z</time></trkpt>
<trkpt lat="46.6552337632" lon="6.4951622486"><ele></ele><time>2014-6-9T3:16:0Z</time></trkpt>
<trkpt lat="46.6552947834" lon="6.4951865561"><ele></ele><time>2014-6-9T3:16:3Z</time></trkpt>
<trkpt lat="46.6554008145" lon="6.4951511845"><ele></ele><time>2014-6-9T3:16:6Z</time></trkpt>
<trkpt lat="46.6554470826" lon="6.4951393660"><ele></ele><time>2014-6-9T3:16:9Z</time></trkpt>
<trkpt lat="46.6554609966" lon="6.4951487537"><ele></ele><time>2014-6-9T3:16:12Z</time></trkpt>
<trkpt lat="46.6555317398" lon="6.4951253682"><ele></ele><time>2014-6-9T3:16:15Z</time></trkpt>
<trkpt lat="46.6555824503" lon="6.4949723985"><ele></ele><time>2014-6-9T3:16:18Z</time></trkpt>
<trkpt lat="46.6556194983" lon="6.4949154016"><ele></ele><time>2014-6-9T3:16:21Z</time></trkpt>
<trkpt lat="46.6556611564" lon="6.4948202670"><ele></ele><time>2014-6-9T3:16:24Z</time></trkpt>
<trkpt lat="46.6556691192" lon="6.4948003180"><ele></ele><time>2014-6-9T3:16:27Z</time></trkpt>
<trkpt lat="46.6557209194" lon="6.4947500266"><ele></ele><time>2014-6-9T3:16:30Z</time></trkpt>
<trkpt lat="46.6557497531" lon="6.4948467538"><ele></ele><time>2014-6-9T3:16:33Z</time></trkpt>
<trkpt lat="46.6558223404" lon="6.4948097896"><ele></ele><time>2014-6-9T3:16:36Z</time></trkpt>
<trkpt lat="46.6560361627" lon="6.4948069397"><ele></ele><time>2014-6-9T3:16:39Z</time></trkpt>
<trkpt lat="46.6561586224" lon="6.4944863319"><ele></ele><time>2014-6-9T3:16:42Z</time></trkpt>
<trkpt lat="46.6560952552" lon="6.4940581843"><ele></ele><time>2014-6-9T3:16:45Z</time></trkpt>
<trkpt lat="46.6560841911" lon="6.4939897880"><ele></ele><time>2014-6-9T3:16:48Z</time></trkpt>
<trkpt lat="46.6559706163" lon="6.4938824158"><ele></ele><time>2014-6-9T3:16:51Z</time></trkpt>
<trkpt lat="46.6558327340" lon="6.4937730320"><ele></ele><time>2014-6-9T3:16:54Z</time></trkpt>
<trkpt lat="46.6557837836" lon="6.4936809149"><ele></ele><time>2014-6-9T3:16:57Z</time></trkpt>
<trkpt lat="46.6556381062" lon="6.4937188011"><ele></ele><time>2014-6-9T3:17:0Z</time></trkpt>
<trkpt lat="46.6556208394" lon="6.4937357325"><ele></ele><time>2014-6-9T3:17:3Z</time></trkpt>
<trkpt lat="46.6556481645" lon="6.4937060606"><ele></ele><time>2014-6-9T3:17:6Z</time></trkpt>
<trkpt lat="46.6556443088" lon="6.4937555138"><ele></ele><time>2014-6-9T3:17:9Z</time></trkpt>
<trkpt lat="46.6556359269" lon="6.4937304519"><ele></ele><time>2014-6-9T3:17:12Z</time></trkpt>
<trkpt lat="46.6555611603" lon="6.4938143548"><ele></ele><time>2014-6-9T3:17:15Z</time></trkpt>
<trkpt lat="46.6556446441" lon="6.4937390853"><ele></ele><time>2014-6-9T3:17:18Z</time></trkpt>
<trkpt lat="46.6556612402" lon="6.4937622193"><ele></ele><time>2014-6-9T3:17:21Z</time></trkpt>
<trkpt lat="46.6557396110" lon="6.4937521610"><ele></ele><time>2014-6-9T3:17:24Z</time></trkpt>
<trkpt lat="46.6557361744" lon="6.4937023725"><ele></ele><time>2014-6-9T3:17:27Z</time></trkpt>
<trkpt lat="46.6557205841" lon="6.4937725291"><ele></ele><time>2014-6-9T3:17:30Z</time></trkpt>
<trkpt lat="46.6557800956" lon="6.4938154444"><ele></ele><time>2014-6-9T3:17:33Z</time></trkpt>
<trkpt lat="46.6558826063" lon="6.4938665740"><ele></ele><time>2014-6-9T3:17:36Z</time></trkpt>
<trkpt lat="46.6559748072" lon="6.4939256664"><ele></ele><time>2014-6-9T3:17:39Z</time></trkpt>
<trkpt lat="46.6559965163" lon="6.4940186217"><ele></ele><time>2014-6-9T3:17:42Z</time></trkpt>
<trkpt lat="46.6560408566" lon="6.4941281732"><ele></ele><time>2014-6-9T3:17:45Z</time></trkpt>
<trkpt lat="46.6560820118" lon="6.4943689853"><ele></ele><time>2014-6-9T3:17:48Z</time></trkpt>
<trkpt lat="46.6560415272" lon="6.4946079534"><ele></ele><time>2014-6-9T3:17:51Z</time></trkpt>
<trkpt lat="46.6559909843" lon="6.4948247094"><ele></ele><time>2014-6-9T3:17:54Z</time></trkpt>
<trkpt lat="46.6559328139" lon="6.4947443269"><ele></ele><time>2014-6-9T3:17:57Z</time></trkpt>
<trkpt lat="46.6557472385" lon="6.4949154016"><ele></ele><time>2014-6-9T3:18:0Z</time></trkpt>
<trkpt lat="46.6556786746" lon="6.4949687105"><ele></ele><time>2014-6-9T3:18:3Z</time></trkpt>
<trkpt lat="46.6556319874" lon="6.4950238634"><ele></ele><time>2014-6-9T3:18:6Z</time></trkpt>
<trkpt lat="46.6555341706" lon="6.4951189980"><ele></ele><time>2014-6-9T3:18:9Z</time></trkpt>
<trkpt lat="46.6554302350" lon="6.4951790124"><ele></ele><time>2014-6-9T3:18:12Z</time></trkpt>
<trkpt lat="46.6553986352" lon="6.4952052478"><ele></ele><time>2014-6-9T3:18:15Z</time></trkpt>
<trkpt lat="46.6552739963" lon="6.4951410424"><ele></ele><time>2014-6-9T3:18:18Z</time></trkpt>
<trkpt lat="46.6552666202" lon="6.4951242786"><ele></ele><time>2014-6-9T3:18:21Z</time></trkpt>
<trkpt lat="46.6552535444" lon="6.4951109514"><ele></ele><time>2014-6-9T3:18:24Z</time></trkpt>
<trkpt lat="46.6551902611" lon="6.4951962791"><ele></ele><time>2014-6-9T3:18:27Z</time></trkpt>
<trkpt lat="46.6552128922" lon="6.4952127915"><ele></ele><time>2014-6-9T3:18:30Z</time></trkpt>
<trkpt lat="46.6552544665" lon="6.4951932617"><ele></ele><time>2014-6-9T3:18:33Z</time></trkpt>
<trkpt lat="46.6552570648" lon="6.4952703752"><ele></ele><time>2014-6-9T3:18:36Z</time></trkpt>
<trkpt lat="46.6552374512" lon="6.4953471534"><ele></ele><time>2014-6-9T3:18:39Z</time></trkpt>
<trkpt lat="46.6551346891" lon="6.4955750573"><ele></ele><time>2014-6-9T3:18:42Z</time></trkpt>
<trkpt lat="46.6550434940" lon="6.4958187193"><ele></ele><time>2014-6-9T3:18:45Z</time></trkpt>
<trkpt lat="46.6550141573" lon="6.4961021114"><ele></ele><time>2014-6-9T3:18:48Z</time></trkpt>
<trkpt lat="46.6550155822" lon="6.4961284306"><ele></ele><time>2014-6-9T3:18:51Z</time></trkpt>
<trkpt lat="46.6549978964" lon="6.4962279238"><ele></ele><time>2014-6-9T3:18:54Z</time></trkpt>
<trkpt lat="46.6549713258" lon="6.4963250700"><ele></ele><time>2014-6-9T3:18:57Z</time></trkpt>
<trkpt lat="46.6548687313" lon="6.4965225477"><ele></ele><time>2014-6-9T3:19:0Z</time></trkpt>
<trkpt lat="46.6548920330" lon="6.4968046825"><ele></ele><time>2014-6-9T3:19:3Z</time></trkpt>
<trkpt lat="46.6549157538" lon="6.4969917666"><ele></ele><time>2014-6-9T3:19:6Z</time></trkpt>
<trkpt lat="46.6549431626" lon="6.4970316645"><ele></ele><time>2014-6-9T3:19:9Z</time></trkpt>
<trkpt lat="46.6549416538" lon="6.4970404655"><ele></ele><time>2014-6-9T3:19:12Z</time></trkpt>
<trkpt lat="46.6549368761" lon="6.4970755018"><ele></ele><time>2014-6-9T3:19:15Z</time></trkpt>
<trkpt lat="46.6550435778" lon="6.4971961174"><ele></ele><time>2014-6-9T3:19:18Z</time></trkpt>
<trkpt lat="46.6552242078" lon="6.4975426253"><ele></ele><time>2014-6-9T3:19:21Z</time></trkpt>
<trkpt lat="46.6552947834" lon="6.4978209045"><ele></ele><time>2014-6-9T3:19:24Z</time></trkpt>
<trkpt lat="46.6553296521" lon="6.4980307873"><ele></ele><time>2014-6-9T3:19:27Z</time></trkpt>
<trkpt lat="46.6553309932" lon="6.4984243177"><ele></ele><time>2014-6-9T3:19:30Z</time></trkpt>
<trkpt lat="46.6553114634" lon="6.4985616971"><ele></ele><time>2014-6-9T3:19:33Z</time></trkpt>
<trkpt lat="46.6552546341" lon="6.4992551319"><ele></ele><time>2014-6-9T3:19:36Z</time></trkpt>
<trkpt lat="46.6551937815" lon="6.4996448904"><ele></ele><time>2014-6-9T3:19:39Z</time></trkpt>
<trkpt lat="46.6552568972" lon="6.5002681687"><ele></ele><time>2014-6-9T3:19:42Z</time></trkpt>
<trkpt lat="46.6553256288" lon="6.5003739484"><ele></ele><time>2014-6-9T3:19:45Z</time></trkpt>
<trkpt lat="46.6553686280" lon="6.5006839111"><ele></ele><time>2014-6-9T3:19:48Z</time></trkpt>
<trkpt lat="46.6552960407" lon="6.5007694904"><ele></ele><time>2014-6-9T3:19:51Z</time></trkpt>
<trkpt lat="46.6551999841" lon="6.5008597635"><ele></ele><time>2014-6-9T3:19:54Z</time></trkpt>
<trkpt lat="46.6549046896" lon="6.5010047704"><ele></ele><time>2014-6-9T3:19:57Z</time></trkpt>
<trkpt lat="46.6546467785" lon="6.5013290662"><ele></ele><time>2014-6-9T3:20:0Z</time></trkpt>
<trkpt lat="46.6545857582" lon="6.5019826870"><ele></ele><time>2014-6-9T3:20:3Z</time></trkpt>
<trkpt lat="46.6545878537" lon="6.5022553504"><ele></ele><time>2014-6-9T3:20:6Z</time></trkpt>
<trkpt lat="46.6542757116" lon="6.5028548241"><ele></ele><time>2014-6-9T3:20:9Z</time></trkpt>
<trkpt lat="46.6540903039" lon="6.5030046925"><ele></ele><time>2014-6-9T3:20:12Z</time></trkpt>
<trkpt lat="46.6538992804" lon="6.5033872426"><ele></ele><time>2014-6-9T3:20:15Z</time></trkpt>
<trkpt lat="46.6538594663" lon="6.5035635140"><ele></ele><time>2014-6-9T3:20:18Z</time></trkpt>
<trkpt lat="46.6535059176" lon="6.5046933945"><ele></ele><time>2014-6-9T3:20:21Z</time></trkpt>
<trkpt lat="46.6535845399" lon="6.5054184292"><ele></ele><time>2014-6-9T3:20:24Z</time></trkpt>
<trkpt lat="46.6536422912" lon="6.5054615960"><ele></ele><time>2014-6-9T3:20:27Z</time></trkpt>
<trkpt lat="46.6538197361" lon="6.5056270547"><ele></ele><time>2014-6-9T3:20:30Z</time></trkpt>
<trkpt lat="46.6538038943" lon="6.5057925135"><ele></ele><time>2014-6-9T3:20:33Z</time></trkpt>
<trkpt lat="46.6535477433" lon="6.5066071507"><ele></ele><time>2014-6-9T3:20:36Z</time></trkpt>
<trkpt lat="46.6535258666" lon="6.5066706855"><ele></ele><time>2014-6-9T3:20:39Z</time></trkpt>
<trkpt lat="46.6534285527" lon="6.5070767887"><ele></ele><time>2014-6-9T3:20:42Z</time></trkpt>
<trkpt lat="46.6534239426" lon="6.5074283257"><ele></ele><time>2014-6-9T3:20:45Z</time></trkpt>
<trkpt lat="46.6533744056" lon="6.5081821941"><ele></ele><time>2014-6-9T3:20:48Z</time></trkpt>
<trkpt lat="46.6532589030" lon="6.5082909074"><ele></ele><time>2014-6-9T3:20:51Z</time></trkpt>
<trkpt lat="46.6531413887" lon="6.5083484072"><ele></ele><time>2014-6-9T3:20:54Z</time></trkpt>
<trkpt lat="46.6528473515" lon="6.5086841863"><ele></ele><time>2014-6-9T3:20:57Z</time></trkpt>
<trkpt lat="46.6528620198" lon="6.5087395068"><ele></ele><time>2014-6-9T3:21:0Z</time></trkpt>
<trkpt lat="46.6528730839" lon="6.5087012015"><ele></ele><time>2014-6-9T3:21:3Z</time></trkpt>
<trkpt lat="46.6528507881" lon="6.5086827613"><ele></ele><time>2014-6-9T3:21:6Z</time></trkpt>
<trkpt lat="46.6528471839" lon="6.5086948313"><ele></ele><time>2014-6-9T3:21:9Z</time></trkpt>
<trkpt lat="46.6528502014" lon="6.5087125171"><ele></ele><time>2014-6-9T3:21:12Z</time></trkpt>
<trkpt lat="46.6528616846" lon="6.5087154508"><ele></ele><time>2014-6-9T3:21:15Z</time></trkpt>
<trkpt lat="46.6528542247" lon="6.5087019559"><ele></ele><time>2014-6-9T3:21:18Z</time></trkpt>
<trkpt lat="46.6528392211" lon="6.5087013692"><ele></ele><time>2014-6-9T3:21:21Z</time></trkpt>
<trkpt lat="46.6528533865" lon="6.5087036323"><ele></ele><time>2014-6-9T3:21:24Z</time></trkpt>
<trkpt lat="46.6528633609" lon="6.5086863656"><ele></ele><time>2014-6-9T3:21:27Z</time></trkpt>
<trkpt lat="46.6528541408" lon="6.5087022074"><ele></ele><time>2014-6-9T3:21:30Z</time></trkpt>
<trkpt lat="46.6528506204" lon="6.5087120142"><ele></ele><time>2014-6-9T3:21:33Z</time></trkpt>
<trkpt lat="46.6528506204" lon="6.5087144449"><ele></ele><time>2014-6-9T3:21:36Z</time></trkpt>
</trkseg></trk></gpx>